Darstellungsparameter: Aktuell verwendete Einstellungen:
Skalierung der Graphiken ... ?
xyx+y,   Skalierungsfaktor:      Skalierung: Modus: x, Faktor: 1
Darstellungszeitraum ... ?
Vom - - bis: - -   Zeitraum: 18.04.2019 - 17.07.2019
Min/Max/Avg-Anzeige ... ?
Zeige MMA aktuell
Zeige MMA Monat
Zeige MMA alles
Zeige --A aktuell
Zeige --A Monat
Zeige --A alles
Keine MMA-Anzeige
MMA:
Keine MMA-Graphiken
MMA-Basis: 18.04.2019 - 17.07.2019
Quicknavigation für Darstellung... ?
Tage:      1T, 2T, 3T, 5T -1T -2T -3T -5T +1T +2T +3T +5T
Wochen: 1W, 2W, 3W -1W -2W -3W +1W +2W +3W
Monate: 1M, 3M, 6M -1M -3M -6M +1M +3M +6M
Jahre:    1J, 3J, 5J, 10J -1J -3J -5J -10J +1J +3J +5J +10J
Nutze für die Darstellung ... ?
Originaldaten oder Mittelwerte auf ...
Stundenbasis Tagesbasis Wochenbasis
Monatsbasis Jahresbasis      Datenbasis: Original-Daten
Darstellen als:
Statistik (Auto) Statistik J:M      Darstellung:
Zur Graphik,    zurück zur Übersicht aller Sensoren.
 
Tabellarische Datenbersicht: ?
 
Sensor: Nr:Datum:Temp:Feuchte:Taupunkt:
Aussen-T/F 1 18-04-2019 00:00:00 8.8 C 85 % 6.42 C
2 18-04-2019 00:05:00 8.8 C 86 % 6.59 C
3 18-04-2019 00:10:00 8.7 C 86 % 6.49 C
4 18-04-2019 00:15:00 8.7 C 87 % 6.66 C
5 18-04-2019 00:20:00 8.7 C 87 % 6.66 C
6 18-04-2019 00:25:00 8.6 C 88 % 6.73 C
7 18-04-2019 00:30:00 8.7 C 88 % 6.83 C
8 18-04-2019 00:35:00 8.7 C 88 % 6.83 C
9 18-04-2019 00:40:00 8.7 C 89 % 6.99 C
10 18-04-2019 00:45:00 8.7 C 89 % 6.99 C
11 18-04-2019 00:50:00 8.7 C 89 % 6.99 C
12 18-04-2019 00:55:00 8.7 C 89 % 6.99 C
13 18-04-2019 01:00:00 8.7 C 89 % 6.99 C
14 18-04-2019 01:05:00 8.7 C 89 % 6.99 C
15 18-04-2019 01:10:00 8.7 C 89 % 6.99 C
16 18-04-2019 01:15:00 8.7 C 88 % 6.83 C
17 18-04-2019 01:20:00 8.8 C 88 % 6.93 C
18 18-04-2019 01:25:00 8.8 C 88 % 6.93 C
19 18-04-2019 01:30:00 8.8 C 88 % 6.93 C
20 18-04-2019 01:35:00 8.8 C 88 % 6.93 C
21 18-04-2019 01:40:00 8.8 C 88 % 6.93 C
22 18-04-2019 01:45:00 8.8 C 88 % 6.93 C
23 18-04-2019 01:50:00 8.8 C 88 % 6.93 C
24 18-04-2019 01:55:00 8.7 C 87 % 6.66 C
25 18-04-2019 02:00:00 8.7 C 87 % 6.66 C
Sensor: Nr:Datum:Temp:Feuchte:Taupunkt:
Aussen-T/F 26 18-04-2019 02:05:00 8.7 C 88 % 6.83 C
27 18-04-2019 02:10:00 8.7 C 88 % 6.83 C
28 18-04-2019 02:15:00 8.7 C 88 % 6.83 C
29 18-04-2019 02:20:00 8.6 C 88 % 6.73 C
30 18-04-2019 02:25:00 8.5 C 87 % 6.46 C
31 18-04-2019 02:30:00 8.5 C 88 % 6.63 C
32 18-04-2019 02:35:00 8.5 C 88 % 6.63 C
33 18-04-2019 02:40:00 8.5 C 88 % 6.63 C
34 18-04-2019 02:45:00 8.5 C 88 % 6.63 C
35 18-04-2019 02:50:00 8.4 C 87 % 6.37 C
36 18-04-2019 02:55:00 8.3 C 87 % 6.27 C
37 18-04-2019 03:00:00 8.3 C 87 % 6.27 C
38 18-04-2019 03:05:00 8.3 C 87 % 6.27 C
39 18-04-2019 03:10:00 8.3 C 86 % 6.1 C
40 18-04-2019 03:15:00 8.3 C 86 % 6.1 C
41 18-04-2019 03:20:00 8.2 C 86 % 6 C
42 18-04-2019 03:25:00 8.2 C 86 % 6 C
43 18-04-2019 03:30:00 8.1 C 86 % 5.9 C
44 18-04-2019 03:35:00 7.9 C 86 % 5.71 C
45 18-04-2019 03:40:00 7.8 C 86 % 5.61 C
46 18-04-2019 03:45:00 7.7 C 87 % 5.68 C
47 18-04-2019 03:50:00 7.6 C 87 % 5.58 C
48 18-04-2019 03:55:00 7.5 C 87 % 5.48 C
49 18-04-2019 04:00:00 7.4 C 87 % 5.38 C
50 18-04-2019 04:05:00 7.3 C 88 % 5.45 C
Sensor: Nr:Datum:Temp:Feuchte:Taupunkt:
Aussen-T/F 51 18-04-2019 04:10:00 7.2 C 87 % 5.19 C
52 18-04-2019 04:15:00 7.2 C 88 % 5.35 C
53 18-04-2019 04:20:00 7.1 C 88 % 5.25 C
54 18-04-2019 04:25:00 7.1 C 88 % 5.25 C
55 18-04-2019 04:30:00 7.1 C 88 % 5.25 C
56 18-04-2019 04:35:00 7.2 C 88 % 5.35 C
57 18-04-2019 04:40:00 7.2 C 88 % 5.35 C
58 18-04-2019 04:45:00 7.1 C 88 % 5.25 C
59 18-04-2019 04:50:00 7.1 C 88 % 5.25 C
60 18-04-2019 04:55:00 7 C 89 % 5.31 C
61 18-04-2019 05:00:00 7 C 89 % 5.31 C
62 18-04-2019 05:05:00 7 C 89 % 5.31 C
63 18-04-2019 05:10:00 7 C 89 % 5.31 C
64 18-04-2019 05:15:00 7 C 89 % 5.31 C
65 18-04-2019 05:20:00 6.9 C 89 % 5.22 C
66 18-04-2019 05:25:00 6.9 C 90 % 5.38 C
67 18-04-2019 05:30:00 6.9 C 90 % 5.38 C
68 18-04-2019 05:35:00 6.8 C 90 % 5.28 C
69 18-04-2019 05:40:00 6.8 C 90 % 5.28 C
70 18-04-2019 05:45:00 6.8 C 90 % 5.28 C
71 18-04-2019 05:50:00 6.7 C 91 % 5.34 C
72 18-04-2019 05:55:00 6.7 C 91 % 5.34 C
73 18-04-2019 06:00:00 6.6 C 91 % 5.24 C
74 18-04-2019 06:05:00 6.6 C 91 % 5.24 C
75 18-04-2019 06:10:00 6.6 C 91 % 5.24 C
Sensor: Nr:Datum:Temp:Feuchte:Taupunkt:
Aussen-T/F 76 18-04-2019 06:15:00 6.7 C 91 % 5.34 C
77 18-04-2019 06:20:00 6.7 C 91 % 5.34 C
78 18-04-2019 06:25:00 6.7 C 91 % 5.34 C
79 18-04-2019 06:30:00 6.8 C 91 % 5.44 C
80 18-04-2019 06:35:00 6.8 C 90 % 5.28 C
81 18-04-2019 06:40:00 6.9 C 90 % 5.38 C
82 18-04-2019 06:45:00 6.9 C 90 % 5.38 C
83 18-04-2019 06:50:00 6.9 C 89 % 5.22 C
84 18-04-2019 06:55:00 7 C 89 % 5.31 C
85 18-04-2019 07:00:00 7 C 89 % 5.31 C
86 18-04-2019 07:05:00 7.1 C 89 % 5.41 C
87 18-04-2019 07:10:00 7.1 C 89 % 5.41 C
88 18-04-2019 07:15:00 7.2 C 89 % 5.51 C
89 18-04-2019 07:20:00 7.2 C 89 % 5.51 C
90 18-04-2019 07:25:00 7.3 C 89 % 5.61 C
91 18-04-2019 07:30:00 7.4 C 89 % 5.71 C
92 18-04-2019 07:35:00 7.6 C 89 % 5.91 C
93 18-04-2019 07:40:00 7.7 C 89 % 6 C
94 18-04-2019 07:45:00 7.8 C 88 % 5.94 C
95 18-04-2019 07:50:00 7.9 C 88 % 6.04 C
96 18-04-2019 07:55:00 8 C 88 % 6.14 C
97 18-04-2019 08:00:00 8.1 C 88 % 6.24 C
98 18-04-2019 08:05:00 8.2 C 88 % 6.33 C
99 18-04-2019 08:10:00 8.3 C 88 % 6.43 C
100 18-04-2019 08:15:00 8.3 C 88 % 6.43 C
Sensor: Nr:Datum:Temp:Feuchte:Taupunkt:
Aussen-T/F 101 18-04-2019 08:20:00 8.4 C 88 % 6.53 C
102 18-04-2019 08:25:00 8.4 C 88 % 6.53 C
103 18-04-2019 08:30:00 8.6 C 88 % 6.73 C
104 18-04-2019 08:35:00 8.6 C 88 % 6.73 C
105 18-04-2019 08:40:00 8.6 C 88 % 6.73 C
106 18-04-2019 08:45:00 8.7 C 88 % 6.83 C
107 18-04-2019 08:50:00 8.7 C 87 % 6.66 C
108 18-04-2019 08:55:00 8.8 C 87 % 6.76 C
109 18-04-2019 09:00:00 8.9 C 87 % 6.86 C
110 18-04-2019 09:05:00 9.1 C 86 % 6.89 C
111 18-04-2019 09:10:00 9.2 C 86 % 6.98 C
112 18-04-2019 09:15:00 9.4 C 86 % 7.18 C
113 18-04-2019 09:20:00 9.6 C 85 % 7.21 C
114 18-04-2019 09:25:00 9.7 C 84 % 7.13 C
115 18-04-2019 09:30:00 9.9 C 84 % 7.33 C
116 18-04-2019 09:35:00 10.1 C 83 % 7.35 C
117 18-04-2019 09:40:00 10.3 C 82 % 7.37 C
118 18-04-2019 09:45:00 10.5 C 82 % 7.56 C
119 18-04-2019 09:50:00 10.8 C 78 % 7.12 C
120 18-04-2019 09:55:00 11.1 C 78 % 7.41 C
121 18-04-2019 10:00:00 11.4 C 79 % 7.89 C
122 18-04-2019 10:05:00 11.5 C 79 % 7.99 C
123 18-04-2019 10:10:00 11.7 C 77 % 7.81 C
124 18-04-2019 10:15:00 11.9 C 77 % 8 C
125 18-04-2019 10:20:00 12.2 C 76 % 8.1 C
Sensor: Nr:Datum:Temp:Feuchte:Taupunkt:
Aussen-T/F 126 18-04-2019 10:25:00 12.5 C 71 % 7.39 C
127 18-04-2019 10:30:00 12.9 C 70 % 7.57 C
128 18-04-2019 10:35:00 13.3 C 69 % 7.74 C
129 18-04-2019 10:40:00 13.8 C 68 % 8 C
130 18-04-2019 10:45:00 14.3 C 64 % 7.59 C
131 18-04-2019 10:50:00 14.8 C 64 % 8.06 C
132 18-04-2019 10:55:00 15.1 C 62 % 7.88 C
133 18-04-2019 11:00:00 15.3 C 60 % 7.59 C
134 18-04-2019 11:05:00 15.6 C 61 % 8.11 C
135 18-04-2019 11:10:00 15.8 C 62 % 8.54 C
136 18-04-2019 11:15:00 16 C 59 % 8 C
137 18-04-2019 11:20:00 16.2 C 57 % 7.68 C
138 18-04-2019 11:25:00 16.4 C 57 % 7.87 C
139 18-04-2019 11:30:00 16.6 C 55 % 7.53 C
140 18-04-2019 11:35:00 16.8 C 55 % 7.72 C
141 18-04-2019 11:40:00 16.9 C 54 % 7.54 C
142 18-04-2019 11:45:00 16.9 C 54 % 7.54 C
143 18-04-2019 11:50:00 17 C 53 % 7.36 C
144 18-04-2019 11:55:00 17.1 C 55 % 8 C
145 18-04-2019 12:00:00 17.2 C 54 % 7.82 C
146 18-04-2019 12:05:00 17.2 C 52 % 7.27 C
147 18-04-2019 12:10:00 17.3 C 53 % 7.64 C
148 18-04-2019 12:15:00 17.4 C 53 % 7.73 C
149 18-04-2019 12:20:00 17.5 C 53 % 7.82 C
150 18-04-2019 12:25:00 17.6 C 54 % 8.19 C
Sensor: Nr:Datum:Temp:Feuchte:Taupunkt:
Aussen-T/F 151 18-04-2019 12:30:00 17.6 C 53 % 7.92 C
152 18-04-2019 12:35:00 17.8 C 52 % 7.82 C
153 18-04-2019 12:40:00 17.9 C 51 % 7.63 C
154 18-04-2019 12:45:00 17.9 C 50 % 7.34 C
155 18-04-2019 12:50:00 18.2 C 50 % 7.62 C
156 18-04-2019 12:55:00 18.3 C 49 % 7.41 C
157 18-04-2019 13:00:00 18.3 C 49 % 7.41 C
158 18-04-2019 13:05:00 18.4 C 51 % 8.09 C
159 18-04-2019 13:10:00 18.5 C 49 % 7.6 C
160 18-04-2019 13:15:00 18.6 C 47 % 7.08 C
161 18-04-2019 13:20:00 18.7 C 47 % 7.17 C
162 18-04-2019 13:25:00 18.7 C 48 % 7.48 C
163 18-04-2019 13:30:00 18.7 C 46 % 6.86 C
164 18-04-2019 13:35:00 18.8 C 47 % 7.26 C
165 18-04-2019 13:40:00 18.9 C 46 % 7.04 C
166 18-04-2019 13:45:00 19.1 C 47 % 7.53 C
167 18-04-2019 13:50:00 19.2 C 45 % 6.99 C
168 18-04-2019 13:55:00 19.3 C 46 % 7.4 C
169 18-04-2019 14:00:00 19.3 C 45 % 7.08 C
170 18-04-2019 14:05:00 19.3 C 44 % 6.75 C
171 18-04-2019 14:10:00 19.4 C 44 % 6.84 C
172 18-04-2019 14:15:00 19.6 C 44 % 7.03 C
173 18-04-2019 14:20:00 19.7 C 43 % 6.78 C
174 18-04-2019 14:25:00 19.8 C 44 % 7.21 C
175 18-04-2019 14:30:00 19.9 C 40 % 5.91 C
Sensor: Nr:Datum:Temp:Feuchte:Taupunkt:
Aussen-T/F 176 18-04-2019 14:35:00 20.1 C 42 % 6.8 C
177 18-04-2019 14:40:00 20.2 C 42 % 6.89 C
178 18-04-2019 14:45:00 20.4 C 41 % 6.72 C
179 18-04-2019 14:50:00 20.6 C 40 % 6.54 C
180 18-04-2019 14:55:00 20.7 C 40 % 6.63 C
181 18-04-2019 15:00:00 20.7 C 40 % 6.63 C
182 18-04-2019 15:05:00 20.9 C 40 % 6.81 C
183 18-04-2019 15:10:00 20.9 C 40 % 6.81 C
184 18-04-2019 15:15:00 21.2 C 38 % 6.33 C
185 18-04-2019 15:20:00 21.3 C 39 % 6.8 C
186 18-04-2019 15:25:00 21.4 C 38 % 6.51 C
187 18-04-2019 15:30:00 21.4 C 38 % 6.51 C
188 18-04-2019 15:35:00 21.6 C 38 % 6.69 C
189 18-04-2019 15:40:00 21.6 C 37 % 6.3 C
190 18-04-2019 15:45:00 21.6 C 38 % 6.69 C
191 18-04-2019 15:50:00 21.7 C 40 % 7.52 C
192 18-04-2019 15:55:00 21.9 C 38 % 6.95 C
193 18-04-2019 16:00:00 21.9 C 35 % 5.76 C
194 18-04-2019 16:05:00 21.9 C 36 % 6.17 C
195 18-04-2019 16:10:00 22.2 C 36 % 6.43 C
196 18-04-2019 16:15:00 22.3 C 35 % 6.11 C
197 18-04-2019 16:20:00 22.3 C 33 % 5.26 C
198 18-04-2019 16:25:00 22.2 C 34 % 5.61 C
199 18-04-2019 16:30:00 22.4 C 35 % 6.2 C
200 18-04-2019 16:35:00 22.8 C 34 % 6.13 C
Sensor: Nr:Datum:Temp:Feuchte:Taupunkt:
Aussen-T/F 201 18-04-2019 16:40:00 23 C 33 % 5.88 C
202 18-04-2019 16:45:00 23.1 C 33 % 5.96 C
203 18-04-2019 16:50:00 23.1 C 33 % 5.96 C
204 18-04-2019 16:55:00 23.1 C 33 % 5.96 C
205 18-04-2019 17:00:00 23 C 33 % 5.88 C
206 18-04-2019 17:05:00 23.2 C 34 % 6.48 C
207 18-04-2019 17:10:00 23.4 C 35 % 7.08 C
208 18-04-2019 17:15:00 23.6 C 33 % 6.4 C
209 18-04-2019 17:20:00 23.5 C 32 % 5.87 C
210 18-04-2019 17:25:00 23.4 C 32 % 5.78 C
211 18-04-2019 17:30:00 23.4 C 32 % 5.78 C
212 18-04-2019 17:35:00 23.3 C 33 % 6.14 C
213 18-04-2019 17:40:00 23.3 C 33 % 6.14 C
214 18-04-2019 17:45:00 23.4 C 32 % 5.78 C
215 18-04-2019 17:50:00 23.5 C 32 % 5.87 C
216 18-04-2019 17:55:00 23.5 C 32 % 5.87 C
217 18-04-2019 18:00:00 23.5 C 31 % 5.41 C
218 18-04-2019 18:05:00 23.4 C 33 % 6.22 C
219 18-04-2019 18:10:00 23.4 C 32 % 5.78 C
220 18-04-2019 18:15:00 23.4 C 34 % 6.66 C
221 18-04-2019 18:20:00 23.5 C 33 % 6.31 C
222 18-04-2019 18:25:00 23.6 C 33 % 6.4 C
223 18-04-2019 18:30:00 23.7 C 32 % 6.04 C
224 18-04-2019 18:35:00 23.6 C 32 % 5.95 C
225 18-04-2019 18:40:00 23.2 C 33 % 6.05 C
Sensor: Nr:Datum:Temp:Feuchte:Taupunkt:
Aussen-T/F 226 18-04-2019 18:45:00 23.1 C 34 % 6.39 C
227 18-04-2019 18:50:00 23.2 C 33 % 6.05 C
228 18-04-2019 18:55:00 23.3 C 33 % 6.14 C
229 18-04-2019 19:00:00 23.3 C 32 % 5.69 C
230 18-04-2019 19:05:00 22.9 C 32 % 5.35 C
231 18-04-2019 19:10:00 22.9 C 34 % 6.22 C
232 18-04-2019 19:15:00 22.9 C 33 % 5.79 C
233 18-04-2019 19:20:00 22.7 C 33 % 5.61 C
234 18-04-2019 19:25:00 22.3 C 33 % 5.26 C
235 18-04-2019 19:30:00 22.2 C 35 % 6.02 C
236 18-04-2019 19:35:00 21.9 C 34 % 5.34 C
237 18-04-2019 19:40:00 21.8 C 40 % 7.61 C
238 18-04-2019 19:45:00 21.7 C 42 % 8.24 C
239 18-04-2019 19:50:00 21.6 C 44 % 8.83 C
240 18-04-2019 19:55:00 21.2 C 45 % 8.8 C
241 18-04-2019 20:00:00 20.7 C 46 % 8.67 C
242 18-04-2019 20:05:00 20.2 C 47 % 8.54 C
243 18-04-2019 20:10:00 19.6 C 48 % 8.3 C
244 18-04-2019 20:15:00 18.9 C 51 % 8.55 C
245 18-04-2019 20:20:00 18.4 C 52 % 8.38 C
246 18-04-2019 20:25:00 18 C 53 % 8.29 C
247 18-04-2019 20:30:00 17.6 C 53 % 7.92 C
248 18-04-2019 20:35:00 17.2 C 54 % 7.82 C
249 18-04-2019 20:40:00 16.9 C 56 % 8.07 C
250 18-04-2019 20:45:00 16.6 C 56 % 7.8 C
Sensor: Nr:Datum:Temp:Feuchte:Taupunkt:
Aussen-T/F 251 18-04-2019 20:50:00 16.4 C 57 % 7.87 C
252 18-04-2019 20:55:00 16.2 C 57 % 7.68 C
253 18-04-2019 21:00:00 16.1 C 57 % 7.59 C
254 18-04-2019 21:05:00 15.9 C 58 % 7.66 C
255 18-04-2019 21:10:00 15.8 C 59 % 7.81 C
256 18-04-2019 21:15:00 15.6 C 59 % 7.62 C
257 18-04-2019 21:20:00 15.4 C 59 % 7.44 C
258 18-04-2019 21:25:00 15.3 C 59 % 7.34 C
259 18-04-2019 21:30:00 15.2 C 60 % 7.5 C
260 18-04-2019 21:35:00 15.1 C 60 % 7.4 C
261 18-04-2019 21:40:00 15 C 61 % 7.55 C
262 18-04-2019 21:45:00 14.9 C 60 % 7.21 C
263 18-04-2019 21:50:00 14.9 C 60 % 7.21 C
264 18-04-2019 21:55:00 14.8 C 61 % 7.36 C
265 18-04-2019 22:00:00 14.7 C 61 % 7.27 C
266 18-04-2019 22:05:00 14.6 C 61 % 7.17 C
267 18-04-2019 22:10:00 14.6 C 61 % 7.17 C
268 18-04-2019 22:15:00 14.4 C 61 % 6.98 C
269 18-04-2019 22:20:00 14.3 C 61 % 6.89 C
270 18-04-2019 22:25:00 14.3 C 62 % 7.13 C
271 18-04-2019 22:30:00 14.2 C 62 % 7.03 C
272 18-04-2019 22:35:00 14.1 C 62 % 6.94 C
273 18-04-2019 22:40:00 14.1 C 62 % 6.94 C
274 18-04-2019 22:45:00 13.9 C 62 % 6.75 C
275 18-04-2019 22:50:00 13.8 C 62 % 6.65 C
Sensor: Nr:Datum:Temp:Feuchte:Taupunkt:
Aussen-T/F 276 18-04-2019 22:55:00 13.8 C 62 % 6.65 C
277 18-04-2019 23:00:00 13.7 C 62 % 6.56 C
278 18-04-2019 23:05:00 13.7 C 63 % 6.79 C
279 18-04-2019 23:10:00 13.6 C 63 % 6.7 C
280 18-04-2019 23:15:00 13.6 C 63 % 6.7 C
281 18-04-2019 23:20:00 13.5 C 63 % 6.6 C
282 18-04-2019 23:25:00 13.4 C 65 % 6.96 C
283 18-04-2019 23:30:00 13.2 C 65 % 6.77 C
284 18-04-2019 23:35:00 12.9 C 66 % 6.71 C
285 18-04-2019 23:40:00 12.7 C 68 % 6.95 C
286 18-04-2019 23:45:00 12.4 C 68 % 6.67 C
287 18-04-2019 23:50:00 12.2 C 68 % 6.48 C
288 18-04-2019 23:55:00 12.1 C 69 % 6.59 C
289 19-04-2019 00:00:00 12.1 C 70 % 6.8 C
290 19-04-2019 00:05:00 11.9 C 71 % 6.82 C
291 19-04-2019 00:10:00 11.8 C 70 % 6.51 C
292 19-04-2019 00:15:00 11.8 C 71 % 6.72 C
293 19-04-2019 00:20:00 11.7 C 72 % 6.83 C
294 19-04-2019 00:25:00 11.6 C 71 % 6.53 C
295 19-04-2019 00:30:00 11.5 C 72 % 6.63 C
296 19-04-2019 00:35:00 11.4 C 71 % 6.34 C
297 19-04-2019 00:40:00 11.3 C 73 % 6.64 C
298 19-04-2019 00:45:00 11.3 C 73 % 6.64 C
299 19-04-2019 00:50:00 11.2 C 74 % 6.74 C
300 19-04-2019 00:55:00 11.1 C 74 % 6.65 C
Sensor: Nr:Datum:Temp:Feuchte:Taupunkt:
Aussen-T/F 301 19-04-2019 01:00:00 10.9 C 75 % 6.65 C
302 19-04-2019 01:05:00 10.8 C 76 % 6.75 C
303 19-04-2019 01:10:00 10.8 C 76 % 6.75 C
304 19-04-2019 01:15:00 10.7 C 76 % 6.65 C
305 19-04-2019 01:20:00 10.6 C 76 % 6.55 C
306 19-04-2019 01:25:00 10.6 C 76 % 6.55 C
307 19-04-2019 01:30:00 10.6 C 76 % 6.55 C
308 19-04-2019 01:35:00 10.6 C 75 % 6.36 C
309 19-04-2019 01:40:00 10.6 C 74 % 6.17 C
310 19-04-2019 01:45:00 10.7 C 74 % 6.26 C
311 19-04-2019 01:50:00 10.8 C 73 % 6.16 C
312 19-04-2019 01:55:00 10.8 C 73 % 6.16 C
313 19-04-2019 02:00:00 10.9 C 72 % 6.06 C
314 19-04-2019 02:05:00 11 C 72 % 6.15 C
315 19-04-2019 02:10:00 11.1 C 71 % 6.05 C
316 19-04-2019 02:15:00 11.1 C 71 % 6.05 C
317 19-04-2019 02:20:00 11.2 C 71 % 6.14 C
318 19-04-2019 02:25:00 11.2 C 71 % 6.14 C
319 19-04-2019 02:30:00 11.2 C 71 % 6.14 C
320 19-04-2019 02:35:00 11.1 C 72 % 6.25 C
321 19-04-2019 02:40:00 11 C 71 % 5.95 C
322 19-04-2019 02:45:00 10.9 C 72 % 6.06 C
323 19-04-2019 02:50:00 10.8 C 72 % 5.96 C
324 19-04-2019 02:55:00 10.7 C 73 % 6.07 C
325 19-04-2019 03:00:00 10.6 C 73 % 5.97 C
Sensor: Nr:Datum:Temp:Feuchte:Taupunkt:
Aussen-T/F 326 19-04-2019 03:05:00 10.5 C 73 % 5.87 C
327 19-04-2019 03:10:00 10.4 C 73 % 5.78 C
328 19-04-2019 03:15:00 10.4 C 73 % 5.78 C
329 19-04-2019 03:20:00 10.3 C 73 % 5.68 C
330 19-04-2019 03:25:00 10.3 C 73 % 5.68 C
331 19-04-2019 03:30:00 10.3 C 73 % 5.68 C
332 19-04-2019 03:35:00 10.3 C 74 % 5.88 C
333 19-04-2019 03:40:00 10.2 C 74 % 5.78 C
334 19-04-2019 03:45:00 10.1 C 75 % 5.88 C
335 19-04-2019 03:50:00 10.1 C 75 % 5.88 C
336 19-04-2019 03:55:00 10 C 75 % 5.78 C
337 19-04-2019 04:00:00 10 C 75 % 5.78 C
338 19-04-2019 04:05:00 9.9 C 75 % 5.68 C
339 19-04-2019 04:10:00 9.9 C 75 % 5.68 C
340 19-04-2019 04:15:00 9.8 C 76 % 5.78 C
341 19-04-2019 04:20:00 9.8 C 76 % 5.78 C
342 19-04-2019 04:25:00 9.7 C 76 % 5.68 C
343 19-04-2019 04:30:00 9.7 C 76 % 5.68 C
344 19-04-2019 04:35:00 9.6 C 76 % 5.58 C
345 19-04-2019 04:40:00 9.4 C 77 % 5.58 C
346 19-04-2019 04:45:00 9.3 C 77 % 5.48 C
347 19-04-2019 04:50:00 9.2 C 78 % 5.57 C
348 19-04-2019 04:55:00 9.1 C 78 % 5.47 C
349 19-04-2019 05:00:00 8.9 C 79 % 5.46 C
350 19-04-2019 05:05:00 8.7 C 80 % 5.45 C
Sensor: Nr:Datum:Temp:Feuchte:Taupunkt:
Aussen-T/F 351 19-04-2019 05:10:00 8.5 C 80 % 5.25 C
352 19-04-2019 05:15:00 8.3 C 81 % 5.24 C
353 19-04-2019 05:20:00 8.3 C 82 % 5.41 C
354 19-04-2019 05:25:00 8.3 C 82 % 5.41 C
355 19-04-2019 05:30:00 8.2 C 82 % 5.32 C
356 19-04-2019 05:35:00 8.2 C 82 % 5.32 C
357 19-04-2019 05:40:00 8.1 C 82 % 5.22 C
358 19-04-2019 05:45:00 7.9 C 82 % 5.02 C
359 19-04-2019 05:50:00 7.8 C 82 % 4.92 C
360 19-04-2019 05:55:00 7.7 C 83 % 5 C
361 19-04-2019 06:00:00 7.6 C 83 % 4.9 C
362 19-04-2019 06:05:00 7.4 C 83 % 4.71 C
363 19-04-2019 06:10:00 7.3 C 83 % 4.61 C
364 19-04-2019 06:15:00 7.2 C 83 % 4.51 C
365 19-04-2019 06:20:00 7.1 C 83 % 4.41 C
366 19-04-2019 06:25:00 7 C 83 % 4.32 C
367 19-04-2019 06:30:00 6.9 C 84 % 4.39 C
368 19-04-2019 06:35:00 6.9 C 84 % 4.39 C
369 19-04-2019 06:40:00 6.8 C 85 % 4.46 C
370 19-04-2019 06:45:00 6.8 C 85 % 4.46 C
371 19-04-2019 06:50:00 6.8 C 85 % 4.46 C
372 19-04-2019 06:55:00 6.7 C 85 % 4.36 C
373 19-04-2019 07:00:00 6.7 C 85 % 4.36 C
374 19-04-2019 07:05:00 6.7 C 86 % 4.53 C
375 19-04-2019 07:10:00 6.6 C 86 % 4.43 C
Sensor: Nr:Datum:Temp:Feuchte:Taupunkt:
Aussen-T/F 376 19-04-2019 07:15:00 6.6 C 86 % 4.43 C
377 19-04-2019 07:20:00 6.6 C 86 % 4.43 C
378 19-04-2019 07:25:00 6.6 C 87 % 4.6 C
379 19-04-2019 07:30:00 6.7 C 87 % 4.69 C
380 19-04-2019 07:35:00 6.7 C 87 % 4.69 C
381 19-04-2019 07:40:00 6.7 C 88 % 4.86 C
382 19-04-2019 07:45:00 6.7 C 88 % 4.86 C
383 19-04-2019 07:50:00 6.6 C 88 % 4.76 C
384 19-04-2019 07:55:00 6.6 C 88 % 4.76 C
385 19-04-2019 08:00:00 6.6 C 88 % 4.76 C
386 19-04-2019 08:05:00 6.6 C 88 % 4.76 C
387 19-04-2019 08:10:00 6.6 C 88 % 4.76 C
388 19-04-2019 08:15:00 6.7 C 88 % 4.86 C
389 19-04-2019 08:20:00 6.7 C 88 % 4.86 C
390 19-04-2019 08:25:00 6.7 C 88 % 4.86 C
391 19-04-2019 08:30:00 6.8 C 88 % 4.96 C
392 19-04-2019 08:35:00 6.8 C 89 % 5.12 C
393 19-04-2019 08:40:00 6.9 C 89 % 5.22 C
394 19-04-2019 08:45:00 7.1 C 90 % 5.57 C
395 19-04-2019 08:50:00 7.3 C 89 % 5.61 C
396 19-04-2019 08:55:00 7.4 C 90 % 5.87 C
397 19-04-2019 09:00:00 7.7 C 90 % 6.17 C
398 19-04-2019 09:05:00 7.8 C 89 % 6.1 C
399 19-04-2019 09:10:00 8.1 C 89 % 6.4 C
400 19-04-2019 09:15:00 8.3 C 88 % 6.43 C
Sensor: Nr:Datum:Temp:Feuchte:Taupunkt:
Aussen-T/F 401 19-04-2019 09:20:00 8.6 C 88 % 6.73 C
402 19-04-2019 09:25:00 8.8 C 87 % 6.76 C
403 19-04-2019 09:30:00 9.1 C 87 % 7.05 C
404 19-04-2019 09:35:00 9.3 C 86 % 7.08 C
405 19-04-2019 09:40:00 9.6 C 85 % 7.21 C
406 19-04-2019 09:45:00 9.8 C 84 % 7.23 C
407 19-04-2019 09:50:00 10.2 C 83 % 7.45 C
408 19-04-2019 09:55:00 10.4 C 82 % 7.46 C
409 19-04-2019 10:00:00 10.7 C 81 % 7.58 C
410 19-04-2019 10:05:00 11.1 C 80 % 7.79 C
411 19-04-2019 10:10:00 11.4 C 75 % 7.13 C
412 19-04-2019 10:15:00 12.2 C 74 % 7.71 C
413 19-04-2019 10:20:00 12.7 C 73 % 7.99 C
414 19-04-2019 10:25:00 13.1 C 67 % 7.12 C
415 19-04-2019 10:30:00 13.8 C 65 % 7.34 C
416 19-04-2019 10:35:00 14.3 C 61 % 6.89 C
417 19-04-2019 10:40:00 14.9 C 59 % 6.97 C
418 19-04-2019 10:45:00 15.6 C 57 % 7.12 C
419 19-04-2019 10:50:00 16.1 C 56 % 7.33 C
420 19-04-2019 10:55:00 16.4 C 53 % 6.81 C
421 19-04-2019 11:00:00 16.7 C 52 % 6.81 C
422 19-04-2019 11:05:00 17.1 C 50 % 6.6 C
423 19-04-2019 11:10:00 17.3 C 53 % 7.64 C
424 19-04-2019 11:15:00 17.5 C 49 % 6.68 C
425 19-04-2019 11:20:00 17.7 C 48 % 6.56 C
Sensor: Nr:Datum:Temp:Feuchte:Taupunkt:
Aussen-T/F 426 19-04-2019 11:25:00 18 C 50 % 7.43 C
427 19-04-2019 11:30:00 18.2 C 49 % 7.32 C
428 19-04-2019 11:35:00 18.3 C 46 % 6.49 C
429 19-04-2019 11:40:00 18.4 C 50 % 7.8 C
430 19-04-2019 11:45:00 18.6 C 46 % 6.77 C
431 19-04-2019 11:50:00 18.8 C 46 % 6.95 C
432 19-04-2019 11:55:00 18.9 C 46 % 7.04 C
433 19-04-2019 12:00:00 19.1 C 44 % 6.57 C
434 19-04-2019 12:05:00 19.3 C 45 % 7.08 C
435 19-04-2019 12:10:00 19.4 C 44 % 6.84 C
436 19-04-2019 12:15:00 19.6 C 43 % 6.69 C
437 19-04-2019 12:20:00 19.7 C 43 % 6.78 C
438 19-04-2019 12:25:00 19.9 C 42 % 6.62 C
439 19-04-2019 12:30:00 20.1 C 40 % 6.09 C
440 19-04-2019 12:35:00 20.2 C 40 % 6.18 C
441 19-04-2019 12:40:00 20.3 C 39 % 5.9 C
442 19-04-2019 12:45:00 20.4 C 40 % 6.36 C
443 19-04-2019 12:50:00 20.4 C 39 % 5.99 C
444 19-04-2019 12:55:00 20.4 C 39 % 5.99 C
445 19-04-2019 13:00:00 20.6 C 37 % 5.41 C
446 19-04-2019 13:05:00 20.8 C 36 % 5.2 C
447 19-04-2019 13:10:00 21 C 33 % 4.13 C
448 19-04-2019 13:15:00 21.2 C 33 % 4.3 C
449 19-04-2019 13:20:00 21.3 C 33 % 4.39 C
450 19-04-2019 13:25:00 21.3 C 33 % 4.39 C
Sensor: Nr:Datum:Temp:Feuchte:Taupunkt:
Aussen-T/F 451 19-04-2019 13:30:00 21.4 C 34 % 4.91 C
452 19-04-2019 13:35:00 21.6 C 34 % 5.08 C
453 19-04-2019 13:40:00 21.7 C 34 % 5.17 C
454 19-04-2019 13:45:00 21.8 C 34 % 5.26 C
455 19-04-2019 13:50:00 21.8 C 35 % 5.67 C
456 19-04-2019 13:55:00 21.9 C 35 % 5.76 C
457 19-04-2019 14:00:00 21.9 C 33 % 4.92 C
458 19-04-2019 14:05:00 22.1 C 33 % 5.09 C
459 19-04-2019 14:10:00 22.2 C 32 % 4.74 C
460 19-04-2019 14:15:00 22.2 C 32 % 4.74 C
461 19-04-2019 14:20:00 22.3 C 31 % 4.37 C
462 19-04-2019 14:25:00 22.3 C 32 % 4.82 C
463 19-04-2019 14:30:00 22.4 C 30 % 3.99 C
464 19-04-2019 14:35:00 22.4 C 30 % 3.99 C
465 19-04-2019 14:40:00 22.5 C 30 % 4.08 C
466 19-04-2019 14:45:00 22.8 C 32 % 5.26 C
467 19-04-2019 14:50:00 23 C 32 % 5.43 C
468 19-04-2019 14:55:00 23.2 C 29 % 4.2 C
469 19-04-2019 15:00:00 23.2 C 29 % 4.2 C
470 19-04-2019 15:05:00 23.3 C 29 % 4.28 C
471 19-04-2019 15:10:00 23.4 C 27 % 3.35 C
472 19-04-2019 15:15:00 23.6 C 29 % 4.54 C
473 19-04-2019 15:20:00 23.6 C 28 % 4.04 C
474 19-04-2019 15:25:00 23.7 C 28 % 4.13 C
475 19-04-2019 15:30:00 23.7 C 26 % 3.08 C
Sensor: Nr:Datum:Temp:Feuchte:Taupunkt:
Aussen-T/F 476 19-04-2019 15:35:00 23.8 C 27 % 3.7 C
477 19-04-2019 15:40:00 23.9 C 25 % 2.69 C
478 19-04-2019 15:45:00 23.9 C 25 % 2.69 C
479 19-04-2019 15:50:00 23.9 C 25 % 2.69 C
480 19-04-2019 15:55:00 24.1 C 25 % 2.86 C
481 19-04-2019 16:00:00 24.2 C 25 % 2.95 C
482 19-04-2019 16:05:00 24.3 C 24 % 2.46 C
483 19-04-2019 16:10:00 24.4 C 24 % 2.54 C
484 19-04-2019 16:15:00 24.6 C 24 % 2.71 C
485 19-04-2019 16:20:00 24.7 C 24 % 2.79 C
486 19-04-2019 16:25:00 24.9 C 26 % 4.09 C
487 19-04-2019 16:30:00 25.3 C 23 % 2.7 C
488 19-04-2019 16:35:00 25.3 C 24 % 3.3 C
489 19-04-2019 16:40:00 25.2 C 22 % 1.99 C
490 19-04-2019 16:45:00 25 C 24 % 3.05 C
491 19-04-2019 16:50:00 25.2 C 25 % 3.79 C
492 19-04-2019 16:55:00 25.6 C 24 % 3.55 C
493 19-04-2019 17:00:00 25.6 C 22 % 2.32 C
494 19-04-2019 17:05:00 25.7 C 22 % 2.41 C
495 19-04-2019 17:10:00 25.6 C 22 % 2.32 C
496 19-04-2019 17:15:00 25.4 C 21 % 1.51 C
497 19-04-2019 17:20:00 25 C 23 % 2.45 C
498 19-04-2019 17:25:00 24.9 C 23 % 2.36 C
499 19-04-2019 17:30:00 25.1 C 23 % 2.53 C
500 19-04-2019 17:35:00 25.1 C 23 % 2.53 C
Sensor: Nr:Datum:Temp:Feuchte:Taupunkt:
Aussen-T/F 501 19-04-2019 17:40:00 25.1 C 23 % 2.53 C
502 19-04-2019 17:45:00 25.1 C 23 % 2.53 C
503 19-04-2019 17:50:00 25.3 C 22 % 2.07 C
504 19-04-2019 17:55:00 25.5 C 23 % 2.86 C
505 19-04-2019 18:00:00 25.7 C 22 % 2.41 C
506 19-04-2019 18:05:00 25.8 C 23 % 3.12 C
507 19-04-2019 18:10:00 25.7 C 22 % 2.41 C
508 19-04-2019 18:15:00 25.6 C 22 % 2.32 C
509 19-04-2019 18:20:00 25.7 C 22 % 2.41 C
510 19-04-2019 18:25:00 25.3 C 22 % 2.07 C
511 19-04-2019 18:30:00 25.1 C 23 % 2.53 C
512 19-04-2019 18:35:00 25.3 C 23 % 2.7 C
513 19-04-2019 18:40:00 25.5 C 23 % 2.86 C
514 19-04-2019 18:45:00 25.5 C 22 % 2.24 C
515 19-04-2019 18:50:00 25.5 C 22 % 2.24 C
516 19-04-2019 18:55:00 25.4 C 22 % 2.16 C
517 19-04-2019 19:00:00 25.3 C 22 % 2.07 C
518 19-04-2019 19:05:00 25.2 C 22 % 1.99 C
519 19-04-2019 19:10:00 25.2 C 22 % 1.99 C
520 19-04-2019 19:15:00 25.1 C 23 % 2.53 C
521 19-04-2019 19:20:00 24.8 C 22 % 1.66 C
522 19-04-2019 19:25:00 24.5 C 23 % 2.03 C
523 19-04-2019 19:30:00 24.2 C 24 % 2.37 C
524 19-04-2019 19:35:00 23.9 C 30 % 5.28 C
525 19-04-2019 19:40:00 23.7 C 26 % 3.08 C
Sensor: Nr:Datum:Temp:Feuchte:Taupunkt:
Aussen-T/F 526 19-04-2019 19:45:00 23.4 C 30 % 4.85 C
527 19-04-2019 19:50:00 23.1 C 34 % 6.39 C
528 19-04-2019 19:55:00 22.6 C 36 % 6.78 C
529 19-04-2019 20:00:00 22 C 36 % 6.26 C
530 19-04-2019 20:05:00 21.3 C 36 % 5.64 C
531 19-04-2019 20:10:00 20.8 C 38 % 5.97 C
532 19-04-2019 20:15:00 20.1 C 39 % 5.73 C
533 19-04-2019 20:20:00 19.6 C 40 % 5.64 C
534 19-04-2019 20:25:00 19.1 C 42 % 5.9 C
535 19-04-2019 20:30:00 18.7 C 42 % 5.54 C
536 19-04-2019 20:35:00 18.3 C 42 % 5.18 C
537 19-04-2019 20:40:00 18.1 C 43 % 5.34 C
538 19-04-2019 20:45:00 17.8 C 43 % 5.07 C
539 19-04-2019 20:50:00 17.5 C 45 % 5.45 C
540 19-04-2019 20:55:00 17.3 C 44 % 4.94 C
541 19-04-2019 21:00:00 17.1 C 44 % 4.76 C
542 19-04-2019 21:05:00 16.9 C 46 % 5.22 C
543 19-04-2019 21:10:00 16.8 C 45 % 4.81 C
544 19-04-2019 21:15:00 16.6 C 45 % 4.63 C
545 19-04-2019 21:20:00 16.4 C 47 % 5.07 C
546 19-04-2019 21:25:00 16.1 C 48 % 5.1 C
547 19-04-2019 21:30:00 15.8 C 50 % 5.41 C
548 19-04-2019 21:35:00 15.6 C 52 % 5.79 C
549 19-04-2019 21:40:00 15.2 C 53 % 5.69 C
550 19-04-2019 21:45:00 14.9 C 53 % 5.42 C
Sensor: Nr:Datum:Temp:Feuchte:Taupunkt:
Aussen-T/F 551 19-04-2019 21:50:00 14.7 C 54 % 5.5 C
552 19-04-2019 21:55:00 14.4 C 56 % 5.74 C
553 19-04-2019 22:00:00 14.1 C 55 % 5.21 C
554 19-04-2019 22:05:00 13.9 C 58 % 5.78 C
555 19-04-2019 22:10:00 13.7 C 59 % 5.84 C
556 19-04-2019 22:15:00 13.6 C 58 % 5.5 C
557 19-04-2019 22:20:00 13.4 C 59 % 5.56 C
558 19-04-2019 22:25:00 13.2 C 62 % 6.09 C
559 19-04-2019 22:30:00 12.9 C 59 % 5.09 C
560 19-04-2019 22:35:00 13 C 54 % 3.92 C
561 19-04-2019 22:40:00 13.2 C 56 % 4.63 C
562 19-04-2019 22:45:00 13.2 C 58 % 5.13 C
563 19-04-2019 22:50:00 13 C 59 % 5.19 C
564 19-04-2019 22:55:00 12.8 C 62 % 5.71 C
565 19-04-2019 23:00:00 12.6 C 61 % 5.29 C
566 19-04-2019 23:05:00 12.4 C 60 % 4.86 C
567 19-04-2019 23:10:00 12.4 C 61 % 5.1 C
568 19-04-2019 23:15:00 12.3 C 64 % 5.69 C
569 19-04-2019 23:20:00 12 C 64 % 5.41 C
570 19-04-2019 23:25:00 11.8 C 66 % 5.66 C
571 19-04-2019 23:30:00 11.6 C 65 % 5.25 C
572 19-04-2019 23:35:00 11.3 C 65 % 4.97 C
573 19-04-2019 23:40:00 11.2 C 65 % 4.87 C
574 19-04-2019 23:45:00 11.2 C 66 % 5.09 C
575 19-04-2019 23:50:00 11.1 C 67 % 5.21 C
Sensor: Nr:Datum:Temp:Feuchte:Taupunkt:
Aussen-T/F 576 19-04-2019 23:55:00 10.9 C 67 % 5.02 C
577 20-04-2019 00:00:00 10.8 C 67 % 4.93 C
578 20-04-2019 00:05:00 10.7 C 67 % 4.83 C
579 20-04-2019 00:10:00 10.6 C 68 % 4.95 C
580 20-04-2019 00:15:00 10.6 C 68 % 4.95 C
581 20-04-2019 00:20:00 10.5 C 68 % 4.85 C
582 20-04-2019 00:25:00 10.4 C 72 % 5.58 C
583 20-04-2019 00:30:00 10.4 C 72 % 5.58 C
584 20-04-2019 00:35:00 10.3 C 71 % 5.28 C
585 20-04-2019 00:40:00 10.3 C 71 % 5.28 C
586 20-04-2019 00:45:00 10.2 C 74 % 5.78 C
587 20-04-2019 00:50:00 10.1 C 75 % 5.88 C
588 20-04-2019 00:55:00 10 C 74 % 5.59 C
589 20-04-2019 01:00:00 9.9 C 74 % 5.49 C
590 20-04-2019 01:05:00 9.8 C 74 % 5.39 C
591 20-04-2019 01:10:00 9.8 C 74 % 5.39 C
592 20-04-2019 01:15:00 9.7 C 75 % 5.49 C
593 20-04-2019 01:20:00 9.6 C 75 % 5.39 C
594 20-04-2019 01:25:00 9.4 C 77 % 5.58 C
595 20-04-2019 01:30:00 9.3 C 77 % 5.48 C
596 20-04-2019 01:35:00 9.3 C 77 % 5.48 C
597 20-04-2019 01:40:00 9.2 C 77 % 5.38 C
598 20-04-2019 01:45:00 9.2 C 78 % 5.57 C
599 20-04-2019 01:50:00 9.2 C 78 % 5.57 C
600 20-04-2019 01:55:00 9.1 C 78 % 5.47 C
Sensor: Nr:Datum:Temp:Feuchte:Taupunkt:
Aussen-T/F 601 20-04-2019 02:00:00 9 C 79 % 5.56 C
602 20-04-2019 02:05:00 8.9 C 79 % 5.46 C
603 20-04-2019 02:10:00 8.8 C 79 % 5.36 C
604 20-04-2019 02:15:00 8.7 C 80 % 5.45 C
605 20-04-2019 02:20:00 8.7 C 81 % 5.63 C
606 20-04-2019 02:25:00 8.6 C 81 % 5.53 C
607 20-04-2019 02:30:00 8.4 C 81 % 5.33 C
608 20-04-2019 02:35:00 8.4 C 82 % 5.51 C
609 20-04-2019 02:40:00 8.3 C 82 % 5.41 C
610 20-04-2019 02:45:00 8.3 C 82 % 5.41 C
611 20-04-2019 02:50:00 8.3 C 82 % 5.41 C
612 20-04-2019 02:55:00 8.3 C 82 % 5.41 C
613 20-04-2019 03:00:00 8.2 C 82 % 5.32 C
614 20-04-2019 03:05:00 8.1 C 83 % 5.39 C
615 20-04-2019 03:10:00 7.9 C 83 % 5.2 C
616 20-04-2019 03:15:00 7.8 C 83 % 5.1 C
617 20-04-2019 03:20:00 7.8 C 84 % 5.27 C
618 20-04-2019 03:25:00 7.7 C 84 % 5.17 C
619 20-04-2019 03:30:00 7.5 C 84 % 4.98 C
620 20-04-2019 03:35:00 7.4 C 85 % 5.05 C
621 20-04-2019 03:40:00 7.4 C 85 % 5.05 C
622 20-04-2019 03:45:00 7.4 C 85 % 5.05 C
623 20-04-2019 03:50:00 7.3 C 85 % 4.95 C
624 20-04-2019 03:55:00 7.2 C 86 % 5.02 C
625 20-04-2019 04:00:00 7.2 C 86 % 5.02 C
Sensor: Nr:Datum:Temp:Feuchte:Taupunkt:
Aussen-T/F 626 20-04-2019 04:05:00 7.1 C 86 % 4.92 C
627 20-04-2019 04:10:00 7 C 86 % 4.82 C
628 20-04-2019 04:15:00 7.1 C 87 % 5.09 C
629 20-04-2019 04:20:00 7 C 87 % 4.99 C
630 20-04-2019 04:25:00 6.9 C 87 % 4.89 C
631 20-04-2019 04:30:00 6.8 C 87 % 4.79 C
632 20-04-2019 04:35:00 6.8 C 87 % 4.79 C
633 20-04-2019 04:40:00 6.7 C 87 % 4.69 C
634 20-04-2019 04:45:00 6.6 C 88 % 4.76 C
635 20-04-2019 04:50:00 6.6 C 88 % 4.76 C
636 20-04-2019 04:55:00 6.4 C 88 % 4.56 C
637 20-04-2019 05:00:00 6.4 C 88 % 4.56 C
638 20-04-2019 05:05:00 6.4 C 89 % 4.72 C
639 20-04-2019 05:10:00 6.4 C 89 % 4.72 C
640 20-04-2019 05:15:00 6.3 C 89 % 4.62 C
641 20-04-2019 05:20:00 6.3 C 89 % 4.62 C
642 20-04-2019 05:25:00 6.3 C 89 % 4.62 C
643 20-04-2019 05:30:00 6.2 C 89 % 4.53 C
644 20-04-2019 05:35:00 6.1 C 89 % 4.43 C
645 20-04-2019 05:40:00 6.1 C 90 % 4.59 C
646 20-04-2019 05:45:00 6.1 C 90 % 4.59 C
647 20-04-2019 05:50:00 6.1 C 90 % 4.59 C
648 20-04-2019 05:55:00 6.1 C 90 % 4.59 C
649 20-04-2019 06:00:00 6 C 90 % 4.49 C
650 20-04-2019 06:05:00 5.9 C 90 % 4.39 C
Sensor: Nr:Datum:Temp:Feuchte:Taupunkt:
Aussen-T/F 651 20-04-2019 06:10:00 5.9 C 90 % 4.39 C
652 20-04-2019 06:15:00 5.9 C 91 % 4.55 C
653 20-04-2019 06:20:00 5.8 C 90 % 4.29 C
654 20-04-2019 06:25:00 5.8 C 90 % 4.29 C
655 20-04-2019 06:30:00 5.8 C 91 % 4.45 C
656 20-04-2019 06:35:00 5.7 C 91 % 4.35 C
657 20-04-2019 06:40:00 5.7 C 91 % 4.35 C
658 20-04-2019 06:45:00 5.6 C 91 % 4.25 C
659 20-04-2019 06:50:00 5.6 C 91 % 4.25 C
660 20-04-2019 06:55:00 5.6 C 91 % 4.25 C
661 20-04-2019 07:00:00 5.6 C 92 % 4.41 C
662 20-04-2019 07:05:00 5.7 C 92 % 4.5 C
663 20-04-2019 07:10:00 5.8 C 92 % 4.6 C
664 20-04-2019 07:15:00 5.8 C 92 % 4.6 C
665 20-04-2019 07:20:00 5.9 C 92 % 4.7 C
666 20-04-2019 07:25:00 5.9 C 92 % 4.7 C
667 20-04-2019 07:30:00 5.9 C 91 % 4.55 C
668 20-04-2019 07:35:00 5.9 C 92 % 4.7 C
669 20-04-2019 07:40:00 5.9 C 92 % 4.7 C
670 20-04-2019 07:45:00 5.9 C 92 % 4.7 C
671 20-04-2019 07:50:00 6 C 92 % 4.8 C
672 20-04-2019 07:55:00 6 C 92 % 4.8 C
673 20-04-2019 08:00:00 6.1 C 92 % 4.9 C
674 20-04-2019 08:05:00 6.1 C 92 % 4.9 C
675 20-04-2019 08:10:00 6.2 C 92 % 5 C
Sensor: Nr:Datum:Temp:Feuchte:Taupunkt:
Aussen-T/F 676 20-04-2019 08:15:00 6.2 C 92 % 5 C
677 20-04-2019 08:20:00 6.3 C 92 % 5.1 C
678 20-04-2019 08:25:00 6.4 C 92 % 5.2 C
679 20-04-2019 08:30:00 6.4 C 92 % 5.2 C
680 20-04-2019 08:35:00 6.6 C 93 % 5.55 C
681 20-04-2019 08:40:00 6.7 C 93 % 5.65 C
682 20-04-2019 08:45:00 6.8 C 93 % 5.75 C
683 20-04-2019 08:50:00 6.9 C 93 % 5.85 C
684 20-04-2019 08:55:00 7.1 C 93 % 6.05 C
685 20-04-2019 09:00:00 7.2 C 93 % 6.15 C
686 20-04-2019 09:05:00 7.3 C 93 % 6.25 C
687 20-04-2019 09:10:00 7.4 C 93 % 6.34 C
688 20-04-2019 09:15:00 7.6 C 93 % 6.54 C
689 20-04-2019 09:20:00 7.8 C 93 % 6.74 C
690 20-04-2019 09:25:00 8.1 C 93 % 7.04 C
691 20-04-2019 09:30:00 8.3 C 93 % 7.24 C
692 20-04-2019 09:35:00 8.4 C 92 % 7.18 C
693 20-04-2019 09:40:00 8.7 C 92 % 7.47 C
694 20-04-2019 09:45:00 8.8 C 91 % 7.41 C
695 20-04-2019 09:50:00 9.1 C 91 % 7.71 C
696 20-04-2019 09:55:00 9.3 C 90 % 7.75 C
697 20-04-2019 10:00:00 9.6 C 90 % 8.04 C
698 20-04-2019 10:05:00 9.9 C 89 % 8.17 C
699 20-04-2019 10:10:00 10.2 C 88 % 8.3 C
700 20-04-2019 10:15:00 10.5 C 88 % 8.6 C
Sensor: Nr:Datum:Temp:Feuchte:Taupunkt:
Aussen-T/F 701 20-04-2019 10:20:00 11 C 86 % 8.75 C
702 20-04-2019 10:25:00 11.4 C 85 % 8.97 C
703 20-04-2019 10:30:00 11.8 C 83 % 9.01 C
704 20-04-2019 10:35:00 12.3 C 82 % 9.32 C
705 20-04-2019 10:40:00 12.8 C 80 % 9.44 C
706 20-04-2019 10:45:00 13.2 C 79 % 9.64 C
707 20-04-2019 10:50:00 13.6 C 78 % 9.84 C
708 20-04-2019 10:55:00 13.9 C 76 % 9.74 C
709 20-04-2019 11:00:00 14.4 C 74 % 9.83 C
710 20-04-2019 11:05:00 14.8 C 73 % 10.01 C
711 20-04-2019 11:10:00 15.3 C 72 % 10.29 C
712 20-04-2019 11:15:00 15.7 C 68 % 9.82 C
713 20-04-2019 11:20:00 16.2 C 67 % 10.07 C
714 20-04-2019 11:25:00 16.7 C 62 % 9.39 C
715 20-04-2019 11:30:00 17.2 C 63 % 10.1 C
716 20-04-2019 11:35:00 17.6 C 61 % 10 C
717 20-04-2019 11:40:00 17.8 C 58 % 9.43 C
718 20-04-2019 11:45:00 18.1 C 58 % 9.71 C
719 20-04-2019 11:50:00 18.3 C 58 % 9.9 C
720 20-04-2019 11:55:00 18.6 C 53 % 8.84 C
721 20-04-2019 12:00:00 18.9 C 52 % 8.84 C
722 20-04-2019 12:05:00 19.3 C 49 % 8.33 C
723 20-04-2019 12:10:00 19.6 C 49 % 8.6 C
724 20-04-2019 12:15:00 19.7 C 49 % 8.7 C
725 20-04-2019 12:20:00 19.9 C 49 % 8.88 C
Sensor: Nr:Datum:Temp:Feuchte:Taupunkt:
Aussen-T/F 726 20-04-2019 12:25:00 20.2 C 48 % 8.85 C
727 20-04-2019 12:30:00 20.3 C 48 % 8.94 C
728 20-04-2019 12:35:00 20.6 C 46 % 8.58 C
729 20-04-2019 12:40:00 20.8 C 45 % 8.44 C
730 20-04-2019 12:45:00 20.9 C 43 % 7.86 C
731 20-04-2019 12:50:00 21.2 C 43 % 8.13 C
732 20-04-2019 12:55:00 21.3 C 42 % 7.88 C
733 20-04-2019 13:00:00 21.4 C 42 % 7.97 C
734 20-04-2019 13:05:00 21.5 C 41 % 7.7 C
735 20-04-2019 13:10:00 21.6 C 40 % 7.43 C
736 20-04-2019 13:15:00 21.7 C 40 % 7.52 C
737 20-04-2019 13:20:00 21.8 C 39 % 7.24 C
738 20-04-2019 13:25:00 21.9 C 37 % 6.56 C
739 20-04-2019 13:30:00 22 C 36 % 6.26 C
740 20-04-2019 13:35:00 22.2 C 34 % 5.61 C
741 20-04-2019 13:40:00 22.4 C 32 % 4.91 C
742 20-04-2019 13:45:00 22.6 C 32 % 5.08 C
743 20-04-2019 13:50:00 22.7 C 33 % 5.61 C
744 20-04-2019 13:55:00 22.8 C 30 % 4.34 C
745 20-04-2019 14:00:00 22.9 C 30 % 4.42 C
746 20-04-2019 14:05:00 22.9 C 31 % 4.89 C
747 20-04-2019 14:10:00 22.8 C 29 % 3.85 C
748 20-04-2019 14:15:00 22.9 C 29 % 3.94 C
749 20-04-2019 14:20:00 23 C 30 % 4.51 C
750 20-04-2019 14:25:00 23.1 C 29 % 4.11 C
Sensor: Nr:Datum:Temp:Feuchte:Taupunkt:
Aussen-T/F 751 20-04-2019 14:30:00 23.3 C 28 % 3.78 C
752 20-04-2019 14:35:00 23.4 C 29 % 4.37 C
753 20-04-2019 14:40:00 23.7 C 28 % 4.13 C
754 20-04-2019 14:45:00 23.7 C 28 % 4.13 C
755 20-04-2019 14:50:00 23.8 C 28 % 4.21 C
756 20-04-2019 14:55:00 23.8 C 28 % 4.21 C
757 20-04-2019 15:00:00 23.9 C 29 % 4.8 C
758 20-04-2019 15:05:00 24.1 C 28 % 4.47 C
759 20-04-2019 15:10:00 24 C 28 % 4.38 C
760 20-04-2019 15:15:00 24.1 C 30 % 5.46 C
761 20-04-2019 15:20:00 24.1 C 28 % 4.47 C
762 20-04-2019 15:25:00 24.3 C 28 % 4.64 C
763 20-04-2019 15:30:00 24.4 C 27 % 4.21 C
764 20-04-2019 15:35:00 24.3 C 27 % 4.12 C
765 20-04-2019 15:40:00 24.3 C 27 % 4.12 C
766 20-04-2019 15:45:00 24.4 C 26 % 3.67 C
767 20-04-2019 15:50:00 24.5 C 27 % 4.29 C
768 20-04-2019 15:55:00 24.7 C 28 % 4.98 C
769 20-04-2019 16:00:00 24.7 C 27 % 4.46 C
770 20-04-2019 16:05:00 24.7 C 26 % 3.93 C
771 20-04-2019 16:10:00 24.8 C 27 % 4.55 C
772 20-04-2019 16:15:00 25 C 28 % 5.24 C
773 20-04-2019 16:20:00 25.4 C 27 % 5.06 C
774 20-04-2019 16:25:00 25.8 C 29 % 6.43 C
775 20-04-2019 16:30:00 25.7 C 26 % 4.77 C
Sensor: Nr:Datum:Temp:Feuchte:Taupunkt:
Aussen-T/F 776 20-04-2019 16:35:00 25.4 C 25 % 3.96 C
777 20-04-2019 16:40:00 25.3 C 26 % 4.43 C
778 20-04-2019 16:45:00 25.3 C 26 % 4.43 C
779 20-04-2019 16:50:00 25.2 C 27 % 4.89 C
780 20-04-2019 16:55:00 25.3 C 26 % 4.43 C
781 20-04-2019 17:00:00 25.3 C 26 % 4.43 C
782 20-04-2019 17:05:00 25.5 C 26 % 4.6 C
783 20-04-2019 17:10:00 25.6 C 25 % 4.13 C
784 20-04-2019 17:15:00 25.3 C 26 % 4.43 C
785 20-04-2019 17:20:00 25.3 C 25 % 3.88 C
786 20-04-2019 17:25:00 25.4 C 25 % 3.96 C
787 20-04-2019 17:30:00 25.3 C 25 % 3.88 C
788 20-04-2019 17:35:00 25.2 C 25 % 3.79 C
789 20-04-2019 17:40:00 25.2 C 25 % 3.79 C
790 20-04-2019 17:45:00 25.1 C 25 % 3.71 C
791 20-04-2019 17:50:00 25.2 C 24 % 3.21 C
792 20-04-2019 17:55:00 25.3 C 25 % 3.88 C
793 20-04-2019 18:00:00 25.3 C 24 % 3.3 C
794 20-04-2019 18:05:00 25.4 C 24 % 3.38 C
795 20-04-2019 18:10:00 25.3 C 24 % 3.3 C
796 20-04-2019 18:15:00 25.3 C 23 % 2.7 C
797 20-04-2019 18:20:00 25.2 C 22 % 1.99 C
798 20-04-2019 18:25:00 25.2 C 23 % 2.61 C
799 20-04-2019 18:30:00 25.3 C 26 % 4.43 C
800 20-04-2019 18:35:00 25.6 C 25 % 4.13 C
Sensor: Nr:Datum:Temp:Feuchte:Taupunkt:
Aussen-T/F 801 20-04-2019 18:40:00 25.6 C 22 % 2.32 C
802 20-04-2019 18:45:00 25.4 C 25 % 3.96 C
803 20-04-2019 18:50:00 25.5 C 23 % 2.86 C
804 20-04-2019 18:55:00 25.6 C 22 % 2.32 C
805 20-04-2019 19:00:00 25.7 C 23 % 3.03 C
806 20-04-2019 19:05:00 25.4 C 22 % 2.16 C
807 20-04-2019 19:10:00 25.4 C 22 % 2.16 C
808 20-04-2019 19:15:00 25.4 C 23 % 2.78 C
809 20-04-2019 19:20:00 25.2 C 24 % 3.21 C
810 20-04-2019 19:25:00 24.8 C 25 % 3.45 C
811 20-04-2019 19:30:00 24.4 C 26 % 3.67 C
812 20-04-2019 19:35:00 24.1 C 27 % 3.95 C
813 20-04-2019 19:40:00 23.9 C 27 % 3.78 C
814 20-04-2019 19:45:00 23.8 C 33 % 6.57 C
815 20-04-2019 19:50:00 23.6 C 36 % 7.67 C
816 20-04-2019 19:55:00 23.2 C 34 % 6.48 C
817 20-04-2019 20:00:00 22.7 C 37 % 7.27 C
818 20-04-2019 20:05:00 22.1 C 38 % 7.13 C
819 20-04-2019 20:10:00 21.4 C 40 % 7.25 C
820 20-04-2019 20:15:00 20.8 C 42 % 7.43 C
821 20-04-2019 20:20:00 20.2 C 42 % 6.89 C
822 20-04-2019 20:25:00 19.7 C 44 % 7.12 C
823 20-04-2019 20:30:00 19.3 C 44 % 6.75 C
824 20-04-2019 20:35:00 19 C 44 % 6.48 C
825 20-04-2019 20:40:00 18.8 C 45 % 6.63 C
Sensor: Nr:Datum:Temp:Feuchte:Taupunkt:
Aussen-T/F 826 20-04-2019 20:45:00 18.5 C 47 % 6.99 C
827 20-04-2019 20:50:00 18.2 C 47 % 6.71 C
828 20-04-2019 20:55:00 17.8 C 48 % 6.65 C
829 20-04-2019 21:00:00 17.7 C 47 % 6.26 C
830 20-04-2019 21:05:00 17.4 C 49 % 6.59 C
831 20-04-2019 21:10:00 17.3 C 52 % 7.36 C
832 20-04-2019 21:15:00 17.1 C 52 % 7.18 C
833 20-04-2019 21:20:00 16.7 C 53 % 7.08 C
834 20-04-2019 21:25:00 16.3 C 53 % 6.71 C
835 20-04-2019 21:30:00 16 C 55 % 6.97 C
836 20-04-2019 21:35:00 15.7 C 56 % 6.96 C
837 20-04-2019 21:40:00 15.4 C 58 % 7.19 C
838 20-04-2019 21:45:00 15.1 C 59 % 7.16 C
839 20-04-2019 21:50:00 14.8 C 60 % 7.12 C
840 20-04-2019 21:55:00 14.6 C 61 % 7.17 C
841 20-04-2019 22:00:00 14.4 C 61 % 6.98 C
842 20-04-2019 22:05:00 14.3 C 61 % 6.89 C
843 20-04-2019 22:10:00 14.2 C 63 % 7.27 C
844 20-04-2019 22:15:00 14 C 63 % 7.08 C
845 20-04-2019 22:20:00 13.8 C 64 % 7.12 C
846 20-04-2019 22:25:00 13.8 C 62 % 6.65 C
847 20-04-2019 22:30:00 13.8 C 63 % 6.89 C
848 20-04-2019 22:35:00 13.8 C 64 % 7.12 C
849 20-04-2019 22:40:00 13.6 C 65 % 7.15 C
850 20-04-2019 22:45:00 13.4 C 64 % 6.74 C
Sensor: Nr:Datum:Temp:Feuchte:Taupunkt:
Aussen-T/F 851 20-04-2019 22:50:00 13.4 C 65 % 6.96 C
852 20-04-2019 22:55:00 13.3 C 64 % 6.64 C
853 20-04-2019 23:00:00 13.3 C 65 % 6.87 C
854 20-04-2019 23:05:00 13.2 C 66 % 7 C
855 20-04-2019 23:10:00 13.1 C 66 % 6.9 C
856 20-04-2019 23:15:00 12.9 C 66 % 6.71 C
857 20-04-2019 23:20:00 12.8 C 67 % 6.83 C
858 20-04-2019 23:25:00 12.8 C 66 % 6.61 C
859 20-04-2019 23:30:00 12.7 C 65 % 6.3 C
860 20-04-2019 23:35:00 12.7 C 65 % 6.3 C
861 20-04-2019 23:40:00 12.8 C 66 % 6.61 C
862 20-04-2019 23:45:00 12.8 C 66 % 6.61 C
863 20-04-2019 23:50:00 12.9 C 65 % 6.49 C
864 20-04-2019 23:55:00 12.9 C 65 % 6.49 C
865 21-04-2019 00:00:00 12.9 C 66 % 6.71 C
866 21-04-2019 00:05:00 12.9 C 65 % 6.49 C
867 21-04-2019 00:10:00 12.9 C 64 % 6.26 C
868 21-04-2019 00:15:00 12.9 C 64 % 6.26 C
869 21-04-2019 00:20:00 13 C 65 % 6.58 C
870 21-04-2019 00:25:00 13 C 64 % 6.36 C
871 21-04-2019 00:30:00 12.9 C 64 % 6.26 C
872 21-04-2019 00:35:00 12.9 C 64 % 6.26 C
873 21-04-2019 00:40:00 12.8 C 65 % 6.39 C
874 21-04-2019 00:45:00 12.7 C 66 % 6.52 C
875 21-04-2019 00:50:00 12.6 C 66 % 6.42 C
Sensor: Nr:Datum:Temp:Feuchte:Taupunkt:
Aussen-T/F 876 21-04-2019 00:55:00 12.6 C 64 % 5.98 C
877 21-04-2019 01:00:00 12.7 C 64 % 6.07 C
878 21-04-2019 01:05:00 12.8 C 63 % 5.94 C
879 21-04-2019 01:10:00 12.8 C 64 % 6.17 C
880 21-04-2019 01:15:00 12.8 C 64 % 6.17 C
881 21-04-2019 01:20:00 12.7 C 65 % 6.3 C
882 21-04-2019 01:25:00 12.6 C 65 % 6.2 C
883 21-04-2019 01:30:00 12.5 C 66 % 6.33 C
884 21-04-2019 01:35:00 12.4 C 66 % 6.23 C
885 21-04-2019 01:40:00 12.3 C 67 % 6.36 C
886 21-04-2019 01:45:00 12.2 C 67 % 6.26 C
887 21-04-2019 01:50:00 12.1 C 67 % 6.17 C
888 21-04-2019 01:55:00 11.9 C 67 % 5.98 C
889 21-04-2019 02:00:00 11.9 C 68 % 6.19 C
890 21-04-2019 02:05:00 11.8 C 69 % 6.31 C
891 21-04-2019 02:10:00 11.7 C 69 % 6.21 C
892 21-04-2019 02:15:00 11.5 C 70 % 6.23 C
893 21-04-2019 02:20:00 11.3 C 70 % 6.03 C
894 21-04-2019 02:25:00 11.2 C 70 % 5.94 C
895 21-04-2019 02:30:00 11.2 C 72 % 6.35 C
896 21-04-2019 02:35:00 11.1 C 71 % 6.05 C
897 21-04-2019 02:40:00 11.1 C 71 % 6.05 C
898 21-04-2019 02:45:00 11.2 C 71 % 6.14 C
899 21-04-2019 02:50:00 11.2 C 71 % 6.14 C
900 21-04-2019 02:55:00 11.2 C 70 % 5.94 C
Sensor: Nr:Datum:Temp:Feuchte:Taupunkt:
Aussen-T/F 901 21-04-2019 03:00:00 11.3 C 71 % 6.24 C
902 21-04-2019 03:05:00 11.3 C 72 % 6.44 C
903 21-04-2019 03:10:00 11.2 C 71 % 6.14 C
904 21-04-2019 03:15:00 11.1 C 72 % 6.25 C
905 21-04-2019 03:20:00 11.1 C 73 % 6.45 C
906 21-04-2019 03:25:00 10.9 C 73 % 6.26 C
907 21-04-2019 03:30:00 10.8 C 73 % 6.16 C
908 21-04-2019 03:35:00 10.7 C 74 % 6.26 C
909 21-04-2019 03:40:00 10.5 C 74 % 6.07 C
910 21-04-2019 03:45:00 10.4 C 75 % 6.17 C
911 21-04-2019 03:50:00 10.3 C 74 % 5.88 C
912 21-04-2019 03:55:00 10.2 C 75 % 5.97 C
913 21-04-2019 04:00:00 10.1 C 75 % 5.88 C
914 21-04-2019 04:05:00 10 C 75 % 5.78 C
915 21-04-2019 04:10:00 9.9 C 76 % 5.87 C
916 21-04-2019 04:15:00 9.8 C 77 % 5.97 C
917 21-04-2019 04:20:00 9.7 C 77 % 5.87 C
918 21-04-2019 04:25:00 9.4 C 78 % 5.76 C
919 21-04-2019 04:30:00 9.3 C 78 % 5.67 C
920 21-04-2019 04:35:00 9 C 79 % 5.56 C
921 21-04-2019 04:40:00 8.7 C 80 % 5.45 C
922 21-04-2019 04:45:00 8.5 C 81 % 5.43 C
923 21-04-2019 04:50:00 8.3 C 82 % 5.41 C
924 21-04-2019 04:55:00 8.1 C 82 % 5.22 C
925 21-04-2019 05:00:00 7.9 C 82 % 5.02 C
Sensor: Nr:Datum:Temp:Feuchte:Taupunkt:
Aussen-T/F 926 21-04-2019 05:05:00 7.8 C 83 % 5.1 C
927 21-04-2019 05:10:00 7.7 C 84 % 5.17 C
928 21-04-2019 05:15:00 7.6 C 84 % 5.07 C
929 21-04-2019 05:20:00 7.5 C 85 % 5.15 C
930 21-04-2019 05:25:00 7.4 C 85 % 5.05 C
931 21-04-2019 05:30:00 7.3 C 86 % 5.12 C
932 21-04-2019 05:35:00 7.2 C 86 % 5.02 C
933 21-04-2019 05:40:00 7.2 C 86 % 5.02 C
934 21-04-2019 05:45:00 7.1 C 86 % 4.92 C
935 21-04-2019 05:50:00 7 C 86 % 4.82 C
936 21-04-2019 05:55:00 6.8 C 86 % 4.63 C
937 21-04-2019 06:00:00 6.8 C 87 % 4.79 C
938 21-04-2019 06:05:00 6.7 C 87 % 4.69 C
939 21-04-2019 06:10:00 6.6 C 87 % 4.6 C
940 21-04-2019 06:15:00 6.5 C 87 % 4.5 C
941 21-04-2019 06:20:00 6.4 C 87 % 4.4 C
942 21-04-2019 06:25:00 6.4 C 88 % 4.56 C
943 21-04-2019 06:30:00 6.4 C 88 % 4.56 C
944 21-04-2019 06:35:00 6.4 C 88 % 4.56 C
945 21-04-2019 06:40:00 6.3 C 88 % 4.46 C
946 21-04-2019 06:45:00 6.3 C 88 % 4.46 C
947 21-04-2019 06:50:00 6.3 C 89 % 4.62 C
948 21-04-2019 06:55:00 6.3 C 89 % 4.62 C
949 21-04-2019 07:00:00 6.3 C 89 % 4.62 C
950 21-04-2019 07:05:00 6.3 C 89 % 4.62 C
Sensor: Nr:Datum:Temp:Feuchte:Taupunkt:
Aussen-T/F 951 21-04-2019 07:10:00 6.4 C 89 % 4.72 C
952 21-04-2019 07:15:00 6.6 C 90 % 5.08 C
953 21-04-2019 07:20:00 6.8 C 90 % 5.28 C
954 21-04-2019 07:25:00 6.8 C 89 % 5.12 C
955 21-04-2019 07:30:00 6.8 C 89 % 5.12 C
956 21-04-2019 07:35:00 6.8 C 89 % 5.12 C
957 21-04-2019 07:40:00 6.8 C 89 % 5.12 C
958 21-04-2019 07:45:00 6.8 C 89 % 5.12 C
959 21-04-2019 07:50:00 6.9 C 89 % 5.22 C
960 21-04-2019 07:55:00 6.9 C 89 % 5.22 C
961 21-04-2019 08:00:00 6.9 C 89 % 5.22 C
962 21-04-2019 08:05:00 6.9 C 89 % 5.22 C
963 21-04-2019 08:10:00 6.9 C 90 % 5.38 C
964 21-04-2019 08:15:00 7 C 90 % 5.48 C
965 21-04-2019 08:20:00 7.1 C 90 % 5.57 C
966 21-04-2019 08:25:00 7.1 C 90 % 5.57 C
967 21-04-2019 08:30:00 7.1 C 90 % 5.57 C
968 21-04-2019 08:35:00 7.2 C 90 % 5.67 C
969 21-04-2019 08:40:00 7.3 C 90 % 5.77 C
970 21-04-2019 08:45:00 7.4 C 90 % 5.87 C
971 21-04-2019 08:50:00 7.5 C 90 % 5.97 C
972 21-04-2019 08:55:00 7.6 C 90 % 6.07 C
973 21-04-2019 09:00:00 7.7 C 90 % 6.17 C
974 21-04-2019 09:05:00 7.9 C 90 % 6.36 C
975 21-04-2019 09:10:00 8 C 90 % 6.46 C
Sensor: Nr:Datum:Temp:Feuchte:Taupunkt:
Aussen-T/F 976 21-04-2019 09:15:00 8.2 C 90 % 6.66 C
977 21-04-2019 09:20:00 8.3 C 90 % 6.76 C
978 21-04-2019 09:25:00 8.5 C 90 % 6.96 C
979 21-04-2019 09:30:00 8.7 C 90 % 7.15 C
980 21-04-2019 09:35:00 8.9 C 90 % 7.35 C
981 21-04-2019 09:40:00 9.2 C 89 % 7.48 C
982 21-04-2019 09:45:00 9.3 C 89 % 7.58 C
983 21-04-2019 09:50:00 9.6 C 89 % 7.88 C
984 21-04-2019 09:55:00 9.8 C 88 % 7.91 C
985 21-04-2019 10:00:00 10.1 C 88 % 8.21 C
986 21-04-2019 10:05:00 10.4 C 87 % 8.33 C
987 21-04-2019 10:10:00 10.7 C 86 % 8.46 C
988 21-04-2019 10:15:00 11.1 C 85 % 8.68 C
989 21-04-2019 10:20:00 11.3 C 84 % 8.7 C
990 21-04-2019 10:25:00 11.7 C 83 % 8.91 C
991 21-04-2019 10:30:00 12.1 C 82 % 9.12 C
992 21-04-2019 10:35:00 12.5 C 80 % 9.15 C
993 21-04-2019 10:40:00 12.8 C 78 % 9.06 C
994 21-04-2019 10:45:00 13.2 C 75 % 8.87 C
995 21-04-2019 10:50:00 13.7 C 75 % 9.35 C
996 21-04-2019 10:55:00 14.2 C 74 % 9.64 C
997 21-04-2019 11:00:00 14.6 C 72 % 9.61 C
998 21-04-2019 11:05:00 14.9 C 70 % 9.48 C
999 21-04-2019 11:10:00 15.3 C 66 % 8.99 C
1000 21-04-2019 11:15:00 15.8 C 68 % 9.91 C
Sensor: Nr:Datum:Temp:Feuchte:Taupunkt:
Aussen-T/F 1001 21-04-2019 11:20:00 16.2 C 67 % 10.07 C
1002 21-04-2019 11:25:00 16.5 C 62 % 9.2 C
1003 21-04-2019 11:30:00 16.8 C 63 % 9.72 C
1004 21-04-2019 11:35:00 17 C 59 % 8.94 C
1005 21-04-2019 11:40:00 17.3 C 64 % 10.43 C
1006 21-04-2019 11:45:00 17.5 C 58 % 9.15 C
1007 21-04-2019 11:50:00 17.8 C 57 % 9.18 C
1008 21-04-2019 11:55:00 18.1 C 54 % 8.65 C
1009 21-04-2019 12:00:00 18.4 C 52 % 8.38 C
1010 21-04-2019 12:05:00 18.7 C 51 % 8.37 C
1011 21-04-2019 12:10:00 18.9 C 50 % 8.26 C
1012 21-04-2019 12:15:00 19.1 C 49 % 8.15 C
1013 21-04-2019 12:20:00 19.3 C 47 % 7.72 C
1014 21-04-2019 12:25:00 19.6 C 45 % 7.35 C
1015 21-04-2019 12:30:00 19.8 C 44 % 7.21 C
1016 21-04-2019 12:35:00 20 C 44 % 7.39 C
1017 21-04-2019 12:40:00 20.2 C 42 % 6.89 C
1018 21-04-2019 12:45:00 20.4 C 40 % 6.36 C
1019 21-04-2019 12:50:00 20.7 C 39 % 6.26 C
1020 21-04-2019 12:55:00 20.8 C 39 % 6.35 C
1021 21-04-2019 13:00:00 20.9 C 38 % 6.06 C
1022 21-04-2019 13:05:00 21.1 C 39 % 6.62 C
1023 21-04-2019 13:10:00 21.2 C 37 % 5.94 C
1024 21-04-2019 13:15:00 21.3 C 38 % 6.42 C
1025 21-04-2019 13:20:00 21.4 C 37 % 6.12 C
Sensor: Nr:Datum:Temp:Feuchte:Taupunkt:
Aussen-T/F 1026 21-04-2019 13:25:00 21.5 C 35 % 5.41 C
1027 21-04-2019 13:30:00 21.6 C 33 % 4.65 C
1028 21-04-2019 13:35:00 21.6 C 33 % 4.65 C
1029 21-04-2019 13:40:00 21.7 C 33 % 4.74 C
1030 21-04-2019 13:45:00 21.8 C 33 % 4.83 C
1031 21-04-2019 13:50:00 22 C 32 % 4.56 C
1032 21-04-2019 13:55:00 22.2 C 33 % 5.18 C
1033 21-04-2019 14:00:00 22.3 C 30 % 3.9 C
1034 21-04-2019 14:05:00 22.4 C 32 % 4.91 C
1035 21-04-2019 14:10:00 22.6 C 30 % 4.16 C
1036 21-04-2019 14:15:00 22.6 C 30 % 4.16 C
1037 21-04-2019 14:20:00 22.7 C 30 % 4.25 C
1038 21-04-2019 14:25:00 22.8 C 30 % 4.34 C
1039 21-04-2019 14:30:00 23.1 C 29 % 4.11 C
1040 21-04-2019 14:35:00 23.2 C 30 % 4.68 C
1041 21-04-2019 14:40:00 23.3 C 29 % 4.28 C
1042 21-04-2019 14:45:00 23.4 C 31 % 5.32 C
1043 21-04-2019 14:50:00 23.6 C 29 % 4.54 C
1044 21-04-2019 14:55:00 23.8 C 30 % 5.2 C
1045 21-04-2019 15:00:00 24.1 C 29 % 4.97 C
1046 21-04-2019 15:05:00 24.2 C 30 % 5.54 C
1047 21-04-2019 15:10:00 24.2 C 30 % 5.54 C
1048 21-04-2019 15:15:00 24.2 C 32 % 6.48 C
1049 21-04-2019 15:20:00 24.3 C 31 % 6.1 C
1050 21-04-2019 15:25:00 24.4 C 29 % 5.23 C
Sensor: Nr:Datum:Temp:Feuchte:Taupunkt:
Aussen-T/F 1051 21-04-2019 15:30:00 24.4 C 32 % 6.65 C
1052 21-04-2019 15:35:00 24.5 C 30 % 5.8 C
1053 21-04-2019 15:40:00 24.6 C 31 % 6.36 C
1054 21-04-2019 15:45:00 24.7 C 32 % 6.91 C
1055 21-04-2019 15:50:00 24.9 C 30 % 6.15 C
1056 21-04-2019 15:55:00 25.1 C 28 % 5.32 C
1057 21-04-2019 16:00:00 25.1 C 28 % 5.32 C
1058 21-04-2019 16:05:00 25.1 C 28 % 5.32 C
1059 21-04-2019 16:10:00 25.3 C 28 % 5.49 C
1060 21-04-2019 16:15:00 25.6 C 27 % 5.23 C
1061 21-04-2019 16:20:00 25.8 C 26 % 4.86 C
1062 21-04-2019 16:25:00 25.7 C 25 % 4.21 C
1063 21-04-2019 16:30:00 25.7 C 27 % 5.31 C
1064 21-04-2019 16:35:00 25.9 C 25 % 4.38 C
1065 21-04-2019 16:40:00 26.1 C 26 % 5.11 C
1066 21-04-2019 16:45:00 26.2 C 26 % 5.2 C
1067 21-04-2019 16:50:00 26.1 C 25 % 4.55 C
1068 21-04-2019 16:55:00 26.2 C 25 % 4.63 C
1069 21-04-2019 17:00:00 26.1 C 25 % 4.55 C
1070 21-04-2019 17:05:00 26 C 25 % 4.47 C
1071 21-04-2019 17:10:00 26.1 C 24 % 3.97 C
1072 21-04-2019 17:15:00 26.1 C 24 % 3.97 C
1073 21-04-2019 17:20:00 25.9 C 24 % 3.8 C
1074 21-04-2019 17:25:00 25.7 C 25 % 4.21 C
1075 21-04-2019 17:30:00 25.8 C 24 % 3.72 C
Sensor: Nr:Datum:Temp:Feuchte:Taupunkt:
Aussen-T/F 1076 21-04-2019 17:35:00 25.9 C 25 % 4.38 C
1077 21-04-2019 17:40:00 25.9 C 25 % 4.38 C
1078 21-04-2019 17:45:00 25.8 C 25 % 4.3 C
1079 21-04-2019 17:50:00 25.9 C 24 % 3.8 C
1080 21-04-2019 17:55:00 26.1 C 24 % 3.97 C
1081 21-04-2019 18:00:00 25.9 C 25 % 4.38 C
1082 21-04-2019 18:05:00 25.8 C 24 % 3.72 C
1083 21-04-2019 18:10:00 25.9 C 26 % 4.94 C
1084 21-04-2019 18:15:00 26.2 C 27 % 5.74 C
1085 21-04-2019 18:20:00 26.4 C 26 % 5.37 C
1086 21-04-2019 18:25:00 26.4 C 22 % 2.99 C
1087 21-04-2019 18:30:00 26.3 C 23 % 3.53 C
1088 21-04-2019 18:35:00 26.4 C 23 % 3.62 C
1089 21-04-2019 18:40:00 26.4 C 24 % 4.22 C
1090 21-04-2019 18:45:00 26.2 C 24 % 4.05 C
1091 21-04-2019 18:50:00 25.9 C 24 % 3.8 C
1092 21-04-2019 18:55:00 25.8 C 24 % 3.72 C
1093 21-04-2019 19:00:00 25.8 C 24 % 3.72 C
1094 21-04-2019 19:05:00 25.6 C 24 % 3.55 C
1095 21-04-2019 19:10:00 25.5 C 24 % 3.47 C
1096 21-04-2019 19:15:00 25.3 C 24 % 3.3 C
1097 21-04-2019 19:20:00 25.2 C 30 % 6.41 C
1098 21-04-2019 19:25:00 24.9 C 24 % 2.96 C
1099 21-04-2019 19:30:00 24.6 C 26 % 3.84 C
1100 21-04-2019 19:35:00 24.3 C 32 % 6.56 C
Sensor: Nr:Datum:Temp:Feuchte:Taupunkt:
Aussen-T/F 1101 21-04-2019 19:40:00 24 C 27 % 3.87 C
1102 21-04-2019 19:45:00 23.7 C 35 % 7.34 C
1103 21-04-2019 19:50:00 23.3 C 36 % 7.4 C
1104 21-04-2019 19:55:00 22.8 C 34 % 6.13 C
1105 21-04-2019 20:00:00 22.2 C 36 % 6.43 C
1106 21-04-2019 20:05:00 21.7 C 37 % 6.39 C
1107 21-04-2019 20:10:00 21.2 C 37 % 5.94 C
1108 21-04-2019 20:15:00 20.7 C 39 % 6.26 C
1109 21-04-2019 20:20:00 20.1 C 40 % 6.09 C
1110 21-04-2019 20:25:00 19.5 C 43 % 6.6 C
1111 21-04-2019 20:30:00 19.1 C 42 % 5.9 C
1112 21-04-2019 20:35:00 18.7 C 42 % 5.54 C
1113 21-04-2019 20:40:00 18.5 C 42 % 5.36 C
1114 21-04-2019 20:45:00 18.3 C 43 % 5.52 C
1115 21-04-2019 20:50:00 18.2 C 43 % 5.43 C
1116 21-04-2019 20:55:00 18.1 C 43 % 5.34 C
1117 21-04-2019 21:00:00 17.9 C 43 % 5.16 C
1118 21-04-2019 21:05:00 17.8 C 46 % 6.04 C
1119 21-04-2019 21:10:00 17.6 C 45 % 5.54 C
1120 21-04-2019 21:15:00 17.4 C 47 % 5.98 C
1121 21-04-2019 21:20:00 17.2 C 49 % 6.4 C
1122 21-04-2019 21:25:00 16.9 C 50 % 6.42 C
1123 21-04-2019 21:30:00 16.7 C 50 % 6.24 C
1124 21-04-2019 21:35:00 16.4 C 53 % 6.81 C
1125 21-04-2019 21:40:00 16.2 C 54 % 6.89 C
Sensor: Nr:Datum:Temp:Feuchte:Taupunkt:
Aussen-T/F 1126 21-04-2019 21:45:00 15.8 C 56 % 7.05 C
1127 21-04-2019 21:50:00 15.6 C 57 % 7.12 C
1128 21-04-2019 21:55:00 15.2 C 58 % 7 C
1129 21-04-2019 22:00:00 14.9 C 60 % 7.21 C
1130 21-04-2019 22:05:00 14.6 C 61 % 7.17 C
1131 21-04-2019 22:10:00 14.3 C 61 % 6.89 C
1132 21-04-2019 22:15:00 14.1 C 62 % 6.94 C
1133 21-04-2019 22:20:00 13.9 C 63 % 6.98 C
1134 21-04-2019 22:25:00 13.8 C 63 % 6.89 C
1135 21-04-2019 22:30:00 13.7 C 64 % 7.02 C
1136 21-04-2019 22:35:00 13.6 C 65 % 7.15 C
1137 21-04-2019 22:40:00 13.5 C 65 % 7.06 C
1138 21-04-2019 22:45:00 13.4 C 64 % 6.74 C
1139 21-04-2019 22:50:00 13.3 C 65 % 6.87 C
1140 21-04-2019 22:55:00 13.2 C 64 % 6.55 C
1141 21-04-2019 23:00:00 13 C 65 % 6.58 C
1142 21-04-2019 23:05:00 12.9 C 65 % 6.49 C
1143 21-04-2019 23:10:00 12.8 C 66 % 6.61 C
1144 21-04-2019 23:15:00 12.7 C 66 % 6.52 C
1145 21-04-2019 23:20:00 12.4 C 66 % 6.23 C
1146 21-04-2019 23:25:00 12.3 C 66 % 6.14 C
1147 21-04-2019 23:30:00 12.1 C 67 % 6.17 C
1148 21-04-2019 23:35:00 11.9 C 69 % 6.4 C
1149 21-04-2019 23:40:00 11.8 C 68 % 6.09 C
1150 21-04-2019 23:45:00 11.7 C 69 % 6.21 C
Sensor: Nr:Datum:Temp:Feuchte:Taupunkt:
Aussen-T/F 1151 21-04-2019 23:50:00 11.6 C 69 % 6.11 C
1152 21-04-2019 23:55:00 11.4 C 69 % 5.92 C
1153 22-04-2019 00:00:00 11.3 C 70 % 6.03 C
1154 22-04-2019 00:05:00 11.2 C 70 % 5.94 C
1155 22-04-2019 00:10:00 11.1 C 70 % 5.84 C
1156 22-04-2019 00:15:00 10.9 C 71 % 5.86 C
1157 22-04-2019 00:20:00 10.7 C 71 % 5.66 C
1158 22-04-2019 00:25:00 10.6 C 72 % 5.77 C
1159 22-04-2019 00:30:00 10.4 C 72 % 5.58 C
1160 22-04-2019 00:35:00 10.3 C 73 % 5.68 C
1161 22-04-2019 00:40:00 10.2 C 74 % 5.78 C
1162 22-04-2019 00:45:00 10.1 C 74 % 5.68 C
1163 22-04-2019 00:50:00 9.9 C 75 % 5.68 C
1164 22-04-2019 00:55:00 9.8 C 76 % 5.78 C
1165 22-04-2019 01:00:00 9.7 C 76 % 5.68 C
1166 22-04-2019 01:05:00 9.7 C 76 % 5.68 C
1167 22-04-2019 01:10:00 9.6 C 77 % 5.77 C
1168 22-04-2019 01:15:00 9.5 C 77 % 5.68 C
1169 22-04-2019 01:20:00 9.4 C 77 % 5.58 C
1170 22-04-2019 01:25:00 9.3 C 78 % 5.67 C
1171 22-04-2019 01:30:00 9.2 C 78 % 5.57 C
1172 22-04-2019 01:35:00 9.1 C 79 % 5.66 C
1173 22-04-2019 01:40:00 9 C 79 % 5.56 C
1174 22-04-2019 01:45:00 8.9 C 79 % 5.46 C
1175 22-04-2019 01:50:00 8.8 C 80 % 5.55 C
Sensor: Nr:Datum:Temp:Feuchte:Taupunkt:
Aussen-T/F 1176 22-04-2019 01:55:00 8.7 C 80 % 5.45 C
1177 22-04-2019 02:00:00 8.6 C 81 % 5.53 C
1178 22-04-2019 02:05:00 8.6 C 81 % 5.53 C
1179 22-04-2019 02:10:00 8.5 C 81 % 5.43 C
1180 22-04-2019 02:15:00 8.4 C 82 % 5.51 C
1181 22-04-2019 02:20:00 8.3 C 82 % 5.41 C
1182 22-04-2019 02:25:00 8.2 C 82 % 5.32 C
1183 22-04-2019 02:30:00 8.1 C 83 % 5.39 C
1184 22-04-2019 02:35:00 8.1 C 83 % 5.39 C
1185 22-04-2019 02:40:00 8 C 83 % 5.29 C
1186 22-04-2019 02:45:00 7.9 C 84 % 5.37 C
1187 22-04-2019 02:50:00 7.8 C 84 % 5.27 C
1188 22-04-2019 02:55:00 7.9 C 84 % 5.37 C
1189 22-04-2019 03:00:00 7.9 C 84 % 5.37 C
1190 22-04-2019 03:05:00 7.9 C 84 % 5.37 C
1191 22-04-2019 03:10:00 7.9 C 84 % 5.37 C
1192 22-04-2019 03:15:00 7.8 C 84 % 5.27 C
1193 22-04-2019 03:20:00 7.7 C 84 % 5.17 C
1194 22-04-2019 03:25:00 7.6 C 85 % 5.24 C
1195 22-04-2019 03:30:00 7.6 C 85 % 5.24 C
1196 22-04-2019 03:35:00 7.4 C 85 % 5.05 C
1197 22-04-2019 03:40:00 7.4 C 86 % 5.22 C
1198 22-04-2019 03:45:00 7.3 C 86 % 5.12 C
1199 22-04-2019 03:50:00 7.2 C 86 % 5.02 C
1200 22-04-2019 03:55:00 7.1 C 86 % 4.92 C
Sensor: Nr:Datum:Temp:Feuchte:Taupunkt:
Aussen-T/F 1201 22-04-2019 04:00:00 7.1 C 87 % 5.09 C
1202 22-04-2019 04:05:00 7.1 C 87 % 5.09 C
1203 22-04-2019 04:10:00 6.9 C 87 % 4.89 C
1204 22-04-2019 04:15:00 6.8 C 87 % 4.79 C
1205 22-04-2019 04:20:00 6.8 C 87 % 4.79 C
1206 22-04-2019 04:25:00 6.7 C 88 % 4.86 C
1207 22-04-2019 04:30:00 6.6 C 88 % 4.76 C
1208 22-04-2019 04:35:00 6.5 C 88 % 4.66 C
1209 22-04-2019 04:40:00 6.4 C 88 % 4.56 C
1210 22-04-2019 04:45:00 6.3 C 89 % 4.62 C
1211 22-04-2019 04:50:00 6.3 C 89 % 4.62 C
1212 22-04-2019 04:55:00 6.2 C 89 % 4.53 C
1213 22-04-2019 05:00:00 6.2 C 90 % 4.69 C
1214 22-04-2019 05:05:00 6.1 C 90 % 4.59 C
1215 22-04-2019 05:10:00 6.1 C 90 % 4.59 C
1216 22-04-2019 05:15:00 6 C 90 % 4.49 C
1217 22-04-2019 05:20:00 5.9 C 90 % 4.39 C
1218 22-04-2019 05:25:00 5.9 C 90 % 4.39 C
1219 22-04-2019 05:30:00 5.8 C 90 % 4.29 C
1220 22-04-2019 05:35:00 5.8 C 90 % 4.29 C
1221 22-04-2019 05:40:00 5.8 C 91 % 4.45 C
1222 22-04-2019 05:45:00 5.7 C 91 % 4.35 C
1223 22-04-2019 05:50:00 5.7 C 91 % 4.35 C
1224 22-04-2019 05:55:00 5.7 C 91 % 4.35 C
1225 22-04-2019 06:00:00 5.6 C 91 % 4.25 C
Sensor: Nr:Datum:Temp:Feuchte:Taupunkt:
Aussen-T/F 1226 22-04-2019 06:05:00 5.6 C 91 % 4.25 C
1227 22-04-2019 06:10:00 5.6 C 91 % 4.25 C
1228 22-04-2019 06:15:00 5.5 C 92 % 4.31 C
1229 22-04-2019 06:20:00 5.5 C 92 % 4.31 C
1230 22-04-2019 06:25:00 5.4 C 92 % 4.21 C
1231 22-04-2019 06:30:00 5.4 C 92 % 4.21 C
1232 22-04-2019 06:35:00 5.4 C 92 % 4.21 C
1233 22-04-2019 06:40:00 5.4 C 92 % 4.21 C
1234 22-04-2019 06:45:00 5.4 C 92 % 4.21 C
1235 22-04-2019 06:50:00 5.4 C 92 % 4.21 C
1236 22-04-2019 06:55:00 5.5 C 92 % 4.31 C
1237 22-04-2019 07:00:00 5.5 C 93 % 4.46 C
1238 22-04-2019 07:05:00 5.6 C 92 % 4.41 C
1239 22-04-2019 07:10:00 5.6 C 93 % 4.56 C
1240 22-04-2019 07:15:00 5.6 C 93 % 4.56 C
1241 22-04-2019 07:20:00 5.6 C 93 % 4.56 C
1242 22-04-2019 07:25:00 5.7 C 93 % 4.66 C
1243 22-04-2019 07:30:00 5.7 C 93 % 4.66 C
1244 22-04-2019 07:35:00 5.8 C 93 % 4.76 C
1245 22-04-2019 07:40:00 5.9 C 93 % 4.86 C
1246 22-04-2019 07:45:00 5.9 C 93 % 4.86 C
1247 22-04-2019 07:50:00 6 C 93 % 4.96 C
1248 22-04-2019 07:55:00 6 C 93 % 4.96 C
1249 22-04-2019 08:00:00 6.1 C 93 % 5.06 C
1250 22-04-2019 08:05:00 6.2 C 93 % 5.15 C
Sensor: Nr:Datum:Temp:Feuchte:Taupunkt:
Aussen-T/F 1251 22-04-2019 08:10:00 6.3 C 93 % 5.25 C
1252 22-04-2019 08:15:00 6.3 C 93 % 5.25 C
1253 22-04-2019 08:20:00 6.4 C 93 % 5.35 C
1254 22-04-2019 08:25:00 6.4 C 93 % 5.35 C
1255 22-04-2019 08:30:00 6.6 C 93 % 5.55 C
1256 22-04-2019 08:35:00 6.7 C 93 % 5.65 C
1257 22-04-2019 08:40:00 6.7 C 93 % 5.65 C
1258 22-04-2019 08:45:00 6.8 C 93 % 5.75 C
1259 22-04-2019 08:50:00 6.9 C 93 % 5.85 C
1260 22-04-2019 08:55:00 7.1 C 93 % 6.05 C
1261 22-04-2019 09:00:00 7.3 C 93 % 6.25 C
1262 22-04-2019 09:05:00 7.4 C 93 % 6.34 C
1263 22-04-2019 09:10:00 7.6 C 93 % 6.54 C
1264 22-04-2019 09:15:00 7.8 C 93 % 6.74 C
1265 22-04-2019 09:20:00 7.9 C 93 % 6.84 C
1266 22-04-2019 09:25:00 8.2 C 93 % 7.14 C
1267 22-04-2019 09:30:00 8.4 C 92 % 7.18 C
1268 22-04-2019 09:35:00 8.7 C 92 % 7.47 C
1269 22-04-2019 09:40:00 8.9 C 92 % 7.67 C
1270 22-04-2019 09:45:00 9.3 C 91 % 7.91 C
1271 22-04-2019 09:50:00 9.6 C 90 % 8.04 C
1272 22-04-2019 09:55:00 9.8 C 89 % 8.08 C
1273 22-04-2019 10:00:00 10.2 C 88 % 8.3 C
1274 22-04-2019 10:05:00 10.5 C 86 % 8.26 C
1275 22-04-2019 10:10:00 10.8 C 84 % 8.21 C
Sensor: Nr:Datum:Temp:Feuchte:Taupunkt:
Aussen-T/F 1276 22-04-2019 10:15:00 11.3 C 83 % 8.52 C
1277 22-04-2019 10:20:00 11.8 C 81 % 8.65 C
1278 22-04-2019 10:25:00 12.2 C 76 % 8.1 C
1279 22-04-2019 10:30:00 12.8 C 74 % 8.29 C
1280 22-04-2019 10:35:00 13.3 C 74 % 8.77 C
1281 22-04-2019 10:40:00 13.7 C 70 % 8.33 C
1282 22-04-2019 10:45:00 14.2 C 69 % 8.6 C
1283 22-04-2019 10:50:00 14.6 C 67 % 8.55 C
1284 22-04-2019 10:55:00 15.2 C 61 % 7.74 C
1285 22-04-2019 11:00:00 16.1 C 55 % 7.07 C
1286 22-04-2019 11:05:00 16.7 C 53 % 7.08 C
1287 22-04-2019 11:10:00 17 C 51 % 6.8 C
1288 22-04-2019 11:15:00 17.3 C 51 % 7.08 C
1289 22-04-2019 11:20:00 17.6 C 51 % 7.35 C
1290 22-04-2019 11:25:00 17.9 C 47 % 6.44 C
1291 22-04-2019 11:30:00 18.3 C 51 % 8 C
1292 22-04-2019 11:35:00 18.6 C 46 % 6.77 C
1293 22-04-2019 11:40:00 18.8 C 46 % 6.95 C
1294 22-04-2019 11:45:00 18.9 C 45 % 6.72 C
1295 22-04-2019 11:50:00 19.1 C 48 % 7.84 C
1296 22-04-2019 11:55:00 19.3 C 45 % 7.08 C
1297 22-04-2019 12:00:00 19.7 C 42 % 6.44 C
1298 22-04-2019 12:05:00 20.1 C 40 % 6.09 C
1299 22-04-2019 12:10:00 20.3 C 39 % 5.9 C
1300 22-04-2019 12:15:00 20.4 C 40 % 6.36 C
Sensor: Nr:Datum:Temp:Feuchte:Taupunkt:
Aussen-T/F 1301 22-04-2019 12:20:00 20.7 C 38 % 5.89 C
1302 22-04-2019 12:25:00 20.8 C 39 % 6.35 C
1303 22-04-2019 12:30:00 21.1 C 38 % 6.24 C
1304 22-04-2019 12:35:00 21.2 C 39 % 6.71 C
1305 22-04-2019 12:40:00 21.3 C 38 % 6.42 C
1306 22-04-2019 12:45:00 21.6 C 37 % 6.3 C
1307 22-04-2019 12:50:00 21.7 C 36 % 5.99 C
1308 22-04-2019 12:55:00 21.8 C 33 % 4.83 C
1309 22-04-2019 13:00:00 22 C 35 % 5.85 C
1310 22-04-2019 13:05:00 22.2 C 34 % 5.61 C
1311 22-04-2019 13:10:00 22.2 C 30 % 3.82 C
1312 22-04-2019 13:15:00 22.3 C 32 % 4.82 C
1313 22-04-2019 13:20:00 22.6 C 28 % 3.19 C
1314 22-04-2019 13:25:00 22.7 C 30 % 4.25 C
1315 22-04-2019 13:30:00 22.8 C 28 % 3.36 C
1316 22-04-2019 13:35:00 22.9 C 28 % 3.44 C
1317 22-04-2019 13:40:00 22.9 C 28 % 3.44 C
1318 22-04-2019 13:45:00 23 C 28 % 3.53 C
1319 22-04-2019 13:50:00 23.1 C 27 % 3.1 C
1320 22-04-2019 13:55:00 23.1 C 29 % 4.11 C
1321 22-04-2019 14:00:00 23.2 C 28 % 3.7 C
1322 22-04-2019 14:05:00 23.2 C 28 % 3.7 C
1323 22-04-2019 14:10:00 23.2 C 29 % 4.2 C
1324 22-04-2019 14:15:00 23.3 C 28 % 3.78 C
1325 22-04-2019 14:20:00 23.3 C 29 % 4.28 C
Sensor: Nr:Datum:Temp:Feuchte:Taupunkt:
Aussen-T/F 1326 22-04-2019 14:25:00 23.4 C 30 % 4.85 C
1327 22-04-2019 14:30:00 23.5 C 30 % 4.94 C
1328 22-04-2019 14:35:00 23.5 C 30 % 4.94 C
1329 22-04-2019 14:40:00 23.6 C 29 % 4.54 C
1330 22-04-2019 14:45:00 23.7 C 29 % 4.63 C
1331 22-04-2019 14:50:00 23.7 C 30 % 5.11 C
1332 22-04-2019 14:55:00 23.8 C 29 % 4.71 C
1333 22-04-2019 15:00:00 23.9 C 31 % 5.76 C
1334 22-04-2019 15:05:00 24.1 C 29 % 4.97 C
1335 22-04-2019 15:10:00 24.1 C 28 % 4.47 C
1336 22-04-2019 15:15:00 24.1 C 28 % 4.47 C
1337 22-04-2019 15:20:00 24.1 C 28 % 4.47 C
1338 22-04-2019 15:25:00 24.2 C 29 % 5.06 C
1339 22-04-2019 15:30:00 24.4 C 29 % 5.23 C
1340 22-04-2019 15:35:00 24.6 C 28 % 4.9 C
1341 22-04-2019 15:40:00 24.6 C 28 % 4.9 C
1342 22-04-2019 15:45:00 24.7 C 28 % 4.98 C
1343 22-04-2019 15:50:00 24.8 C 28 % 5.07 C
1344 22-04-2019 15:55:00 24.9 C 27 % 4.63 C
1345 22-04-2019 16:00:00 25.1 C 27 % 4.8 C
1346 22-04-2019 16:05:00 25.2 C 28 % 5.41 C
1347 22-04-2019 16:10:00 25.2 C 26 % 4.35 C
1348 22-04-2019 16:15:00 25.1 C 26 % 4.26 C
1349 22-04-2019 16:20:00 25.3 C 26 % 4.43 C
1350 22-04-2019 16:25:00 25.4 C 26 % 4.52 C
Sensor: Nr:Datum:Temp:Feuchte:Taupunkt:
Aussen-T/F 1351 22-04-2019 16:30:00 25.6 C 25 % 4.13 C
1352 22-04-2019 16:35:00 25.6 C 25 % 4.13 C
1353 22-04-2019 16:40:00 25.6 C 25 % 4.13 C
1354 22-04-2019 16:45:00 25.7 C 25 % 4.21 C
1355 22-04-2019 16:50:00 25.9 C 26 % 4.94 C
1356 22-04-2019 16:55:00 26.2 C 25 % 4.63 C
1357 22-04-2019 17:00:00 26.1 C 25 % 4.55 C
1358 22-04-2019 17:05:00 26 C 25 % 4.47 C
1359 22-04-2019 17:10:00 25.9 C 24 % 3.8 C
1360 22-04-2019 17:15:00 25.9 C 25 % 4.38 C
1361 22-04-2019 17:20:00 25.8 C 25 % 4.3 C
1362 22-04-2019 17:25:00 25.8 C 25 % 4.3 C
1363 22-04-2019 17:30:00 25.9 C 25 % 4.38 C
1364 22-04-2019 17:35:00 25.9 C 24 % 3.8 C
1365 22-04-2019 17:40:00 25.7 C 24 % 3.63 C
1366 22-04-2019 17:45:00 25.3 C 25 % 3.88 C
1367 22-04-2019 17:50:00 25.1 C 25 % 3.71 C
1368 22-04-2019 17:55:00 25.1 C 25 % 3.71 C
1369 22-04-2019 18:00:00 25.2 C 29 % 5.91 C
1370 22-04-2019 18:05:00 25.3 C 25 % 3.88 C
1371 22-04-2019 18:10:00 25.3 C 25 % 3.88 C
1372 22-04-2019 18:15:00 25.2 C 28 % 5.41 C
1373 22-04-2019 18:20:00 24.9 C 26 % 4.09 C
1374 22-04-2019 18:25:00 24.7 C 26 % 3.93 C
1375 22-04-2019 18:30:00 24.5 C 27 % 4.29 C
Sensor: Nr:Datum:Temp:Feuchte:Taupunkt:
Aussen-T/F 1376 22-04-2019 18:35:00 24.2 C 25 % 2.95 C
1377 22-04-2019 18:40:00 23.8 C 28 % 4.21 C
1378 22-04-2019 18:45:00 23.6 C 28 % 4.04 C
1379 22-04-2019 18:50:00 23.3 C 35 % 6.99 C
1380 22-04-2019 18:55:00 22.8 C 35 % 6.55 C
1381 22-04-2019 19:00:00 22.4 C 37 % 7.01 C
1382 22-04-2019 19:05:00 22.1 C 40 % 7.88 C
1383 22-04-2019 19:10:00 21.9 C 40 % 7.7 C
1384 22-04-2019 19:15:00 21.7 C 40 % 7.52 C
1385 22-04-2019 19:20:00 21.5 C 41 % 7.7 C
1386 22-04-2019 19:25:00 21.2 C 44 % 8.47 C
1387 22-04-2019 19:30:00 21.1 C 43 % 8.04 C
1388 22-04-2019 19:35:00 21.1 C 40 % 6.99 C
1389 22-04-2019 19:40:00 21.1 C 43 % 8.04 C
1390 22-04-2019 19:45:00 21 C 45 % 8.62 C
1391 22-04-2019 19:50:00 20.9 C 42 % 7.52 C
1392 22-04-2019 19:55:00 20.8 C 44 % 8.11 C
1393 22-04-2019 20:00:00 20.6 C 46 % 8.58 C
1394 22-04-2019 20:05:00 20.3 C 45 % 7.99 C
1395 22-04-2019 20:10:00 20.1 C 43 % 7.14 C
1396 22-04-2019 20:15:00 19.8 C 42 % 6.53 C
1397 22-04-2019 20:20:00 19.8 C 41 % 6.18 C
1398 22-04-2019 20:25:00 19.7 C 44 % 7.12 C
1399 22-04-2019 20:30:00 19.4 C 40 % 5.47 C
1400 22-04-2019 20:35:00 19.3 C 42 % 6.08 C
Sensor: Nr:Datum:Temp:Feuchte:Taupunkt:
Aussen-T/F 1401 22-04-2019 20:40:00 19.2 C 41 % 5.64 C
1402 22-04-2019 20:45:00 19.1 C 44 % 6.57 C
1403 22-04-2019 20:50:00 18.7 C 44 % 6.21 C
1404 22-04-2019 20:55:00 18.6 C 44 % 6.12 C
1405 22-04-2019 21:00:00 18.4 C 46 % 6.58 C
1406 22-04-2019 21:05:00 18.3 C 47 % 6.8 C
1407 22-04-2019 21:10:00 17.9 C 46 % 6.13 C
1408 22-04-2019 21:15:00 17.7 C 48 % 6.56 C
1409 22-04-2019 21:20:00 17.4 C 48 % 6.29 C
1410 22-04-2019 21:25:00 17 C 50 % 6.51 C
1411 22-04-2019 21:30:00 16.7 C 50 % 6.24 C
1412 22-04-2019 21:35:00 16.4 C 49 % 5.67 C
1413 22-04-2019 21:40:00 16.3 C 51 % 6.16 C
1414 22-04-2019 21:45:00 16.1 C 50 % 5.69 C
1415 22-04-2019 21:50:00 15.8 C 51 % 5.69 C
1416 22-04-2019 21:55:00 15.7 C 50 % 5.32 C
1417 22-04-2019 22:00:00 15.7 C 52 % 5.88 C
1418 22-04-2019 22:05:00 15.5 C 49 % 4.84 C
1419 22-04-2019 22:10:00 15.4 C 51 % 5.33 C
1420 22-04-2019 22:15:00 15.3 C 54 % 6.06 C
1421 22-04-2019 22:20:00 14.9 C 53 % 5.42 C
1422 22-04-2019 22:25:00 14.8 C 55 % 5.86 C
1423 22-04-2019 22:30:00 14.8 C 49 % 4.2 C
1424 22-04-2019 22:35:00 15 C 50 % 4.67 C
1425 22-04-2019 22:40:00 15.1 C 49 % 4.48 C
Sensor: Nr:Datum:Temp:Feuchte:Taupunkt:
Aussen-T/F 1426 22-04-2019 22:45:00 15.2 C 51 % 5.14 C
1427 22-04-2019 22:50:00 15.1 C 51 % 5.05 C
1428 22-04-2019 22:55:00 15 C 51 % 4.96 C
1429 22-04-2019 23:00:00 15 C 52 % 5.24 C
1430 22-04-2019 23:05:00 15.2 C 47 % 3.98 C
1431 22-04-2019 23:10:00 15.5 C 47 % 4.25 C
1432 22-04-2019 23:15:00 15.6 C 46 % 4.03 C
1433 22-04-2019 23:20:00 15.5 C 47 % 4.25 C
1434 22-04-2019 23:25:00 15.4 C 47 % 4.16 C
1435 22-04-2019 23:30:00 15.4 C 49 % 4.75 C
1436 22-04-2019 23:35:00 15.2 C 50 % 4.86 C
1437 22-04-2019 23:40:00 14.8 C 50 % 4.49 C
1438 22-04-2019 23:45:00 14.6 C 51 % 4.59 C
1439 22-04-2019 23:50:00 14.3 C 53 % 4.86 C
1440 22-04-2019 23:55:00 14 C 53 % 4.58 C
1441 23-04-2019 00:00:00 13.8 C 52 % 4.13 C
1442 23-04-2019 00:05:00 13.8 C 54 % 4.66 C
1443 23-04-2019 00:10:00 13.6 C 55 % 4.74 C
1444 23-04-2019 00:15:00 13.2 C 57 % 4.88 C
1445 23-04-2019 00:20:00 13.2 C 56 % 4.63 C
1446 23-04-2019 00:25:00 13.1 C 57 % 4.79 C
1447 23-04-2019 00:30:00 13 C 56 % 4.44 C
1448 23-04-2019 00:35:00 12.9 C 59 % 5.09 C
1449 23-04-2019 00:40:00 12.8 C 55 % 4 C
1450 23-04-2019 00:45:00 12.9 C 55 % 4.09 C
Sensor: Nr:Datum:Temp:Feuchte:Taupunkt:
Aussen-T/F 1451 23-04-2019 00:50:00 13 C 56 % 4.44 C
1452 23-04-2019 00:55:00 12.8 C 58 % 4.75 C
1453 23-04-2019 01:00:00 12.6 C 59 % 4.81 C
1454 23-04-2019 01:05:00 12.2 C 59 % 4.43 C
1455 23-04-2019 01:10:00 12 C 60 % 4.49 C
1456 23-04-2019 01:15:00 11.8 C 61 % 4.53 C
1457 23-04-2019 01:20:00 11.6 C 62 % 4.58 C
1458 23-04-2019 01:25:00 11.5 C 63 % 4.71 C
1459 23-04-2019 01:30:00 11.3 C 62 % 4.29 C
1460 23-04-2019 01:35:00 11.3 C 63 % 4.52 C
1461 23-04-2019 01:40:00 11.3 C 64 % 4.75 C
1462 23-04-2019 01:45:00 11.1 C 64 % 4.56 C
1463 23-04-2019 01:50:00 11 C 65 % 4.68 C
1464 23-04-2019 01:55:00 10.9 C 65 % 4.59 C
1465 23-04-2019 02:00:00 10.7 C 66 % 4.62 C
1466 23-04-2019 02:05:00 10.6 C 66 % 4.52 C
1467 23-04-2019 02:10:00 10.5 C 67 % 4.64 C
1468 23-04-2019 02:15:00 10.4 C 67 % 4.55 C
1469 23-04-2019 02:20:00 10.4 C 67 % 4.55 C
1470 23-04-2019 02:25:00 10.3 C 67 % 4.45 C
1471 23-04-2019 02:30:00 10.3 C 67 % 4.45 C
1472 23-04-2019 02:35:00 10.2 C 67 % 4.36 C
1473 23-04-2019 02:40:00 10.2 C 67 % 4.36 C
1474 23-04-2019 02:45:00 10.1 C 67 % 4.26 C
1475 23-04-2019 02:50:00 10.1 C 67 % 4.26 C
Sensor: Nr:Datum:Temp:Feuchte:Taupunkt:
Aussen-T/F 1476 23-04-2019 02:55:00 10 C 68 % 4.38 C
1477 23-04-2019 03:00:00 9.9 C 67 % 4.07 C
1478 23-04-2019 03:05:00 9.9 C 67 % 4.07 C
1479 23-04-2019 03:10:00 9.9 C 67 % 4.07 C
1480 23-04-2019 03:15:00 9.9 C 68 % 4.28 C
1481 23-04-2019 03:20:00 9.8 C 68 % 4.18 C
1482 23-04-2019 03:25:00 9.8 C 68 % 4.18 C
1483 23-04-2019 03:30:00 9.7 C 69 % 4.3 C
1484 23-04-2019 03:35:00 9.6 C 68 % 3.99 C
1485 23-04-2019 03:40:00 9.6 C 70 % 4.41 C
1486 23-04-2019 03:45:00 9.5 C 70 % 4.31 C
1487 23-04-2019 03:50:00 9.4 C 70 % 4.21 C
1488 23-04-2019 03:55:00 9.4 C 70 % 4.21 C
1489 23-04-2019 04:00:00 9.3 C 70 % 4.12 C
1490 23-04-2019 04:05:00 9.3 C 71 % 4.32 C
1491 23-04-2019 04:10:00 9.3 C 71 % 4.32 C
1492 23-04-2019 04:15:00 9.2 C 71 % 4.22 C
1493 23-04-2019 04:20:00 9.2 C 71 % 4.22 C
1494 23-04-2019 04:25:00 9.2 C 72 % 4.42 C
1495 23-04-2019 04:30:00 9.2 C 72 % 4.42 C
1496 23-04-2019 04:35:00 9.1 C 72 % 4.33 C
1497 23-04-2019 04:40:00 9.1 C 72 % 4.33 C
1498 23-04-2019 04:45:00 9.1 C 73 % 4.52 C
1499 23-04-2019 04:50:00 9 C 73 % 4.43 C
1500 23-04-2019 04:55:00 8.9 C 73 % 4.33 C
Sensor: Nr:Datum:Temp:Feuchte:Taupunkt:
Aussen-T/F 1501 23-04-2019 05:00:00 8.9 C 73 % 4.33 C
1502 23-04-2019 05:05:00 8.9 C 72 % 4.14 C
1503 23-04-2019 05:10:00 8.9 C 72 % 4.14 C
1504 23-04-2019 05:15:00 8.9 C 72 % 4.14 C
1505 23-04-2019 05:20:00 8.8 C 72 % 4.04 C
1506 23-04-2019 05:25:00 8.9 C 73 % 4.33 C
1507 23-04-2019 05:30:00 8.9 C 74 % 4.53 C
1508 23-04-2019 05:35:00 8.8 C 74 % 4.43 C
1509 23-04-2019 05:40:00 8.8 C 74 % 4.43 C
1510 23-04-2019 05:45:00 8.8 C 74 % 4.43 C
1511 23-04-2019 05:50:00 8.7 C 74 % 4.33 C
1512 23-04-2019 05:55:00 8.7 C 74 % 4.33 C
1513 23-04-2019 06:00:00 8.6 C 74 % 4.24 C
1514 23-04-2019 06:05:00 8.5 C 75 % 4.33 C
1515 23-04-2019 06:10:00 8.4 C 75 % 4.23 C
1516 23-04-2019 06:15:00 8.3 C 76 % 4.33 C
1517 23-04-2019 06:20:00 8.3 C 76 % 4.33 C
1518 23-04-2019 06:25:00 8.2 C 76 % 4.23 C
1519 23-04-2019 06:30:00 8.2 C 76 % 4.23 C
1520 23-04-2019 06:35:00 8.2 C 76 % 4.23 C
1521 23-04-2019 06:40:00 8.2 C 76 % 4.23 C
1522 23-04-2019 06:45:00 8.3 C 77 % 4.51 C
1523 23-04-2019 06:50:00 8.3 C 77 % 4.51 C
1524 23-04-2019 06:55:00 8.3 C 78 % 4.7 C
1525 23-04-2019 07:00:00 8.4 C 77 % 4.61 C
Sensor: Nr:Datum:Temp:Feuchte:Taupunkt:
Aussen-T/F 1526 23-04-2019 07:05:00 8.5 C 77 % 4.71 C
1527 23-04-2019 07:10:00 8.6 C 77 % 4.8 C
1528 23-04-2019 07:15:00 8.7 C 77 % 4.9 C
1529 23-04-2019 07:20:00 8.8 C 78 % 5.18 C
1530 23-04-2019 07:25:00 8.9 C 76 % 4.91 C
1531 23-04-2019 07:30:00 9.1 C 77 % 5.29 C
1532 23-04-2019 07:35:00 9.2 C 78 % 5.57 C
1533 23-04-2019 07:40:00 9.3 C 78 % 5.67 C
1534 23-04-2019 07:45:00 9.3 C 76 % 5.29 C
1535 23-04-2019 07:50:00 9.5 C 78 % 5.86 C
1536 23-04-2019 07:55:00 9.6 C 78 % 5.96 C
1537 23-04-2019 08:00:00 9.7 C 78 % 6.06 C
1538 23-04-2019 08:05:00 9.7 C 78 % 6.06 C
1539 23-04-2019 08:10:00 9.8 C 79 % 6.34 C
1540 23-04-2019 08:15:00 9.9 C 79 % 6.43 C
1541 23-04-2019 08:20:00 10.1 C 79 % 6.63 C
1542 23-04-2019 08:25:00 10.2 C 78 % 6.54 C
1543 23-04-2019 08:30:00 10.3 C 75 % 6.07 C
1544 23-04-2019 08:35:00 10.4 C 76 % 6.36 C
1545 23-04-2019 08:40:00 10.7 C 76 % 6.65 C
1546 23-04-2019 08:45:00 10.8 C 75 % 6.55 C
1547 23-04-2019 08:50:00 11 C 71 % 5.95 C
1548 23-04-2019 08:55:00 11.3 C 70 % 6.03 C
1549 23-04-2019 09:00:00 11.6 C 69 % 6.11 C
1550 23-04-2019 09:05:00 11.8 C 68 % 6.09 C
Sensor: Nr:Datum:Temp:Feuchte:Taupunkt:
Aussen-T/F 1551 23-04-2019 09:10:00 12 C 66 % 5.85 C
1552 23-04-2019 09:15:00 12.2 C 65 % 5.82 C
1553 23-04-2019 09:20:00 12.4 C 64 % 5.79 C
1554 23-04-2019 09:25:00 12.6 C 64 % 5.98 C
1555 23-04-2019 09:30:00 12.7 C 62 % 5.62 C
1556 23-04-2019 09:35:00 12.8 C 62 % 5.71 C
1557 23-04-2019 09:40:00 12.9 C 62 % 5.8 C
1558 23-04-2019 09:45:00 13.1 C 62 % 5.99 C
1559 23-04-2019 09:50:00 13.1 C 61 % 5.76 C
1560 23-04-2019 09:55:00 13.2 C 62 % 6.09 C
1561 23-04-2019 10:00:00 13.3 C 61 % 5.95 C
1562 23-04-2019 10:05:00 13.4 C 61 % 6.04 C
1563 23-04-2019 10:10:00 13.5 C 62 % 6.37 C
1564 23-04-2019 10:15:00 13.6 C 62 % 6.47 C
1565 23-04-2019 10:20:00 13.7 C 61 % 6.32 C
1566 23-04-2019 10:25:00 13.8 C 60 % 6.18 C
1567 23-04-2019 10:30:00 14.1 C 61 % 6.7 C
1568 23-04-2019 10:35:00 14.2 C 60 % 6.56 C
1569 23-04-2019 10:40:00 14.4 C 59 % 6.5 C
1570 23-04-2019 10:45:00 14.6 C 59 % 6.69 C
1571 23-04-2019 10:50:00 14.8 C 59 % 6.87 C
1572 23-04-2019 10:55:00 14.9 C 58 % 6.72 C
1573 23-04-2019 11:00:00 15 C 58 % 6.81 C
1574 23-04-2019 11:05:00 15.1 C 58 % 6.91 C
1575 23-04-2019 11:10:00 15.2 C 58 % 7 C
Sensor: Nr:Datum:Temp:Feuchte:Taupunkt:
Aussen-T/F 1576 23-04-2019 11:15:00 15.2 C 58 % 7 C
1577 23-04-2019 11:20:00 15.3 C 57 % 6.84 C
1578 23-04-2019 11:25:00 15.3 C 57 % 6.84 C
1579 23-04-2019 11:30:00 15.4 C 58 % 7.19 C
1580 23-04-2019 11:35:00 15.6 C 57 % 7.12 C
1581 23-04-2019 11:40:00 15.7 C 57 % 7.21 C
1582 23-04-2019 11:45:00 15.8 C 57 % 7.31 C
1583 23-04-2019 11:50:00 16 C 57 % 7.49 C
1584 23-04-2019 11:55:00 16.1 C 57 % 7.59 C
1585 23-04-2019 12:00:00 16.2 C 57 % 7.68 C
1586 23-04-2019 12:05:00 16.3 C 56 % 7.52 C
1587 23-04-2019 12:10:00 16.5 C 56 % 7.7 C
1588 23-04-2019 12:15:00 16.7 C 57 % 8.15 C
1589 23-04-2019 12:20:00 16.8 C 55 % 7.72 C
1590 23-04-2019 12:25:00 16.9 C 55 % 7.81 C
1591 23-04-2019 12:30:00 17 C 55 % 7.9 C
1592 23-04-2019 12:35:00 17.3 C 55 % 8.18 C
1593 23-04-2019 12:40:00 17.4 C 56 % 8.54 C
1594 23-04-2019 12:45:00 17.7 C 54 % 8.28 C
1595 23-04-2019 12:50:00 17.8 C 53 % 8.1 C
1596 23-04-2019 12:55:00 17.9 C 54 % 8.47 C
1597 23-04-2019 13:00:00 18.2 C 53 % 8.47 C
1598 23-04-2019 13:05:00 18.3 C 52 % 8.28 C
1599 23-04-2019 13:10:00 18.4 C 52 % 8.38 C
1600 23-04-2019 13:15:00 18.5 C 52 % 8.47 C
Sensor: Nr:Datum:Temp:Feuchte:Taupunkt:
Aussen-T/F 1601 23-04-2019 13:20:00 18.6 C 52 % 8.56 C
1602 23-04-2019 13:25:00 18.8 C 51 % 8.46 C
1603 23-04-2019 13:30:00 19 C 51 % 8.64 C
1604 23-04-2019 13:35:00 19.1 C 50 % 8.44 C
1605 23-04-2019 13:40:00 19.2 C 50 % 8.53 C
1606 23-04-2019 13:45:00 19.3 C 52 % 9.21 C
1607 23-04-2019 13:50:00 19.6 C 49 % 8.6 C
1608 23-04-2019 13:55:00 19.7 C 50 % 8.99 C
1609 23-04-2019 14:00:00 19.7 C 49 % 8.7 C
1610 23-04-2019 14:05:00 19.8 C 50 % 9.09 C
1611 23-04-2019 14:10:00 19.8 C 49 % 8.79 C
1612 23-04-2019 14:15:00 20 C 50 % 9.27 C
1613 23-04-2019 14:20:00 20.2 C 48 % 8.85 C
1614 23-04-2019 14:25:00 20.4 C 48 % 9.03 C
1615 23-04-2019 14:30:00 20.6 C 47 % 8.9 C
1616 23-04-2019 14:35:00 20.7 C 48 % 9.3 C
1617 23-04-2019 14:40:00 20.9 C 46 % 8.86 C
1618 23-04-2019 14:45:00 20.9 C 47 % 9.17 C
1619 23-04-2019 14:50:00 21.1 C 47 % 9.36 C
1620 23-04-2019 14:55:00 21.2 C 46 % 9.13 C
1621 23-04-2019 15:00:00 21.3 C 46 % 9.22 C
1622 23-04-2019 15:05:00 21.3 C 46 % 9.22 C
1623 23-04-2019 15:10:00 21.4 C 45 % 8.99 C
1624 23-04-2019 15:15:00 21.6 C 45 % 9.17 C
1625 23-04-2019 15:20:00 21.8 C 45 % 9.35 C
Sensor: Nr:Datum:Temp:Feuchte:Taupunkt:
Aussen-T/F 1626 23-04-2019 15:25:00 21.8 C 44 % 9.01 C
1627 23-04-2019 15:30:00 21.8 C 44 % 9.01 C
1628 23-04-2019 15:35:00 21.8 C 44 % 9.01 C
1629 23-04-2019 15:40:00 22 C 44 % 9.2 C
1630 23-04-2019 15:45:00 22.1 C 44 % 9.29 C
1631 23-04-2019 15:50:00 22.1 C 44 % 9.29 C
1632 23-04-2019 15:55:00 22.2 C 45 % 9.71 C
1633 23-04-2019 16:00:00 22.4 C 44 % 9.56 C
1634 23-04-2019 16:05:00 22.8 C 43 % 9.58 C
1635 23-04-2019 16:10:00 23 C 43 % 9.76 C
1636 23-04-2019 16:15:00 23.2 C 42 % 9.59 C
1637 23-04-2019 16:20:00 23.2 C 41 % 9.23 C
1638 23-04-2019 16:25:00 23.2 C 42 % 9.59 C
1639 23-04-2019 16:30:00 23.3 C 43 % 10.03 C
1640 23-04-2019 16:35:00 23.3 C 41 % 9.32 C
1641 23-04-2019 16:40:00 23.2 C 41 % 9.23 C
1642 23-04-2019 16:45:00 23.2 C 41 % 9.23 C
1643 23-04-2019 16:50:00 23.1 C 42 % 9.5 C
1644 23-04-2019 16:55:00 23.3 C 47 % 11.36 C
1645 23-04-2019 17:00:00 23.4 C 42 % 9.77 C
1646 23-04-2019 17:05:00 23.6 C 42 % 9.94 C
1647 23-04-2019 17:10:00 23.7 C 43 % 10.39 C
1648 23-04-2019 17:15:00 23.7 C 41 % 9.68 C
1649 23-04-2019 17:20:00 23.8 C 42 % 10.12 C
1650 23-04-2019 17:25:00 23.7 C 42 % 10.03 C
Sensor: Nr:Datum:Temp:Feuchte:Taupunkt:
Aussen-T/F 1651 23-04-2019 17:30:00 23.5 C 43 % 10.21 C
1652 23-04-2019 17:35:00 23.4 C 43 % 10.12 C
1653 23-04-2019 17:40:00 23.3 C 45 % 10.71 C
1654 23-04-2019 17:45:00 23.1 C 42 % 9.5 C
1655 23-04-2019 17:50:00 22.9 C 43 % 9.67 C
1656 23-04-2019 17:55:00 22.7 C 44 % 9.83 C
1657 23-04-2019 18:00:00 22.4 C 45 % 9.89 C
1658 23-04-2019 18:05:00 22.2 C 45 % 9.71 C
1659 23-04-2019 18:10:00 22 C 45 % 9.53 C
1660 23-04-2019 18:15:00 21.8 C 46 % 9.67 C
1661 23-04-2019 18:20:00 21.7 C 46 % 9.58 C
1662 23-04-2019 18:25:00 21.6 C 47 % 9.81 C
1663 23-04-2019 18:30:00 21.6 C 46 % 9.49 C
1664 23-04-2019 18:35:00 21.6 C 47 % 9.81 C
1665 23-04-2019 18:40:00 21.6 C 47 % 9.81 C
1666 23-04-2019 18:45:00 21.6 C 47 % 9.81 C
1667 23-04-2019 18:50:00 21.6 C 48 % 10.13 C
1668 23-04-2019 18:55:00 21.6 C 46 % 9.49 C
1669 23-04-2019 19:00:00 21.4 C 48 % 9.94 C
1670 23-04-2019 19:05:00 21.2 C 47 % 9.45 C
1671 23-04-2019 19:10:00 21.1 C 50 % 10.28 C
1672 23-04-2019 19:15:00 20.8 C 48 % 9.4 C
1673 23-04-2019 19:20:00 20.7 C 49 % 9.61 C
1674 23-04-2019 19:25:00 20.5 C 52 % 10.31 C
1675 23-04-2019 19:30:00 20.3 C 54 % 10.69 C
Sensor: Nr:Datum:Temp:Feuchte:Taupunkt:
Aussen-T/F 1676 23-04-2019 19:35:00 20.1 C 55 % 10.78 C
1677 23-04-2019 19:40:00 19.8 C 56 % 10.78 C
1678 23-04-2019 19:45:00 19.5 C 55 % 10.23 C
1679 23-04-2019 19:50:00 19.3 C 56 % 10.31 C
1680 23-04-2019 19:55:00 19.1 C 58 % 10.65 C
1681 23-04-2019 20:00:00 18.9 C 58 % 10.46 C
1682 23-04-2019 20:05:00 18.8 C 55 % 9.58 C
1683 23-04-2019 20:10:00 18.7 C 59 % 10.53 C
1684 23-04-2019 20:15:00 18.5 C 60 % 10.6 C
1685 23-04-2019 20:20:00 18.3 C 60 % 10.41 C
1686 23-04-2019 20:25:00 18.1 C 61 % 10.47 C
1687 23-04-2019 20:30:00 17.9 C 62 % 10.52 C
1688 23-04-2019 20:35:00 17.6 C 62 % 10.24 C
1689 23-04-2019 20:40:00 17.4 C 64 % 10.53 C
1690 23-04-2019 20:45:00 17.3 C 64 % 10.43 C
1691 23-04-2019 20:50:00 17.2 C 65 % 10.57 C
1692 23-04-2019 20:55:00 17 C 66 % 10.61 C
1693 23-04-2019 21:00:00 16.8 C 66 % 10.42 C
1694 23-04-2019 21:05:00 16.7 C 67 % 10.55 C
1695 23-04-2019 21:10:00 16.5 C 67 % 10.36 C
1696 23-04-2019 21:15:00 16.4 C 68 % 10.48 C
1697 23-04-2019 21:20:00 16.3 C 69 % 10.61 C
1698 23-04-2019 21:25:00 16.1 C 69 % 10.42 C
1699 23-04-2019 21:30:00 15.9 C 70 % 10.44 C
1700 23-04-2019 21:35:00 15.8 C 70 % 10.34 C
Sensor: Nr:Datum:Temp:Feuchte:Taupunkt:
Aussen-T/F 1701 23-04-2019 21:40:00 15.7 C 70 % 10.25 C
1702 23-04-2019 21:45:00 15.6 C 71 % 10.37 C
1703 23-04-2019 21:50:00 15.6 C 70 % 10.15 C
1704 23-04-2019 21:55:00 15.6 C 71 % 10.37 C
1705 23-04-2019 22:00:00 15.6 C 71 % 10.37 C
1706 23-04-2019 22:05:00 15.5 C 71 % 10.27 C
1707 23-04-2019 22:10:00 15.5 C 71 % 10.27 C
1708 23-04-2019 22:15:00 15.5 C 71 % 10.27 C
1709 23-04-2019 22:20:00 15.5 C 71 % 10.27 C
1710 23-04-2019 22:25:00 15.6 C 71 % 10.37 C
1711 23-04-2019 22:30:00 15.6 C 72 % 10.57 C
1712 23-04-2019 22:35:00 15.6 C 72 % 10.57 C
1713 23-04-2019 22:40:00 15.6 C 71 % 10.37 C
1714 23-04-2019 22:45:00 15.6 C 71 % 10.37 C
1715 23-04-2019 22:50:00 15.5 C 72 % 10.48 C
1716 23-04-2019 22:55:00 15.4 C 71 % 10.17 C
1717 23-04-2019 23:00:00 15.4 C 71 % 10.17 C
1718 23-04-2019 23:05:00 15.4 C 72 % 10.38 C
1719 23-04-2019 23:10:00 15.3 C 73 % 10.49 C
1720 23-04-2019 23:15:00 15.3 C 72 % 10.29 C
1721 23-04-2019 23:20:00 15.2 C 72 % 10.19 C
1722 23-04-2019 23:25:00 15.1 C 71 % 9.89 C
1723 23-04-2019 23:30:00 15 C 72 % 10 C
1724 23-04-2019 23:35:00 14.9 C 72 % 9.9 C
1725 23-04-2019 23:40:00 14.9 C 72 % 9.9 C
Sensor: Nr:Datum:Temp:Feuchte:Taupunkt:
Aussen-T/F 1726 23-04-2019 23:45:00 14.9 C 73 % 10.11 C
1727 23-04-2019 23:50:00 14.8 C 73 % 10.01 C
1728 23-04-2019 23:55:00 14.8 C 73 % 10.01 C
1729 24-04-2019 00:00:00 14.8 C 74 % 10.22 C
1730 24-04-2019 00:05:00 14.8 C 74 % 10.22 C
1731 24-04-2019 00:10:00 14.7 C 75 % 10.32 C
1732 24-04-2019 00:15:00 14.6 C 75 % 10.22 C
1733 24-04-2019 00:20:00 14.6 C 75 % 10.22 C
1734 24-04-2019 00:25:00 14.5 C 76 % 10.32 C
1735 24-04-2019 00:30:00 14.4 C 76 % 10.23 C
1736 24-04-2019 00:35:00 14.4 C 76 % 10.23 C
1737 24-04-2019 00:40:00 14.3 C 75 % 9.93 C
1738 24-04-2019 00:45:00 14.2 C 75 % 9.84 C
1739 24-04-2019 00:50:00 14 C 75 % 9.64 C
1740 24-04-2019 00:55:00 13.8 C 76 % 9.65 C
1741 24-04-2019 01:00:00 13.6 C 76 % 9.45 C
1742 24-04-2019 01:05:00 13.3 C 76 % 9.16 C
1743 24-04-2019 01:10:00 13.1 C 77 % 9.16 C
1744 24-04-2019 01:15:00 12.9 C 77 % 8.97 C
1745 24-04-2019 01:20:00 12.8 C 78 % 9.06 C
1746 24-04-2019 01:25:00 12.7 C 78 % 8.97 C
1747 24-04-2019 01:30:00 12.6 C 79 % 9.06 C
1748 24-04-2019 01:35:00 12.4 C 79 % 8.86 C
1749 24-04-2019 01:40:00 12.3 C 79 % 8.77 C
1750 24-04-2019 01:45:00 12.2 C 80 % 8.86 C
Sensor: Nr:Datum:Temp:Feuchte:Taupunkt:
Aussen-T/F 1751 24-04-2019 01:50:00 12.1 C 81 % 8.94 C
1752 24-04-2019 01:55:00 11.9 C 81 % 8.75 C
1753 24-04-2019 02:00:00 11.8 C 81 % 8.65 C
1754 24-04-2019 02:05:00 11.7 C 81 % 8.55 C
1755 24-04-2019 02:10:00 11.6 C 81 % 8.45 C
1756 24-04-2019 02:15:00 11.6 C 82 % 8.64 C
1757 24-04-2019 02:20:00 11.4 C 83 % 8.62 C
1758 24-04-2019 02:25:00 11.3 C 83 % 8.52 C
1759 24-04-2019 02:30:00 11.3 C 84 % 8.7 C
1760 24-04-2019 02:35:00 11.2 C 84 % 8.6 C
1761 24-04-2019 02:40:00 11.2 C 84 % 8.6 C
1762 24-04-2019 02:45:00 11.1 C 84 % 8.5 C
1763 24-04-2019 02:50:00 10.9 C 84 % 8.31 C
1764 24-04-2019 02:55:00 10.8 C 85 % 8.38 C
1765 24-04-2019 03:00:00 10.8 C 85 % 8.38 C
1766 24-04-2019 03:05:00 10.7 C 85 % 8.28 C
1767 24-04-2019 03:10:00 10.6 C 86 % 8.36 C
1768 24-04-2019 03:15:00 10.5 C 86 % 8.26 C
1769 24-04-2019 03:20:00 10.4 C 86 % 8.16 C
1770 24-04-2019 03:25:00 10.3 C 86 % 8.06 C
1771 24-04-2019 03:30:00 10.3 C 87 % 8.23 C
1772 24-04-2019 03:35:00 10.3 C 87 % 8.23 C
1773 24-04-2019 03:40:00 10.3 C 87 % 8.23 C
1774 24-04-2019 03:45:00 10.2 C 87 % 8.14 C
1775 24-04-2019 03:50:00 10.2 C 88 % 8.3 C
Sensor: Nr:Datum:Temp:Feuchte:Taupunkt:
Aussen-T/F 1776 24-04-2019 03:55:00 10.1 C 88 % 8.21 C
1777 24-04-2019 04:00:00 10.1 C 88 % 8.21 C
1778 24-04-2019 04:05:00 10 C 88 % 8.11 C
1779 24-04-2019 04:10:00 9.9 C 88 % 8.01 C
1780 24-04-2019 04:15:00 9.9 C 89 % 8.17 C
1781 24-04-2019 04:20:00 9.9 C 89 % 8.17 C
1782 24-04-2019 04:25:00 9.9 C 89 % 8.17 C
1783 24-04-2019 04:30:00 9.9 C 89 % 8.17 C
1784 24-04-2019 04:35:00 9.8 C 89 % 8.08 C
1785 24-04-2019 04:40:00 9.8 C 89 % 8.08 C
1786 24-04-2019 04:45:00 9.8 C 89 % 8.08 C
1787 24-04-2019 04:50:00 9.9 C 89 % 8.17 C
1788 24-04-2019 04:55:00 9.8 C 89 % 8.08 C
1789 24-04-2019 05:00:00 9.7 C 89 % 7.98 C
1790 24-04-2019 05:05:00 9.6 C 89 % 7.88 C
1791 24-04-2019 05:10:00 9.5 C 89 % 7.78 C
1792 24-04-2019 05:15:00 9.4 C 90 % 7.85 C
1793 24-04-2019 05:20:00 9.4 C 90 % 7.85 C
1794 24-04-2019 05:25:00 9.3 C 90 % 7.75 C
1795 24-04-2019 05:30:00 9.3 C 90 % 7.75 C
1796 24-04-2019 05:35:00 9.2 C 90 % 7.65 C
1797 24-04-2019 05:40:00 9.2 C 91 % 7.81 C
1798 24-04-2019 05:45:00 9.2 C 91 % 7.81 C
1799 24-04-2019 05:50:00 9.2 C 91 % 7.81 C
1800 24-04-2019 05:55:00 9.2 C 91 % 7.81 C
Sensor: Nr:Datum:Temp:Feuchte:Taupunkt:
Aussen-T/F 1801 24-04-2019 06:00:00 9.2 C 91 % 7.81 C
1802 24-04-2019 06:05:00 9.3 C 92 % 8.07 C
1803 24-04-2019 06:10:00 9.3 C 92 % 8.07 C
1804 24-04-2019 06:15:00 9.2 C 91 % 7.81 C
1805 24-04-2019 06:20:00 9.2 C 91 % 7.81 C
1806 24-04-2019 06:25:00 9.1 C 91 % 7.71 C
1807 24-04-2019 06:30:00 9.1 C 92 % 7.87 C
1808 24-04-2019 06:35:00 9.1 C 92 % 7.87 C
1809 24-04-2019 06:40:00 9 C 92 % 7.77 C
1810 24-04-2019 06:45:00 8.9 C 92 % 7.67 C
1811 24-04-2019 06:50:00 8.9 C 92 % 7.67 C
1812 24-04-2019 06:55:00 8.9 C 92 % 7.67 C
1813 24-04-2019 07:00:00 8.9 C 92 % 7.67 C
1814 24-04-2019 07:05:00 9 C 93 % 7.93 C
1815 24-04-2019 07:10:00 9.2 C 93 % 8.13 C
1816 24-04-2019 07:15:00 9.3 C 93 % 8.23 C
1817 24-04-2019 07:20:00 9.4 C 93 % 8.33 C
1818 24-04-2019 07:25:00 9.6 C 93 % 8.53 C
1819 24-04-2019 07:30:00 9.7 C 93 % 8.62 C
1820 24-04-2019 07:35:00 9.8 C 93 % 8.72 C
1821 24-04-2019 07:40:00 10 C 93 % 8.92 C
1822 24-04-2019 07:45:00 10.2 C 92 % 8.96 C
1823 24-04-2019 07:50:00 10.3 C 91 % 8.9 C
1824 24-04-2019 07:55:00 10.6 C 91 % 9.19 C
1825 24-04-2019 08:00:00 10.7 C 90 % 9.13 C
Sensor: Nr:Datum:Temp:Feuchte:Taupunkt:
Aussen-T/F 1826 24-04-2019 08:05:00 10.9 C 89 % 9.16 C
1827 24-04-2019 08:10:00 11.1 C 89 % 9.36 C
1828 24-04-2019 08:15:00 11.2 C 88 % 9.29 C
1829 24-04-2019 08:20:00 11.3 C 88 % 9.39 C
1830 24-04-2019 08:25:00 11.4 C 87 % 9.32 C
1831 24-04-2019 08:30:00 11.6 C 86 % 9.34 C
1832 24-04-2019 08:35:00 11.7 C 86 % 9.44 C
1833 24-04-2019 08:40:00 11.9 C 85 % 9.46 C
1834 24-04-2019 08:45:00 12.2 C 85 % 9.76 C
1835 24-04-2019 08:50:00 12.3 C 85 % 9.85 C
1836 24-04-2019 08:55:00 12.4 C 85 % 9.95 C
1837 24-04-2019 09:00:00 12.6 C 85 % 10.15 C
1838 24-04-2019 09:05:00 12.7 C 85 % 10.25 C
1839 24-04-2019 09:10:00 12.8 C 84 % 10.17 C
1840 24-04-2019 09:15:00 12.9 C 83 % 10.09 C
1841 24-04-2019 09:20:00 13.2 C 83 % 10.38 C
1842 24-04-2019 09:25:00 13.3 C 83 % 10.48 C
1843 24-04-2019 09:30:00 13.4 C 82 % 10.39 C
1844 24-04-2019 09:35:00 13.6 C 80 % 10.22 C
1845 24-04-2019 09:40:00 13.7 C 80 % 10.32 C
1846 24-04-2019 09:45:00 13.9 C 82 % 10.88 C
1847 24-04-2019 09:50:00 14.2 C 81 % 10.99 C
1848 24-04-2019 09:55:00 14.4 C 80 % 11 C
1849 24-04-2019 10:00:00 14.7 C 78 % 10.91 C
1850 24-04-2019 10:05:00 14.9 C 77 % 10.91 C
Sensor: Nr:Datum:Temp:Feuchte:Taupunkt:
Aussen-T/F 1851 24-04-2019 10:10:00 15.2 C 76 % 11 C
1852 24-04-2019 10:15:00 15.6 C 75 % 11.19 C
1853 24-04-2019 10:20:00 15.8 C 74 % 11.18 C
1854 24-04-2019 10:25:00 16.1 C 74 % 11.47 C
1855 24-04-2019 10:30:00 16.4 C 73 % 11.55 C
1856 24-04-2019 10:35:00 16.6 C 72 % 11.54 C
1857 24-04-2019 10:40:00 16.8 C 71 % 11.52 C
1858 24-04-2019 10:45:00 17.1 C 74 % 12.43 C
1859 24-04-2019 10:50:00 17.2 C 75 % 12.73 C
1860 24-04-2019 10:55:00 17.3 C 72 % 12.21 C
1861 24-04-2019 11:00:00 17.4 C 69 % 11.66 C
1862 24-04-2019 11:05:00 17.7 C 69 % 11.95 C
1863 24-04-2019 11:10:00 17.9 C 71 % 12.57 C
1864 24-04-2019 11:15:00 18.2 C 70 % 12.64 C
1865 24-04-2019 11:20:00 18.4 C 69 % 12.61 C
1866 24-04-2019 11:25:00 18.6 C 69 % 12.8 C
1867 24-04-2019 11:30:00 18.7 C 69 % 12.9 C
1868 24-04-2019 11:35:00 18.9 C 66 % 12.41 C
1869 24-04-2019 11:40:00 19.3 C 63 % 12.09 C
1870 24-04-2019 11:45:00 19.7 C 63 % 12.46 C
1871 24-04-2019 11:50:00 19.9 C 62 % 12.41 C
1872 24-04-2019 11:55:00 20.1 C 61 % 12.35 C
1873 24-04-2019 12:00:00 20.3 C 59 % 12.03 C
1874 24-04-2019 12:05:00 20.5 C 55 % 11.16 C
1875 24-04-2019 12:10:00 20.7 C 59 % 12.41 C
Sensor: Nr:Datum:Temp:Feuchte:Taupunkt:
Aussen-T/F 1876 24-04-2019 12:15:00 21 C 53 % 11.06 C
1877 24-04-2019 12:20:00 21.4 C 51 % 10.85 C
1878 24-04-2019 12:25:00 21.8 C 50 % 10.92 C
1879 24-04-2019 12:30:00 21.9 C 46 % 9.77 C
1880 24-04-2019 12:35:00 21.9 C 49 % 10.71 C
1881 24-04-2019 12:40:00 21.9 C 45 % 9.44 C
1882 24-04-2019 12:45:00 21.9 C 46 % 9.77 C
1883 24-04-2019 12:50:00 21.9 C 47 % 10.09 C
1884 24-04-2019 12:55:00 21.9 C 47 % 10.09 C
1885 24-04-2019 13:00:00 22 C 46 % 9.86 C
1886 24-04-2019 13:05:00 22 C 46 % 9.86 C
1887 24-04-2019 13:10:00 22.1 C 46 % 9.95 C
1888 24-04-2019 13:15:00 22.2 C 48 % 10.67 C
1889 24-04-2019 13:20:00 22.3 C 46 % 10.13 C
1890 24-04-2019 13:25:00 22.4 C 45 % 9.89 C
1891 24-04-2019 13:30:00 22.5 C 45 % 9.98 C
1892 24-04-2019 13:35:00 22.5 C 45 % 9.98 C
1893 24-04-2019 13:40:00 22.5 C 45 % 9.98 C
1894 24-04-2019 13:45:00 22.6 C 45 % 10.07 C
1895 24-04-2019 13:50:00 22.7 C 46 % 10.49 C
1896 24-04-2019 13:55:00 22.8 C 43 % 9.58 C
1897 24-04-2019 14:00:00 22.9 C 43 % 9.67 C
1898 24-04-2019 14:05:00 23 C 43 % 9.76 C
1899 24-04-2019 14:10:00 23.2 C 42 % 9.59 C
1900 24-04-2019 14:15:00 23.3 C 42 % 9.68 C
Sensor: Nr:Datum:Temp:Feuchte:Taupunkt:
Aussen-T/F 1901 24-04-2019 14:20:00 23.3 C 44 % 10.37 C
1902 24-04-2019 14:25:00 23.3 C 41 % 9.32 C
1903 24-04-2019 14:30:00 23.4 C 46 % 11.13 C
1904 24-04-2019 14:35:00 23.7 C 43 % 10.39 C
1905 24-04-2019 14:40:00 23.8 C 42 % 10.12 C
1906 24-04-2019 14:45:00 23.8 C 44 % 10.82 C
1907 24-04-2019 14:50:00 23.8 C 41 % 9.76 C
1908 24-04-2019 14:55:00 23.9 C 42 % 10.21 C
1909 24-04-2019 15:00:00 24.1 C 42 % 10.39 C
1910 24-04-2019 15:05:00 24.2 C 41 % 10.12 C
1911 24-04-2019 15:10:00 24.3 C 41 % 10.21 C
1912 24-04-2019 15:15:00 24.4 C 41 % 10.3 C
1913 24-04-2019 15:20:00 24.4 C 39 % 9.56 C
1914 24-04-2019 15:25:00 24.6 C 41 % 10.48 C
1915 24-04-2019 15:30:00 24.8 C 40 % 10.29 C
1916 24-04-2019 15:35:00 25.2 C 37 % 9.48 C
1917 24-04-2019 15:40:00 25.3 C 38 % 9.97 C
1918 24-04-2019 15:45:00 25.3 C 36 % 9.16 C
1919 24-04-2019 15:50:00 25.4 C 36 % 9.25 C
1920 24-04-2019 15:55:00 25.7 C 36 % 9.52 C
1921 24-04-2019 16:00:00 25.8 C 37 % 10.01 C
1922 24-04-2019 16:05:00 26 C 36 % 9.78 C
1923 24-04-2019 16:10:00 25.7 C 35 % 9.1 C
1924 24-04-2019 16:15:00 25.3 C 37 % 9.57 C
1925 24-04-2019 16:20:00 25.1 C 39 % 10.18 C
Sensor: Nr:Datum:Temp:Feuchte:Taupunkt:
Aussen-T/F 1926 24-04-2019 16:25:00 24.9 C 43 % 11.47 C
1927 24-04-2019 16:30:00 24.8 C 40 % 10.29 C
1928 24-04-2019 16:35:00 24.7 C 40 % 10.2 C
1929 24-04-2019 16:40:00 24.6 C 41 % 10.48 C
1930 24-04-2019 16:45:00 24.7 C 43 % 11.29 C
1931 24-04-2019 16:50:00 25.1 C 40 % 10.56 C
1932 24-04-2019 16:55:00 25.8 C 40 % 11.18 C
1933 24-04-2019 17:00:00 26.3 C 37 % 10.46 C
1934 24-04-2019 17:05:00 26.6 C 37 % 10.72 C
1935 24-04-2019 17:10:00 26.5 C 38 % 11.03 C
1936 24-04-2019 17:15:00 26.2 C 40 % 11.54 C
1937 24-04-2019 17:20:00 25.9 C 41 % 11.64 C
1938 24-04-2019 17:25:00 25.8 C 41 % 11.56 C
1939 24-04-2019 17:30:00 25.7 C 42 % 11.83 C
1940 24-04-2019 17:35:00 25.5 C 42 % 11.65 C
1941 24-04-2019 17:40:00 25.3 C 42 % 11.47 C
1942 24-04-2019 17:45:00 24.9 C 41 % 10.75 C
1943 24-04-2019 17:50:00 24.8 C 46 % 12.4 C
1944 24-04-2019 17:55:00 24.6 C 44 % 11.54 C
1945 24-04-2019 18:00:00 24.4 C 43 % 11.02 C
1946 24-04-2019 18:05:00 24.1 C 46 % 11.76 C
1947 24-04-2019 18:10:00 23.8 C 47 % 11.82 C
1948 24-04-2019 18:15:00 23.6 C 48 % 11.95 C
1949 24-04-2019 18:20:00 22.5 C 47 % 10.63 C
1950 24-04-2019 18:25:00 19.8 C 54 % 10.23 C
Sensor: Nr:Datum:Temp:Feuchte:Taupunkt:
Aussen-T/F 1951 24-04-2019 18:30:00 18.2 C 59 % 10.06 C
1952 24-04-2019 18:35:00 17.4 C 63 % 10.29 C
1953 24-04-2019 18:40:00 16.8 C 65 % 10.19 C
1954 24-04-2019 18:45:00 16.4 C 68 % 10.48 C
1955 24-04-2019 18:50:00 16.2 C 70 % 10.73 C
1956 24-04-2019 18:55:00 15.8 C 72 % 10.77 C
1957 24-04-2019 19:00:00 15.6 C 75 % 11.19 C
1958 24-04-2019 19:05:00 15.1 C 76 % 10.9 C
1959 24-04-2019 19:10:00 14.7 C 77 % 10.71 C
1960 24-04-2019 19:15:00 14.1 C 81 % 10.89 C
1961 24-04-2019 19:20:00 13.7 C 81 % 10.5 C
1962 24-04-2019 19:25:00 13.5 C 81 % 10.31 C
1963 24-04-2019 19:30:00 13.4 C 78 % 9.65 C
1964 24-04-2019 19:35:00 13.3 C 76 % 9.16 C
1965 24-04-2019 19:40:00 13.3 C 76 % 9.16 C
1966 24-04-2019 19:45:00 13.3 C 76 % 9.16 C
1967 24-04-2019 19:50:00 13.3 C 74 % 8.77 C
1968 24-04-2019 19:55:00 13.2 C 75 % 8.87 C
1969 24-04-2019 20:00:00 13 C 77 % 9.07 C
1970 24-04-2019 20:05:00 12.5 C 80 % 9.15 C
1971 24-04-2019 20:10:00 12.1 C 83 % 9.3 C
1972 24-04-2019 20:15:00 11.7 C 85 % 9.27 C
1973 24-04-2019 20:20:00 11.4 C 86 % 9.14 C
1974 24-04-2019 20:25:00 11.2 C 87 % 9.12 C
1975 24-04-2019 20:30:00 11.1 C 88 % 9.19 C
Sensor: Nr:Datum:Temp:Feuchte:Taupunkt:
Aussen-T/F 1976 24-04-2019 20:35:00 10.9 C 88 % 8.99 C
1977 24-04-2019 20:40:00 10.7 C 89 % 8.96 C
1978 24-04-2019 20:45:00 10.6 C 89 % 8.86 C
1979 24-04-2019 20:50:00 10.5 C 90 % 8.93 C
1980 24-04-2019 20:55:00 10.4 C 90 % 8.83 C
1981 24-04-2019 21:00:00 10.3 C 90 % 8.73 C
1982 24-04-2019 21:05:00 10.2 C 91 % 8.8 C
1983 24-04-2019 21:10:00 10.1 C 91 % 8.7 C
1984 24-04-2019 21:15:00 10 C 91 % 8.6 C
1985 24-04-2019 21:20:00 9.8 C 91 % 8.4 C
1986 24-04-2019 21:25:00 9.8 C 92 % 8.56 C
1987 24-04-2019 21:30:00 9.8 C 92 % 8.56 C
1988 24-04-2019 21:35:00 9.7 C 92 % 8.46 C
1989 24-04-2019 21:40:00 9.7 C 93 % 8.62 C
1990 24-04-2019 21:45:00 9.6 C 93 % 8.53 C
1991 24-04-2019 21:50:00 9.6 C 93 % 8.53 C
1992 24-04-2019 21:55:00 9.6 C 93 % 8.53 C
1993 24-04-2019 22:00:00 9.4 C 93 % 8.33 C
1994 24-04-2019 22:05:00 9.4 C 93 % 8.33 C
1995 24-04-2019 22:10:00 9.3 C 93 % 8.23 C
1996 24-04-2019 22:15:00 9.3 C 93 % 8.23 C
1997 24-04-2019 22:20:00 9.2 C 93 % 8.13 C
1998 24-04-2019 22:25:00 9.2 C 93 % 8.13 C
1999 24-04-2019 22:30:00 9.1 C 94 % 8.19 C
2000 24-04-2019 22:35:00 9.1 C 94 % 8.19 C
Sensor: Nr:Datum:Temp:Feuchte:Taupunkt:
Aussen-T/F 2001 24-04-2019 22:40:00 9.1 C 94 % 8.19 C
2002 24-04-2019 22:45:00 9.1 C 94 % 8.19 C
2003 24-04-2019 22:50:00 8.9 C 94 % 7.99 C
2004 24-04-2019 22:55:00 8.9 C 94 % 7.99 C
2005 24-04-2019 23:00:00 8.8 C 94 % 7.89 C
2006 24-04-2019 23:05:00 8.8 C 94 % 7.89 C
2007 24-04-2019 23:10:00 8.9 C 95 % 8.14 C
2008 24-04-2019 23:15:00 8.9 C 95 % 8.14 C
2009 24-04-2019 23:20:00 9 C 95 % 8.24 C
2010 24-04-2019 23:25:00 9.1 C 95 % 8.34 C
2011 24-04-2019 23:30:00 9.1 C 95 % 8.34 C
2012 24-04-2019 23:35:00 9.1 C 95 % 8.34 C
2013 24-04-2019 23:40:00 9.1 C 95 % 8.34 C
2014 24-04-2019 23:45:00 9.1 C 95 % 8.34 C
2015 24-04-2019 23:50:00 9.1 C 95 % 8.34 C
2016 24-04-2019 23:55:00 9.1 C 95 % 8.34 C
2017 25-04-2019 00:00:00 9.1 C 95 % 8.34 C
2018 25-04-2019 00:05:00 9.1 C 95 % 8.34 C
2019 25-04-2019 00:10:00 9.1 C 95 % 8.34 C
2020 25-04-2019 00:15:00 9 C 95 % 8.24 C
2021 25-04-2019 00:20:00 9 C 95 % 8.24 C
2022 25-04-2019 00:25:00 8.9 C 95 % 8.14 C
2023 25-04-2019 00:30:00 8.8 C 95 % 8.04 C
2024 25-04-2019 00:35:00 8.8 C 95 % 8.04 C
2025 25-04-2019 00:40:00 8.7 C 95 % 7.94 C
Sensor: Nr:Datum:Temp:Feuchte:Taupunkt:
Aussen-T/F 2026 25-04-2019 00:45:00 8.7 C 95 % 7.94 C
2027 25-04-2019 00:50:00 8.6 C 95 % 7.85 C
2028 25-04-2019 00:55:00 8.5 C 95 % 7.75 C
2029 25-04-2019 01:00:00 8.4 C 95 % 7.65 C
2030 25-04-2019 01:05:00 8.4 C 95 % 7.65 C
2031 25-04-2019 01:10:00 8.3 C 95 % 7.55 C
2032 25-04-2019 01:15:00 8.3 C 95 % 7.55 C
2033 25-04-2019 01:20:00 8.3 C 95 % 7.55 C
2034 25-04-2019 01:25:00 8.2 C 95 % 7.45 C
2035 25-04-2019 01:30:00 8.1 C 95 % 7.35 C
2036 25-04-2019 01:35:00 8.1 C 95 % 7.35 C
2037 25-04-2019 01:40:00 8 C 95 % 7.25 C
2038 25-04-2019 01:45:00 7.9 C 95 % 7.15 C
2039 25-04-2019 01:50:00 7.8 C 95 % 7.05 C
2040 25-04-2019 01:55:00 7.7 C 95 % 6.95 C
2041 25-04-2019 02:00:00 7.6 C 95 % 6.85 C
2042 25-04-2019 02:05:00 7.6 C 95 % 6.85 C
2043 25-04-2019 02:10:00 7.5 C 95 % 6.75 C
2044 25-04-2019 02:15:00 7.5 C 95 % 6.75 C
2045 25-04-2019 02:20:00 7.5 C 95 % 6.75 C
2046 25-04-2019 02:25:00 7.5 C 95 % 6.75 C
2047 25-04-2019 02:30:00 7.4 C 95 % 6.65 C
2048 25-04-2019 02:35:00 7.4 C 95 % 6.65 C
2049 25-04-2019 02:40:00 7.4 C 96 % 6.8 C
2050 25-04-2019 02:45:00 7.3 C 95 % 6.55 C
Sensor: Nr:Datum:Temp:Feuchte:Taupunkt:
Aussen-T/F 2051 25-04-2019 02:50:00 7.3 C 96 % 6.71 C
2052 25-04-2019 02:55:00 7.4 C 96 % 6.8 C
2053 25-04-2019 03:00:00 7.3 C 96 % 6.71 C
2054 25-04-2019 03:05:00 7.3 C 96 % 6.71 C
2055 25-04-2019 03:10:00 7.3 C 96 % 6.71 C
2056 25-04-2019 03:15:00 7.3 C 96 % 6.71 C
2057 25-04-2019 03:20:00 7.2 C 96 % 6.61 C
2058 25-04-2019 03:25:00 7.2 C 96 % 6.61 C
2059 25-04-2019 03:30:00 7.2 C 96 % 6.61 C
2060 25-04-2019 03:35:00 7.2 C 96 % 6.61 C
2061 25-04-2019 03:40:00 7.2 C 96 % 6.61 C
2062 25-04-2019 03:45:00 7.1 C 96 % 6.51 C
2063 25-04-2019 03:50:00 7.1 C 96 % 6.51 C
2064 25-04-2019 03:55:00 7 C 96 % 6.41 C
2065 25-04-2019 04:00:00 6.9 C 96 % 6.31 C
2066 25-04-2019 04:05:00 7 C 96 % 6.41 C
2067 25-04-2019 04:10:00 7 C 96 % 6.41 C
2068 25-04-2019 04:15:00 7 C 96 % 6.41 C
2069 25-04-2019 04:20:00 7 C 96 % 6.41 C
2070 25-04-2019 04:25:00 7.1 C 96 % 6.51 C
2071 25-04-2019 04:30:00 7.1 C 96 % 6.51 C
2072 25-04-2019 04:35:00 7.1 C 96 % 6.51 C
2073 25-04-2019 04:40:00 7.1 C 96 % 6.51 C
2074 25-04-2019 04:45:00 7.1 C 96 % 6.51 C
2075 25-04-2019 04:50:00 7.1 C 96 % 6.51 C
Sensor: Nr:Datum:Temp:Feuchte:Taupunkt:
Aussen-T/F 2076 25-04-2019 04:55:00 7.2 C 96 % 6.61 C
2077 25-04-2019 05:00:00 7.2 C 96 % 6.61 C
2078 25-04-2019 05:05:00 7.2 C 96 % 6.61 C
2079 25-04-2019 05:10:00 7.1 C 96 % 6.51 C
2080 25-04-2019 05:15:00 7.1 C 96 % 6.51 C
2081 25-04-2019 05:20:00 7 C 96 % 6.41 C
2082 25-04-2019 05:25:00 7.1 C 96 % 6.51 C
2083 25-04-2019 05:30:00 7.1 C 96 % 6.51 C
2084 25-04-2019 05:35:00 7.1 C 96 % 6.51 C
2085 25-04-2019 05:40:00 7.1 C 96 % 6.51 C
2086 25-04-2019 05:45:00 7.1 C 96 % 6.51 C
2087 25-04-2019 05:50:00 7.1 C 96 % 6.51 C
2088 25-04-2019 05:55:00 7.1 C 96 % 6.51 C
2089 25-04-2019 06:00:00 7.1 C 96 % 6.51 C
2090 25-04-2019 06:05:00 7 C 96 % 6.41 C
2091 25-04-2019 06:10:00 7 C 96 % 6.41 C
2092 25-04-2019 06:15:00 7 C 97 % 6.56 C
2093 25-04-2019 06:20:00 7 C 97 % 6.56 C
2094 25-04-2019 06:25:00 7 C 97 % 6.56 C
2095 25-04-2019 06:30:00 7 C 97 % 6.56 C
2096 25-04-2019 06:35:00 7 C 97 % 6.56 C
2097 25-04-2019 06:40:00 7.1 C 97 % 6.66 C
2098 25-04-2019 06:45:00 7.1 C 97 % 6.66 C
2099 25-04-2019 06:50:00 7.2 C 97 % 6.76 C
2100 25-04-2019 06:55:00 7.2 C 97 % 6.76 C
Sensor: Nr:Datum:Temp:Feuchte:Taupunkt:
Aussen-T/F 2101 25-04-2019 07:00:00 7.3 C 97 % 6.86 C
2102 25-04-2019 07:05:00 7.4 C 97 % 6.96 C
2103 25-04-2019 07:10:00 7.5 C 97 % 7.06 C
2104 25-04-2019 07:15:00 7.6 C 97 % 7.16 C
2105 25-04-2019 07:20:00 7.6 C 97 % 7.16 C
2106 25-04-2019 07:25:00 7.7 C 97 % 7.25 C
2107 25-04-2019 07:30:00 7.8 C 97 % 7.35 C
2108 25-04-2019 07:35:00 7.9 C 97 % 7.45 C
2109 25-04-2019 07:40:00 8.1 C 97 % 7.65 C
2110 25-04-2019 07:45:00 8.3 C 97 % 7.85 C
2111 25-04-2019 07:50:00 8.5 C 97 % 8.05 C
2112 25-04-2019 07:55:00 8.6 C 97 % 8.15 C
2113 25-04-2019 08:00:00 8.7 C 97 % 8.25 C
2114 25-04-2019 08:05:00 8.8 C 97 % 8.35 C
2115 25-04-2019 08:10:00 8.9 C 97 % 8.45 C
2116 25-04-2019 08:15:00 9 C 97 % 8.55 C
2117 25-04-2019 08:20:00 9.1 C 97 % 8.65 C
2118 25-04-2019 08:25:00 9.1 C 97 % 8.65 C
2119 25-04-2019 08:30:00 9.2 C 97 % 8.75 C
2120 25-04-2019 08:35:00 9.2 C 97 % 8.75 C
2121 25-04-2019 08:40:00 9.3 C 97 % 8.85 C
2122 25-04-2019 08:45:00 9.4 C 97 % 8.95 C
2123 25-04-2019 08:50:00 9.6 C 97 % 9.15 C
2124 25-04-2019 08:55:00 9.7 C 97 % 9.25 C
2125 25-04-2019 09:00:00 9.8 C 97 % 9.35 C
Sensor: Nr:Datum:Temp:Feuchte:Taupunkt:
Aussen-T/F 2126 25-04-2019 09:05:00 10.1 C 97 % 9.65 C
2127 25-04-2019 09:10:00 10.2 C 97 % 9.75 C
2128 25-04-2019 09:15:00 10.2 C 97 % 9.75 C
2129 25-04-2019 09:20:00 10.2 C 97 % 9.75 C
2130 25-04-2019 09:25:00 10.3 C 97 % 9.85 C
2131 25-04-2019 09:30:00 10.6 C 97 % 10.14 C
2132 25-04-2019 09:35:00 10.9 C 97 % 10.44 C
2133 25-04-2019 09:40:00 11.2 C 97 % 10.74 C
2134 25-04-2019 09:45:00 11.3 C 97 % 10.84 C
2135 25-04-2019 09:50:00 11.4 C 97 % 10.94 C
2136 25-04-2019 09:55:00 11.4 C 97 % 10.94 C
2137 25-04-2019 10:00:00 11.4 C 97 % 10.94 C
2138 25-04-2019 10:05:00 11.4 C 97 % 10.94 C
2139 25-04-2019 10:10:00 11.2 C 96 % 10.59 C
2140 25-04-2019 10:15:00 11.3 C 96 % 10.69 C
2141 25-04-2019 10:20:00 11.5 C 96 % 10.88 C
2142 25-04-2019 10:25:00 11.6 C 96 % 10.98 C
2143 25-04-2019 10:30:00 11.6 C 96 % 10.98 C
2144 25-04-2019 10:35:00 11.6 C 96 % 10.98 C
2145 25-04-2019 10:40:00 11.7 C 96 % 11.08 C
2146 25-04-2019 10:45:00 11.7 C 95 % 10.93 C
2147 25-04-2019 10:50:00 11.7 C 95 % 10.93 C
2148 25-04-2019 10:55:00 11.8 C 95 % 11.03 C
2149 25-04-2019 11:00:00 12 C 94 % 11.07 C
2150 25-04-2019 11:05:00 12.2 C 91 % 10.78 C
Sensor: Nr:Datum:Temp:Feuchte:Taupunkt:
Aussen-T/F 2151 25-04-2019 11:10:00 12.6 C 89 % 10.84 C
2152 25-04-2019 11:15:00 13.1 C 87 % 10.99 C
2153 25-04-2019 11:20:00 13.6 C 87 % 11.48 C
2154 25-04-2019 11:25:00 13.9 C 79 % 10.32 C
2155 25-04-2019 11:30:00 14.4 C 77 % 10.42 C
2156 25-04-2019 11:35:00 14.8 C 75 % 10.42 C
2157 25-04-2019 11:40:00 15.2 C 74 % 10.6 C
2158 25-04-2019 11:45:00 15.6 C 69 % 9.94 C
2159 25-04-2019 11:50:00 16 C 67 % 9.88 C
2160 25-04-2019 11:55:00 16.3 C 67 % 10.17 C
2161 25-04-2019 12:00:00 16.4 C 66 % 10.04 C
2162 25-04-2019 12:05:00 16.5 C 64 % 9.67 C
2163 25-04-2019 12:10:00 16.6 C 65 % 10 C
2164 25-04-2019 12:15:00 16.7 C 64 % 9.86 C
2165 25-04-2019 12:20:00 16.9 C 64 % 10.05 C
2166 25-04-2019 12:25:00 17 C 62 % 9.67 C
2167 25-04-2019 12:30:00 17.1 C 66 % 10.7 C
2168 25-04-2019 12:35:00 17.1 C 64 % 10.24 C
2169 25-04-2019 12:40:00 17.3 C 64 % 10.43 C
2170 25-04-2019 12:45:00 17.3 C 63 % 10.2 C
2171 25-04-2019 12:50:00 17.3 C 63 % 10.2 C
2172 25-04-2019 12:55:00 17.4 C 63 % 10.29 C
2173 25-04-2019 13:00:00 17.5 C 62 % 10.15 C
2174 25-04-2019 13:05:00 17.7 C 62 % 10.33 C
2175 25-04-2019 13:10:00 17.8 C 62 % 10.43 C
Sensor: Nr:Datum:Temp:Feuchte:Taupunkt:
Aussen-T/F 2176 25-04-2019 13:15:00 18.1 C 62 % 10.71 C
2177 25-04-2019 13:20:00 18.3 C 60 % 10.41 C
2178 25-04-2019 13:25:00 18.6 C 58 % 10.18 C
2179 25-04-2019 13:30:00 18.8 C 58 % 10.37 C
2180 25-04-2019 13:35:00 18.9 C 57 % 10.2 C
2181 25-04-2019 13:40:00 19.1 C 57 % 10.39 C
2182 25-04-2019 13:45:00 19.3 C 56 % 10.31 C
2183 25-04-2019 13:50:00 19.5 C 55 % 10.23 C
2184 25-04-2019 13:55:00 19.6 C 56 % 10.59 C
2185 25-04-2019 14:00:00 19.7 C 55 % 10.41 C
2186 25-04-2019 14:05:00 19.8 C 53 % 9.95 C
2187 25-04-2019 14:10:00 19.8 C 54 % 10.23 C
2188 25-04-2019 14:15:00 19.9 C 54 % 10.32 C
2189 25-04-2019 14:20:00 20.1 C 53 % 10.23 C
2190 25-04-2019 14:25:00 20.3 C 55 % 10.97 C
2191 25-04-2019 14:30:00 20.4 C 51 % 9.93 C
2192 25-04-2019 14:35:00 20.4 C 52 % 10.22 C
2193 25-04-2019 14:40:00 20.6 C 52 % 10.41 C
2194 25-04-2019 14:45:00 20.6 C 54 % 10.97 C
2195 25-04-2019 14:50:00 20.7 C 50 % 9.91 C
2196 25-04-2019 14:55:00 20.8 C 53 % 10.88 C
2197 25-04-2019 15:00:00 20.9 C 51 % 10.39 C
2198 25-04-2019 15:05:00 20.9 C 50 % 10.1 C
2199 25-04-2019 15:10:00 21.1 C 51 % 10.58 C
2200 25-04-2019 15:15:00 21.2 C 49 % 10.07 C
Sensor: Nr:Datum:Temp:Feuchte:Taupunkt:
Aussen-T/F 2201 25-04-2019 15:20:00 21.3 C 48 % 9.85 C
2202 25-04-2019 15:25:00 21.3 C 49 % 10.16 C
2203 25-04-2019 15:30:00 21.6 C 50 % 10.74 C
2204 25-04-2019 15:35:00 21.7 C 48 % 10.22 C
2205 25-04-2019 15:40:00 21.9 C 50 % 11.01 C
2206 25-04-2019 15:45:00 22.1 C 46 % 9.95 C
2207 25-04-2019 15:50:00 22.1 C 53 % 12.08 C
2208 25-04-2019 15:55:00 22.2 C 47 % 10.36 C
2209 25-04-2019 16:00:00 22.2 C 47 % 10.36 C
2210 25-04-2019 16:05:00 22.2 C 49 % 10.98 C
2211 25-04-2019 16:10:00 22.2 C 46 % 10.04 C
2212 25-04-2019 16:15:00 22.3 C 49 % 11.08 C
2213 25-04-2019 16:20:00 22.3 C 55 % 12.83 C
2214 25-04-2019 16:25:00 22.3 C 47 % 10.45 C
2215 25-04-2019 16:30:00 22.3 C 52 % 11.97 C
2216 25-04-2019 16:35:00 22.3 C 61 % 14.42 C
2217 25-04-2019 16:40:00 22.1 C 64 % 14.97 C
2218 25-04-2019 16:45:00 21.9 C 61 % 14.04 C
2219 25-04-2019 16:50:00 21.8 C 64 % 14.69 C
2220 25-04-2019 16:55:00 21.6 C 65 % 14.74 C
2221 25-04-2019 17:00:00 21.3 C 66 % 14.69 C
2222 25-04-2019 17:05:00 21.2 C 67 % 14.83 C
2223 25-04-2019 17:10:00 21.3 C 70 % 15.61 C
2224 25-04-2019 17:15:00 21.6 C 70 % 15.89 C
2225 25-04-2019 17:20:00 21.6 C 58 % 12.99 C
Sensor: Nr:Datum:Temp:Feuchte:Taupunkt:
Aussen-T/F 2226 25-04-2019 17:25:00 21.4 C 56 % 12.27 C
2227 25-04-2019 17:30:00 21.4 C 57 % 12.53 C
2228 25-04-2019 17:35:00 21.3 C 54 % 11.62 C
2229 25-04-2019 17:40:00 21.2 C 53 % 11.25 C
2230 25-04-2019 17:45:00 21.2 C 53 % 11.25 C
2231 25-04-2019 17:50:00 21.3 C 53 % 11.34 C
2232 25-04-2019 17:55:00 21.4 C 54 % 11.71 C
2233 25-04-2019 18:00:00 21.4 C 54 % 11.71 C
2234 25-04-2019 18:05:00 21.2 C 54 % 11.53 C
2235 25-04-2019 18:10:00 21.2 C 56 % 12.08 C
2236 25-04-2019 18:15:00 21.1 C 56 % 11.99 C
2237 25-04-2019 18:20:00 20.9 C 55 % 11.53 C
2238 25-04-2019 18:25:00 20.8 C 55 % 11.43 C
2239 25-04-2019 18:30:00 20.8 C 56 % 11.71 C
2240 25-04-2019 18:35:00 20.9 C 53 % 10.97 C
2241 25-04-2019 18:40:00 20.5 C 53 % 10.6 C
2242 25-04-2019 18:45:00 19.9 C 54 % 10.32 C
2243 25-04-2019 18:50:00 19.3 C 56 % 10.31 C
2244 25-04-2019 18:55:00 18.7 C 57 % 10.02 C
2245 25-04-2019 19:00:00 18.3 C 58 % 9.9 C
2246 25-04-2019 19:05:00 17.9 C 58 % 9.53 C
2247 25-04-2019 19:10:00 17.6 C 59 % 9.5 C
2248 25-04-2019 19:15:00 17.3 C 61 % 9.71 C
2249 25-04-2019 19:20:00 17 C 61 % 9.43 C
2250 25-04-2019 19:25:00 16.8 C 61 % 9.24 C
Sensor: Nr:Datum:Temp:Feuchte:Taupunkt:
Aussen-T/F 2251 25-04-2019 19:30:00 16.6 C 63 % 9.53 C
2252 25-04-2019 19:35:00 16.4 C 62 % 9.11 C
2253 25-04-2019 19:40:00 16.3 C 63 % 9.25 C
2254 25-04-2019 19:45:00 16.2 C 63 % 9.16 C
2255 25-04-2019 19:50:00 16.1 C 63 % 9.06 C
2256 25-04-2019 19:55:00 16.1 C 65 % 9.53 C
2257 25-04-2019 20:00:00 15.9 C 64 % 9.11 C
2258 25-04-2019 20:05:00 15.8 C 65 % 9.24 C
2259 25-04-2019 20:10:00 15.7 C 66 % 9.37 C
2260 25-04-2019 20:15:00 15.4 C 65 % 8.86 C
2261 25-04-2019 20:20:00 15.3 C 65 % 8.77 C
2262 25-04-2019 20:25:00 15.2 C 65 % 8.67 C
2263 25-04-2019 20:30:00 15 C 67 % 8.93 C
2264 25-04-2019 20:35:00 14.9 C 67 % 8.83 C
2265 25-04-2019 20:40:00 14.8 C 68 % 8.96 C
2266 25-04-2019 20:45:00 14.6 C 69 % 8.98 C
2267 25-04-2019 20:50:00 14.5 C 70 % 9.1 C
2268 25-04-2019 20:55:00 14.4 C 70 % 9 C
2269 25-04-2019 21:00:00 14.3 C 71 % 9.12 C
2270 25-04-2019 21:05:00 14.2 C 72 % 9.23 C
2271 25-04-2019 21:10:00 14.1 C 71 % 8.93 C
2272 25-04-2019 21:15:00 14 C 71 % 8.83 C
2273 25-04-2019 21:20:00 13.9 C 72 % 8.94 C
2274 25-04-2019 21:25:00 13.9 C 72 % 8.94 C
2275 25-04-2019 21:30:00 13.8 C 72 % 8.85 C
Sensor: Nr:Datum:Temp:Feuchte:Taupunkt:
Aussen-T/F 2276 25-04-2019 21:35:00 13.8 C 73 % 9.05 C
2277 25-04-2019 21:40:00 13.7 C 74 % 9.15 C
2278 25-04-2019 21:45:00 13.6 C 73 % 8.86 C
2279 25-04-2019 21:50:00 13.5 C 73 % 8.76 C
2280 25-04-2019 21:55:00 13.4 C 74 % 8.87 C
2281 25-04-2019 22:00:00 13.4 C 73 % 8.66 C
2282 25-04-2019 22:05:00 13.3 C 74 % 8.77 C
2283 25-04-2019 22:10:00 13.3 C 75 % 8.97 C
2284 25-04-2019 22:15:00 13.2 C 75 % 8.87 C
2285 25-04-2019 22:20:00 13.2 C 75 % 8.87 C
2286 25-04-2019 22:25:00 13.1 C 75 % 8.77 C
2287 25-04-2019 22:30:00 13 C 75 % 8.68 C
2288 25-04-2019 22:35:00 12.9 C 75 % 8.58 C
2289 25-04-2019 22:40:00 12.8 C 74 % 8.29 C
2290 25-04-2019 22:45:00 12.8 C 75 % 8.48 C
2291 25-04-2019 22:50:00 12.8 C 75 % 8.48 C
2292 25-04-2019 22:55:00 12.7 C 75 % 8.39 C
2293 25-04-2019 23:00:00 12.7 C 76 % 8.58 C
2294 25-04-2019 23:05:00 12.7 C 76 % 8.58 C
2295 25-04-2019 23:10:00 12.6 C 77 % 8.68 C
2296 25-04-2019 23:15:00 12.6 C 77 % 8.68 C
2297 25-04-2019 23:20:00 12.5 C 78 % 8.77 C
2298 25-04-2019 23:25:00 12.4 C 78 % 8.68 C
2299 25-04-2019 23:30:00 12.4 C 79 % 8.86 C
2300 25-04-2019 23:35:00 12.4 C 79 % 8.86 C
Sensor: Nr:Datum:Temp:Feuchte:Taupunkt:
Aussen-T/F 2301 25-04-2019 23:40:00 12.3 C 80 % 8.95 C
2302 25-04-2019 23:45:00 12.2 C 80 % 8.86 C
2303 25-04-2019 23:50:00 12.2 C 80 % 8.86 C
2304 25-04-2019 23:55:00 12.1 C 80 % 8.76 C
2305 26-04-2019 00:00:00 11.9 C 80 % 8.56 C
2306 26-04-2019 00:05:00 11.8 C 80 % 8.47 C
2307 26-04-2019 00:10:00 11.7 C 81 % 8.55 C
2308 26-04-2019 00:15:00 11.6 C 81 % 8.45 C
2309 26-04-2019 00:20:00 11.4 C 82 % 8.44 C
2310 26-04-2019 00:25:00 11.3 C 82 % 8.34 C
2311 26-04-2019 00:30:00 11.2 C 83 % 8.42 C
2312 26-04-2019 00:35:00 11.2 C 83 % 8.42 C
2313 26-04-2019 00:40:00 11.2 C 83 % 8.42 C
2314 26-04-2019 00:45:00 11.1 C 83 % 8.33 C
2315 26-04-2019 00:50:00 11.2 C 84 % 8.6 C
2316 26-04-2019 00:55:00 11.1 C 84 % 8.5 C
2317 26-04-2019 01:00:00 11.1 C 84 % 8.5 C
2318 26-04-2019 01:05:00 11.1 C 84 % 8.5 C
2319 26-04-2019 01:10:00 11 C 85 % 8.58 C
2320 26-04-2019 01:15:00 11 C 85 % 8.58 C
2321 26-04-2019 01:20:00 10.9 C 85 % 8.48 C
2322 26-04-2019 01:25:00 10.9 C 86 % 8.65 C
2323 26-04-2019 01:30:00 10.9 C 86 % 8.65 C
2324 26-04-2019 01:35:00 10.9 C 86 % 8.65 C
2325 26-04-2019 01:40:00 10.9 C 85 % 8.48 C
Sensor: Nr:Datum:Temp:Feuchte:Taupunkt:
Aussen-T/F 2326 26-04-2019 01:45:00 10.9 C 85 % 8.48 C
2327 26-04-2019 01:50:00 10.8 C 86 % 8.56 C
2328 26-04-2019 01:55:00 10.8 C 86 % 8.56 C
2329 26-04-2019 02:00:00 10.8 C 86 % 8.56 C
2330 26-04-2019 02:05:00 10.8 C 85 % 8.38 C
2331 26-04-2019 02:10:00 10.9 C 85 % 8.48 C
2332 26-04-2019 02:15:00 10.9 C 84 % 8.31 C
2333 26-04-2019 02:20:00 11 C 84 % 8.4 C
2334 26-04-2019 02:25:00 11.1 C 83 % 8.33 C
2335 26-04-2019 02:30:00 11.1 C 84 % 8.5 C
2336 26-04-2019 02:35:00 11.1 C 84 % 8.5 C
2337 26-04-2019 02:40:00 11.1 C 84 % 8.5 C
2338 26-04-2019 02:45:00 11.1 C 84 % 8.5 C
2339 26-04-2019 02:50:00 11.1 C 84 % 8.5 C
2340 26-04-2019 02:55:00 11.1 C 84 % 8.5 C
2341 26-04-2019 03:00:00 11.1 C 83 % 8.33 C
2342 26-04-2019 03:05:00 11.1 C 84 % 8.5 C
2343 26-04-2019 03:10:00 11.1 C 83 % 8.33 C
2344 26-04-2019 03:15:00 11.1 C 83 % 8.33 C
2345 26-04-2019 03:20:00 11.1 C 83 % 8.33 C
2346 26-04-2019 03:25:00 11 C 83 % 8.23 C
2347 26-04-2019 03:30:00 10.9 C 83 % 8.13 C
2348 26-04-2019 03:35:00 10.9 C 83 % 8.13 C
2349 26-04-2019 03:40:00 10.9 C 83 % 8.13 C
2350 26-04-2019 03:45:00 10.9 C 83 % 8.13 C
Sensor: Nr:Datum:Temp:Feuchte:Taupunkt:
Aussen-T/F 2351 26-04-2019 03:50:00 10.9 C 83 % 8.13 C
2352 26-04-2019 03:55:00 10.8 C 83 % 8.03 C
2353 26-04-2019 04:00:00 10.9 C 84 % 8.31 C
2354 26-04-2019 04:05:00 10.8 C 84 % 8.21 C
2355 26-04-2019 04:10:00 10.8 C 84 % 8.21 C
2356 26-04-2019 04:15:00 10.8 C 84 % 8.21 C
2357 26-04-2019 04:20:00 10.8 C 84 % 8.21 C
2358 26-04-2019 04:25:00 10.8 C 84 % 8.21 C
2359 26-04-2019 04:30:00 10.8 C 83 % 8.03 C
2360 26-04-2019 04:35:00 10.8 C 83 % 8.03 C
2361 26-04-2019 04:40:00 10.8 C 84 % 8.21 C
2362 26-04-2019 04:45:00 10.8 C 83 % 8.03 C
2363 26-04-2019 04:50:00 10.8 C 84 % 8.21 C
2364 26-04-2019 04:55:00 10.7 C 83 % 7.93 C
2365 26-04-2019 05:00:00 10.7 C 83 % 7.93 C
2366 26-04-2019 05:05:00 10.7 C 84 % 8.11 C
2367 26-04-2019 05:10:00 10.7 C 84 % 8.11 C
2368 26-04-2019 05:15:00 10.7 C 85 % 8.28 C
2369 26-04-2019 05:20:00 10.6 C 86 % 8.36 C
2370 26-04-2019 05:25:00 10.4 C 87 % 8.33 C
2371 26-04-2019 05:30:00 10.3 C 88 % 8.4 C
2372 26-04-2019 05:35:00 10.3 C 88 % 8.4 C
2373 26-04-2019 05:40:00 10.2 C 89 % 8.47 C
2374 26-04-2019 05:45:00 10.1 C 89 % 8.37 C
2375 26-04-2019 05:50:00 10.1 C 90 % 8.54 C
Sensor: Nr:Datum:Temp:Feuchte:Taupunkt:
Aussen-T/F 2376 26-04-2019 05:55:00 10 C 90 % 8.44 C
2377 26-04-2019 06:00:00 9.9 C 91 % 8.5 C
2378 26-04-2019 06:05:00 9.8 C 91 % 8.4 C
2379 26-04-2019 06:10:00 9.8 C 91 % 8.4 C
2380 26-04-2019 06:15:00 9.7 C 92 % 8.46 C
2381 26-04-2019 06:20:00 9.7 C 92 % 8.46 C
2382 26-04-2019 06:25:00 9.6 C 92 % 8.37 C
2383 26-04-2019 06:30:00 9.6 C 92 % 8.37 C
2384 26-04-2019 06:35:00 9.6 C 92 % 8.37 C
2385 26-04-2019 06:40:00 9.5 C 92 % 8.27 C
2386 26-04-2019 06:45:00 9.5 C 93 % 8.43 C
2387 26-04-2019 06:50:00 9.4 C 93 % 8.33 C
2388 26-04-2019 06:55:00 9.4 C 93 % 8.33 C
2389 26-04-2019 07:00:00 9.4 C 93 % 8.33 C
2390 26-04-2019 07:05:00 9.4 C 94 % 8.48 C
2391 26-04-2019 07:10:00 9.5 C 94 % 8.58 C
2392 26-04-2019 07:15:00 9.5 C 94 % 8.58 C
2393 26-04-2019 07:20:00 9.5 C 94 % 8.58 C
2394 26-04-2019 07:25:00 9.4 C 94 % 8.48 C
2395 26-04-2019 07:30:00 9.5 C 94 % 8.58 C
2396 26-04-2019 07:35:00 9.6 C 94 % 8.68 C
2397 26-04-2019 07:40:00 9.6 C 94 % 8.68 C
2398 26-04-2019 07:45:00 9.6 C 94 % 8.68 C
2399 26-04-2019 07:50:00 9.5 C 94 % 8.58 C
2400 26-04-2019 07:55:00 9.5 C 94 % 8.58 C
Sensor: Nr:Datum:Temp:Feuchte:Taupunkt:
Aussen-T/F 2401 26-04-2019 08:00:00 9.5 C 94 % 8.58 C
2402 26-04-2019 08:05:00 9.5 C 94 % 8.58 C
2403 26-04-2019 08:10:00 9.5 C 94 % 8.58 C
2404 26-04-2019 08:15:00 9.5 C 94 % 8.58 C
2405 26-04-2019 08:20:00 9.5 C 95 % 8.74 C
2406 26-04-2019 08:25:00 9.5 C 95 % 8.74 C
2407 26-04-2019 08:30:00 9.5 C 95 % 8.74 C
2408 26-04-2019 08:35:00 9.5 C 95 % 8.74 C
2409 26-04-2019 08:40:00 9.5 C 95 % 8.74 C
2410 26-04-2019 08:45:00 9.5 C 95 % 8.74 C
2411 26-04-2019 08:50:00 9.5 C 95 % 8.74 C
2412 26-04-2019 08:55:00 9.6 C 95 % 8.84 C
2413 26-04-2019 09:00:00 9.7 C 95 % 8.94 C
2414 26-04-2019 09:05:00 9.8 C 95 % 9.04 C
2415 26-04-2019 09:10:00 9.8 C 95 % 9.04 C
2416 26-04-2019 09:15:00 9.9 C 95 % 9.14 C
2417 26-04-2019 09:20:00 10 C 95 % 9.24 C
2418 26-04-2019 09:25:00 10.1 C 95 % 9.34 C
2419 26-04-2019 09:30:00 10.1 C 95 % 9.34 C
2420 26-04-2019 09:35:00 10.1 C 95 % 9.34 C
2421 26-04-2019 09:40:00 10.1 C 95 % 9.34 C
2422 26-04-2019 09:45:00 10.1 C 95 % 9.34 C
2423 26-04-2019 09:50:00 10.1 C 95 % 9.34 C
2424 26-04-2019 09:55:00 10.1 C 95 % 9.34 C
2425 26-04-2019 10:00:00 10.2 C 95 % 9.44 C
Sensor: Nr:Datum:Temp:Feuchte:Taupunkt:
Aussen-T/F 2426 26-04-2019 10:05:00 10.2 C 95 % 9.44 C
2427 26-04-2019 10:10:00 10.2 C 95 % 9.44 C
2428 26-04-2019 10:15:00 10.3 C 95 % 9.54 C
2429 26-04-2019 10:20:00 10.2 C 95 % 9.44 C
2430 26-04-2019 10:25:00 10.3 C 95 % 9.54 C
2431 26-04-2019 10:30:00 10.2 C 95 % 9.44 C
2432 26-04-2019 10:35:00 10.3 C 95 % 9.54 C
2433 26-04-2019 10:40:00 10.3 C 95 % 9.54 C
2434 26-04-2019 10:45:00 10.4 C 95 % 9.63 C
2435 26-04-2019 10:50:00 10.3 C 94 % 9.38 C
2436 26-04-2019 10:55:00 10.4 C 95 % 9.63 C
2437 26-04-2019 11:00:00 10.6 C 95 % 9.83 C
2438 26-04-2019 11:05:00 10.7 C 95 % 9.93 C
2439 26-04-2019 11:10:00 10.8 C 95 % 10.03 C
2440 26-04-2019 11:15:00 10.9 C 94 % 9.97 C
2441 26-04-2019 11:20:00 11 C 94 % 10.07 C
2442 26-04-2019 11:25:00 10.9 C 93 % 9.81 C
2443 26-04-2019 11:30:00 10.9 C 93 % 9.81 C
2444 26-04-2019 11:35:00 10.9 C 93 % 9.81 C
2445 26-04-2019 11:40:00 10.9 C 92 % 9.65 C
2446 26-04-2019 11:45:00 10.9 C 93 % 9.81 C
2447 26-04-2019 11:50:00 11 C 93 % 9.91 C
2448 26-04-2019 11:55:00 11.1 C 92 % 9.85 C
2449 26-04-2019 12:00:00 11.1 C 92 % 9.85 C
2450 26-04-2019 12:05:00 11.2 C 92 % 9.95 C
Sensor: Nr:Datum:Temp:Feuchte:Taupunkt:
Aussen-T/F 2451 26-04-2019 12:10:00 11.4 C 92 % 10.15 C
2452 26-04-2019 12:15:00 11.7 C 91 % 10.28 C
2453 26-04-2019 12:20:00 11.9 C 91 % 10.48 C
2454 26-04-2019 12:25:00 11.9 C 88 % 9.98 C
2455 26-04-2019 12:30:00 12.2 C 89 % 10.44 C
2456 26-04-2019 12:35:00 12.3 C 88 % 10.37 C
2457 26-04-2019 12:40:00 12.4 C 87 % 10.3 C
2458 26-04-2019 12:45:00 12.4 C 86 % 10.13 C
2459 26-04-2019 12:50:00 12.5 C 84 % 9.87 C
2460 26-04-2019 12:55:00 12.5 C 84 % 9.87 C
2461 26-04-2019 13:00:00 12.5 C 84 % 9.87 C
2462 26-04-2019 13:05:00 12.6 C 84 % 9.97 C
2463 26-04-2019 13:10:00 12.7 C 83 % 9.89 C
2464 26-04-2019 13:15:00 12.9 C 85 % 10.44 C
2465 26-04-2019 13:20:00 12.9 C 82 % 9.9 C
2466 26-04-2019 13:25:00 13.1 C 83 % 10.28 C
2467 26-04-2019 13:30:00 13.1 C 82 % 10.1 C
2468 26-04-2019 13:35:00 13.1 C 82 % 10.1 C
2469 26-04-2019 13:40:00 13.2 C 82 % 10.2 C
2470 26-04-2019 13:45:00 13.3 C 81 % 10.11 C
2471 26-04-2019 13:50:00 13.3 C 81 % 10.11 C
2472 26-04-2019 13:55:00 13.4 C 81 % 10.21 C
2473 26-04-2019 14:00:00 13.3 C 78 % 9.55 C
2474 26-04-2019 14:05:00 13.3 C 80 % 9.93 C
2475 26-04-2019 14:10:00 13.4 C 80 % 10.02 C
Sensor: Nr:Datum:Temp:Feuchte:Taupunkt:
Aussen-T/F 2476 26-04-2019 14:15:00 13.5 C 79 % 9.93 C
2477 26-04-2019 14:20:00 13.5 C 79 % 9.93 C
2478 26-04-2019 14:25:00 13.5 C 79 % 9.93 C
2479 26-04-2019 14:30:00 13.6 C 79 % 10.03 C
2480 26-04-2019 14:35:00 13.7 C 78 % 9.94 C
2481 26-04-2019 14:40:00 13.7 C 77 % 9.75 C
2482 26-04-2019 14:45:00 13.7 C 76 % 9.55 C
2483 26-04-2019 14:50:00 13.6 C 76 % 9.45 C
2484 26-04-2019 14:55:00 13.6 C 77 % 9.65 C
2485 26-04-2019 15:00:00 13.5 C 76 % 9.36 C
2486 26-04-2019 15:05:00 13.4 C 78 % 9.65 C
2487 26-04-2019 15:10:00 13.4 C 78 % 9.65 C
2488 26-04-2019 15:15:00 13.4 C 78 % 9.65 C
2489 26-04-2019 15:20:00 13.4 C 77 % 9.45 C
2490 26-04-2019 15:25:00 13.4 C 78 % 9.65 C
2491 26-04-2019 15:30:00 13.4 C 77 % 9.45 C
2492 26-04-2019 15:35:00 13.5 C 77 % 9.55 C
2493 26-04-2019 15:40:00 13.5 C 75 % 9.16 C
2494 26-04-2019 15:45:00 13.6 C 76 % 9.45 C
2495 26-04-2019 15:50:00 13.8 C 75 % 9.45 C
2496 26-04-2019 15:55:00 14 C 75 % 9.64 C
2497 26-04-2019 16:00:00 14.2 C 74 % 9.64 C
2498 26-04-2019 16:05:00 14.4 C 73 % 9.63 C
2499 26-04-2019 16:10:00 14.6 C 70 % 9.2 C
2500 26-04-2019 16:15:00 14.7 C 72 % 9.71 C
Sensor: Nr:Datum:Temp:Feuchte:Taupunkt:
Aussen-T/F 2501 26-04-2019 16:20:00 14.8 C 72 % 9.81 C
2502 26-04-2019 16:25:00 14.9 C 72 % 9.9 C
2503 26-04-2019 16:30:00 15.2 C 72 % 10.19 C
2504 26-04-2019 16:35:00 15.4 C 70 % 9.96 C
2505 26-04-2019 16:40:00 15.6 C 67 % 9.5 C
2506 26-04-2019 16:45:00 15.6 C 68 % 9.72 C
2507 26-04-2019 16:50:00 15.7 C 69 % 10.03 C
2508 26-04-2019 16:55:00 15.7 C 69 % 10.03 C
2509 26-04-2019 17:00:00 15.6 C 65 % 9.05 C
2510 26-04-2019 17:05:00 15.5 C 70 % 10.06 C
2511 26-04-2019 17:10:00 15.6 C 67 % 9.5 C
2512 26-04-2019 17:15:00 15.8 C 65 % 9.24 C
2513 26-04-2019 17:20:00 15.8 C 66 % 9.47 C
2514 26-04-2019 17:25:00 15.7 C 66 % 9.37 C
2515 26-04-2019 17:30:00 15.6 C 67 % 9.5 C
2516 26-04-2019 17:35:00 15.4 C 65 % 8.86 C
2517 26-04-2019 17:40:00 15.3 C 67 % 9.21 C
2518 26-04-2019 17:45:00 15.7 C 67 % 9.6 C
2519 26-04-2019 17:50:00 16.2 C 65 % 9.62 C
2520 26-04-2019 17:55:00 16.7 C 62 % 9.39 C
2521 26-04-2019 18:00:00 16.7 C 61 % 9.15 C
2522 26-04-2019 18:05:00 17 C 61 % 9.43 C
2523 26-04-2019 18:10:00 17.3 C 60 % 9.47 C
2524 26-04-2019 18:15:00 17.5 C 58 % 9.15 C
2525 26-04-2019 18:20:00 17.4 C 58 % 9.06 C
Sensor: Nr:Datum:Temp:Feuchte:Taupunkt:
Aussen-T/F 2526 26-04-2019 18:25:00 17.3 C 58 % 8.97 C
2527 26-04-2019 18:30:00 17.2 C 58 % 8.87 C
2528 26-04-2019 18:35:00 16.9 C 60 % 9.09 C
2529 26-04-2019 18:40:00 16.7 C 62 % 9.39 C
2530 26-04-2019 18:45:00 16.5 C 67 % 10.36 C
2531 26-04-2019 18:50:00 16.3 C 70 % 10.82 C
2532 26-04-2019 18:55:00 16.3 C 71 % 11.04 C
2533 26-04-2019 19:00:00 16.3 C 70 % 10.82 C
2534 26-04-2019 19:05:00 16.3 C 62 % 9.01 C
2535 26-04-2019 19:10:00 16.3 C 63 % 9.25 C
2536 26-04-2019 19:15:00 16.3 C 69 % 10.61 C
2537 26-04-2019 19:20:00 16.3 C 73 % 11.46 C
2538 26-04-2019 19:25:00 16.3 C 73 % 11.46 C
2539 26-04-2019 19:30:00 16.1 C 74 % 11.47 C
2540 26-04-2019 19:35:00 15.9 C 75 % 11.48 C
2541 26-04-2019 19:40:00 15.6 C 76 % 11.39 C
2542 26-04-2019 19:45:00 15.2 C 75 % 10.8 C
2543 26-04-2019 19:50:00 14.9 C 76 % 10.71 C
2544 26-04-2019 19:55:00 14.6 C 77 % 10.62 C
2545 26-04-2019 20:00:00 14.3 C 79 % 10.71 C
2546 26-04-2019 20:05:00 13.8 C 76 % 9.65 C
2547 26-04-2019 20:10:00 13.4 C 78 % 9.65 C
2548 26-04-2019 20:15:00 13.1 C 79 % 9.54 C
2549 26-04-2019 20:20:00 12.8 C 79 % 9.25 C
2550 26-04-2019 20:25:00 12.6 C 80 % 9.25 C
Sensor: Nr:Datum:Temp:Feuchte:Taupunkt:
Aussen-T/F 2551 26-04-2019 20:30:00 12.3 C 81 % 9.14 C
2552 26-04-2019 20:35:00 12.1 C 82 % 9.12 C
2553 26-04-2019 20:40:00 11.9 C 83 % 9.11 C
2554 26-04-2019 20:45:00 11.7 C 84 % 9.09 C
2555 26-04-2019 20:50:00 11.5 C 84 % 8.89 C
2556 26-04-2019 20:55:00 11.4 C 84 % 8.8 C
2557 26-04-2019 21:00:00 11.3 C 86 % 9.05 C
2558 26-04-2019 21:05:00 11.3 C 87 % 9.22 C
2559 26-04-2019 21:10:00 11.2 C 87 % 9.12 C
2560 26-04-2019 21:15:00 11.1 C 87 % 9.02 C
2561 26-04-2019 21:20:00 10.8 C 87 % 8.73 C
2562 26-04-2019 21:25:00 10.7 C 87 % 8.63 C
2563 26-04-2019 21:30:00 10.7 C 87 % 8.63 C
2564 26-04-2019 21:35:00 10.7 C 87 % 8.63 C
2565 26-04-2019 21:40:00 10.7 C 87 % 8.63 C
2566 26-04-2019 21:45:00 10.7 C 87 % 8.63 C
2567 26-04-2019 21:50:00 10.7 C 88 % 8.8 C
2568 26-04-2019 21:55:00 10.8 C 88 % 8.89 C
2569 26-04-2019 22:00:00 10.8 C 88 % 8.89 C
2570 26-04-2019 22:05:00 10.8 C 88 % 8.89 C
2571 26-04-2019 22:10:00 10.8 C 88 % 8.89 C
2572 26-04-2019 22:15:00 10.7 C 87 % 8.63 C
2573 26-04-2019 22:20:00 10.5 C 88 % 8.6 C
2574 26-04-2019 22:25:00 10.3 C 88 % 8.4 C
2575 26-04-2019 22:30:00 10.2 C 89 % 8.47 C
Sensor: Nr:Datum:Temp:Feuchte:Taupunkt:
Aussen-T/F 2576 26-04-2019 22:35:00 10.2 C 89 % 8.47 C
2577 26-04-2019 22:40:00 10.2 C 90 % 8.64 C
2578 26-04-2019 22:45:00 10.3 C 90 % 8.73 C
2579 26-04-2019 22:50:00 10.3 C 90 % 8.73 C
2580 26-04-2019 22:55:00 10.4 C 90 % 8.83 C
2581 26-04-2019 23:00:00 10.4 C 90 % 8.83 C
2582 26-04-2019 23:05:00 10.4 C 90 % 8.83 C
2583 26-04-2019 23:10:00 10.3 C 90 % 8.73 C
2584 26-04-2019 23:15:00 10.3 C 90 % 8.73 C
2585 26-04-2019 23:20:00 10.2 C 90 % 8.64 C
2586 26-04-2019 23:25:00 10 C 90 % 8.44 C
2587 26-04-2019 23:30:00 9.9 C 90 % 8.34 C
2588 26-04-2019 23:35:00 9.8 C 90 % 8.24 C
2589 26-04-2019 23:40:00 9.8 C 91 % 8.4 C
2590 26-04-2019 23:45:00 9.7 C 91 % 8.3 C
2591 26-04-2019 23:50:00 9.7 C 91 % 8.3 C
2592 26-04-2019 23:55:00 9.6 C 91 % 8.21 C
2593 27-04-2019 00:00:00 9.5 C 91 % 8.11 C
2594 27-04-2019 00:05:00 9.4 C 91 % 8.01 C
2595 27-04-2019 00:10:00 9.3 C 91 % 7.91 C
2596 27-04-2019 00:15:00 9.2 C 91 % 7.81 C
2597 27-04-2019 00:20:00 9.1 C 91 % 7.71 C
2598 27-04-2019 00:25:00 9.1 C 92 % 7.87 C
2599 27-04-2019 00:30:00 9.1 C 92 % 7.87 C
2600 27-04-2019 00:35:00 9.1 C 92 % 7.87 C
Sensor: Nr:Datum:Temp:Feuchte:Taupunkt:
Aussen-T/F 2601 27-04-2019 00:40:00 9.1 C 93 % 8.03 C
2602 27-04-2019 00:45:00 9.2 C 93 % 8.13 C
2603 27-04-2019 00:50:00 9.2 C 93 % 8.13 C
2604 27-04-2019 00:55:00 9.2 C 93 % 8.13 C
2605 27-04-2019 01:00:00 9.2 C 93 % 8.13 C
2606 27-04-2019 01:05:00 9.2 C 93 % 8.13 C
2607 27-04-2019 01:10:00 9.3 C 93 % 8.23 C
2608 27-04-2019 01:15:00 9.3 C 93 % 8.23 C
2609 27-04-2019 01:20:00 9.3 C 93 % 8.23 C
2610 27-04-2019 01:25:00 9.2 C 93 % 8.13 C
2611 27-04-2019 01:30:00 9.2 C 93 % 8.13 C
2612 27-04-2019 01:35:00 9.1 C 93 % 8.03 C
2613 27-04-2019 01:40:00 9.1 C 93 % 8.03 C
2614 27-04-2019 01:45:00 9 C 93 % 7.93 C
2615 27-04-2019 01:50:00 8.9 C 93 % 7.83 C
2616 27-04-2019 01:55:00 8.9 C 93 % 7.83 C
2617 27-04-2019 02:00:00 8.9 C 93 % 7.83 C
2618 27-04-2019 02:05:00 8.8 C 93 % 7.73 C
2619 27-04-2019 02:10:00 8.8 C 93 % 7.73 C
2620 27-04-2019 02:15:00 8.8 C 93 % 7.73 C
2621 27-04-2019 02:20:00 8.7 C 93 % 7.63 C
2622 27-04-2019 02:25:00 8.7 C 93 % 7.63 C
2623 27-04-2019 02:30:00 8.6 C 93 % 7.53 C
2624 27-04-2019 02:35:00 8.5 C 93 % 7.43 C
2625 27-04-2019 02:40:00 8.4 C 93 % 7.34 C
Sensor: Nr:Datum:Temp:Feuchte:Taupunkt:
Aussen-T/F 2626 27-04-2019 02:45:00 8.3 C 93 % 7.24 C
2627 27-04-2019 02:50:00 8.2 C 93 % 7.14 C
2628 27-04-2019 02:55:00 8.2 C 94 % 7.29 C
2629 27-04-2019 03:00:00 8.2 C 94 % 7.29 C
2630 27-04-2019 03:05:00 8.1 C 94 % 7.19 C
2631 27-04-2019 03:10:00 8.1 C 94 % 7.19 C
2632 27-04-2019 03:15:00 8 C 94 % 7.09 C
2633 27-04-2019 03:20:00 8 C 94 % 7.09 C
2634 27-04-2019 03:25:00 7.9 C 94 % 7 C
2635 27-04-2019 03:30:00 7.8 C 94 % 6.9 C
2636 27-04-2019 03:35:00 7.8 C 94 % 6.9 C
2637 27-04-2019 03:40:00 7.7 C 94 % 6.8 C
2638 27-04-2019 03:45:00 7.7 C 94 % 6.8 C
2639 27-04-2019 03:50:00 7.6 C 94 % 6.7 C
2640 27-04-2019 03:55:00 7.6 C 94 % 6.7 C
2641 27-04-2019 04:00:00 7.6 C 94 % 6.7 C
2642 27-04-2019 04:05:00 7.5 C 94 % 6.6 C
2643 27-04-2019 04:10:00 7.4 C 94 % 6.5 C
2644 27-04-2019 04:15:00 7.3 C 94 % 6.4 C
2645 27-04-2019 04:20:00 7.2 C 94 % 6.3 C
2646 27-04-2019 04:25:00 7.1 C 94 % 6.2 C
2647 27-04-2019 04:30:00 7.1 C 94 % 6.2 C
2648 27-04-2019 04:35:00 7 C 94 % 6.1 C
2649 27-04-2019 04:40:00 7 C 94 % 6.1 C
2650 27-04-2019 04:45:00 7 C 95 % 6.26 C
Sensor: Nr:Datum:Temp:Feuchte:Taupunkt:
Aussen-T/F 2651 27-04-2019 04:50:00 7 C 95 % 6.26 C
2652 27-04-2019 04:55:00 7 C 95 % 6.26 C
2653 27-04-2019 05:00:00 6.9 C 95 % 6.16 C
2654 27-04-2019 05:05:00 6.9 C 95 % 6.16 C
2655 27-04-2019 05:10:00 6.8 C 94 % 5.9 C
2656 27-04-2019 05:15:00 6.7 C 95 % 5.96 C
2657 27-04-2019 05:20:00 6.7 C 95 % 5.96 C
2658 27-04-2019 05:25:00 6.7 C 95 % 5.96 C
2659 27-04-2019 05:30:00 6.6 C 95 % 5.86 C
2660 27-04-2019 05:35:00 6.6 C 95 % 5.86 C
2661 27-04-2019 05:40:00 6.6 C 95 % 5.86 C
2662 27-04-2019 05:45:00 6.4 C 95 % 5.66 C
2663 27-04-2019 05:50:00 6.4 C 95 % 5.66 C
2664 27-04-2019 05:55:00 6.4 C 95 % 5.66 C
2665 27-04-2019 06:00:00 6.4 C 95 % 5.66 C
2666 27-04-2019 06:05:00 6.3 C 95 % 5.56 C
2667 27-04-2019 06:10:00 6.3 C 95 % 5.56 C
2668 27-04-2019 06:15:00 6.4 C 95 % 5.66 C
2669 27-04-2019 06:20:00 6.4 C 95 % 5.66 C
2670 27-04-2019 06:25:00 6.5 C 96 % 5.91 C
2671 27-04-2019 06:30:00 6.5 C 96 % 5.91 C
2672 27-04-2019 06:35:00 6.4 C 95 % 5.66 C
2673 27-04-2019 06:40:00 6.4 C 95 % 5.66 C
2674 27-04-2019 06:45:00 6.4 C 96 % 5.81 C
2675 27-04-2019 06:50:00 6.5 C 96 % 5.91 C
Sensor: Nr:Datum:Temp:Feuchte:Taupunkt:
Aussen-T/F 2676 27-04-2019 06:55:00 6.6 C 96 % 6.01 C
2677 27-04-2019 07:00:00 6.7 C 96 % 6.11 C
2678 27-04-2019 07:05:00 6.7 C 96 % 6.11 C
2679 27-04-2019 07:10:00 6.8 C 96 % 6.21 C
2680 27-04-2019 07:15:00 6.8 C 96 % 6.21 C
2681 27-04-2019 07:20:00 6.9 C 96 % 6.31 C
2682 27-04-2019 07:25:00 7 C 96 % 6.41 C
2683 27-04-2019 07:30:00 7.1 C 96 % 6.51 C
2684 27-04-2019 07:35:00 7.3 C 96 % 6.71 C
2685 27-04-2019 07:40:00 7.4 C 96 % 6.8 C
2686 27-04-2019 07:45:00 7.6 C 96 % 7 C
2687 27-04-2019 07:50:00 7.7 C 96 % 7.1 C
2688 27-04-2019 07:55:00 7.8 C 96 % 7.2 C
2689 27-04-2019 08:00:00 7.9 C 97 % 7.45 C
2690 27-04-2019 08:05:00 8.1 C 97 % 7.65 C
2691 27-04-2019 08:10:00 8.2 C 96 % 7.6 C
2692 27-04-2019 08:15:00 8.4 C 97 % 7.95 C
2693 27-04-2019 08:20:00 8.6 C 97 % 8.15 C
2694 27-04-2019 08:25:00 8.7 C 97 % 8.25 C
2695 27-04-2019 08:30:00 8.7 C 97 % 8.25 C
2696 27-04-2019 08:35:00 8.8 C 97 % 8.35 C
2697 27-04-2019 08:40:00 8.9 C 96 % 8.3 C
2698 27-04-2019 08:45:00 9.1 C 97 % 8.65 C
2699 27-04-2019 08:50:00 9.3 C 97 % 8.85 C
2700 27-04-2019 08:55:00 9.3 C 97 % 8.85 C
Sensor: Nr:Datum:Temp:Feuchte:Taupunkt:
Aussen-T/F 2701 27-04-2019 09:00:00 9.5 C 97 % 9.05 C
2702 27-04-2019 09:05:00 9.7 C 97 % 9.25 C
2703 27-04-2019 09:10:00 9.8 C 97 % 9.35 C
2704 27-04-2019 09:15:00 9.9 C 96 % 9.29 C
2705 27-04-2019 09:20:00 9.9 C 96 % 9.29 C
2706 27-04-2019 09:25:00 10.1 C 96 % 9.49 C
2707 27-04-2019 09:30:00 10.2 C 95 % 9.44 C
2708 27-04-2019 09:35:00 10.3 C 95 % 9.54 C
2709 27-04-2019 09:40:00 10.5 C 94 % 9.58 C
2710 27-04-2019 09:45:00 10.6 C 93 % 9.52 C
2711 27-04-2019 09:50:00 10.7 C 91 % 9.29 C
2712 27-04-2019 09:55:00 10.8 C 91 % 9.39 C
2713 27-04-2019 10:00:00 10.9 C 90 % 9.33 C
2714 27-04-2019 10:05:00 11 C 89 % 9.26 C
2715 27-04-2019 10:10:00 11.1 C 89 % 9.36 C
2716 27-04-2019 10:15:00 11.2 C 89 % 9.46 C
2717 27-04-2019 10:20:00 11.2 C 88 % 9.29 C
2718 27-04-2019 10:25:00 11.2 C 89 % 9.46 C
2719 27-04-2019 10:30:00 11.2 C 88 % 9.29 C
2720 27-04-2019 10:35:00 11.3 C 88 % 9.39 C
2721 27-04-2019 10:40:00 11.4 C 88 % 9.49 C
2722 27-04-2019 10:45:00 11.6 C 87 % 9.51 C
2723 27-04-2019 10:50:00 11.7 C 84 % 9.09 C
2724 27-04-2019 10:55:00 11.9 C 83 % 9.11 C
2725 27-04-2019 11:00:00 12.1 C 82 % 9.12 C
Sensor: Nr:Datum:Temp:Feuchte:Taupunkt:
Aussen-T/F 2726 27-04-2019 11:05:00 12.2 C 81 % 9.04 C
2727 27-04-2019 11:10:00 12.4 C 81 % 9.23 C
2728 27-04-2019 11:15:00 12.8 C 78 % 9.06 C
2729 27-04-2019 11:20:00 13 C 76 % 8.87 C
2730 27-04-2019 11:25:00 13.1 C 72 % 8.17 C
2731 27-04-2019 11:30:00 12.9 C 72 % 7.98 C
2732 27-04-2019 11:35:00 12.8 C 73 % 8.09 C
2733 27-04-2019 11:40:00 12.6 C 74 % 8.09 C
2734 27-04-2019 11:45:00 12.6 C 76 % 8.49 C
2735 27-04-2019 11:50:00 12.6 C 76 % 8.49 C
2736 27-04-2019 11:55:00 12.6 C 77 % 8.68 C
2737 27-04-2019 12:00:00 12.6 C 80 % 9.25 C
2738 27-04-2019 12:05:00 12.6 C 81 % 9.43 C
2739 27-04-2019 12:10:00 12.6 C 82 % 9.61 C
2740 27-04-2019 12:15:00 12.5 C 83 % 9.69 C
2741 27-04-2019 12:20:00 12.6 C 84 % 9.97 C
2742 27-04-2019 12:25:00 12.6 C 83 % 9.79 C
2743 27-04-2019 12:30:00 12.6 C 82 % 9.61 C
2744 27-04-2019 12:35:00 12.7 C 82 % 9.71 C
2745 27-04-2019 12:40:00 12.7 C 80 % 9.34 C
2746 27-04-2019 12:45:00 12.8 C 81 % 9.62 C
2747 27-04-2019 12:50:00 12.9 C 80 % 9.54 C
2748 27-04-2019 12:55:00 13.1 C 81 % 9.92 C
2749 27-04-2019 13:00:00 13.3 C 79 % 9.74 C
2750 27-04-2019 13:05:00 13.5 C 78 % 9.74 C
Sensor: Nr:Datum:Temp:Feuchte:Taupunkt:
Aussen-T/F 2751 27-04-2019 13:10:00 13.6 C 78 % 9.84 C
2752 27-04-2019 13:15:00 13.7 C 78 % 9.94 C
2753 27-04-2019 13:20:00 13.6 C 77 % 9.65 C
2754 27-04-2019 13:25:00 13.6 C 77 % 9.65 C
2755 27-04-2019 13:30:00 13.6 C 77 % 9.65 C
2756 27-04-2019 13:35:00 13.4 C 79 % 9.84 C
2757 27-04-2019 13:40:00 13.4 C 78 % 9.65 C
2758 27-04-2019 13:45:00 12.8 C 74 % 8.29 C
2759 27-04-2019 13:50:00 11.4 C 79 % 7.89 C
2760 27-04-2019 13:55:00 10.4 C 81 % 7.28 C
2761 27-04-2019 14:00:00 9.7 C 85 % 7.3 C
2762 27-04-2019 14:05:00 9.3 C 86 % 7.08 C
2763 27-04-2019 14:10:00 9.1 C 89 % 7.39 C
2764 27-04-2019 14:15:00 9.2 C 90 % 7.65 C
2765 27-04-2019 14:20:00 9.2 C 91 % 7.81 C
2766 27-04-2019 14:25:00 9.2 C 91 % 7.81 C
2767 27-04-2019 14:30:00 9.2 C 91 % 7.81 C
2768 27-04-2019 14:35:00 9.6 C 93 % 8.53 C
2769 27-04-2019 14:40:00 9.9 C 93 % 8.82 C
2770 27-04-2019 14:45:00 9.9 C 91 % 8.5 C
2771 27-04-2019 14:50:00 10 C 91 % 8.6 C
2772 27-04-2019 14:55:00 10 C 89 % 8.27 C
2773 27-04-2019 15:00:00 9.9 C 89 % 8.17 C
2774 27-04-2019 15:05:00 10 C 90 % 8.44 C
2775 27-04-2019 15:10:00 10.1 C 91 % 8.7 C
Sensor: Nr:Datum:Temp:Feuchte:Taupunkt:
Aussen-T/F 2776 27-04-2019 15:15:00 10.1 C 91 % 8.7 C
2777 27-04-2019 15:20:00 10.1 C 91 % 8.7 C
2778 27-04-2019 15:25:00 10.2 C 92 % 8.96 C
2779 27-04-2019 15:30:00 10.7 C 93 % 9.62 C
2780 27-04-2019 15:35:00 11 C 91 % 9.59 C
2781 27-04-2019 15:40:00 11.1 C 90 % 9.52 C
2782 27-04-2019 15:45:00 10.8 C 87 % 8.73 C
2783 27-04-2019 15:50:00 10.8 C 87 % 8.73 C
2784 27-04-2019 15:55:00 10.8 C 88 % 8.89 C
2785 27-04-2019 16:00:00 10.8 C 87 % 8.73 C
2786 27-04-2019 16:05:00 11.1 C 87 % 9.02 C
2787 27-04-2019 16:10:00 11.2 C 85 % 8.77 C
2788 27-04-2019 16:15:00 11.3 C 83 % 8.52 C
2789 27-04-2019 16:20:00 11.5 C 81 % 8.36 C
2790 27-04-2019 16:25:00 11.6 C 82 % 8.64 C
2791 27-04-2019 16:30:00 11.8 C 82 % 8.83 C
2792 27-04-2019 16:35:00 12.3 C 80 % 8.95 C
2793 27-04-2019 16:40:00 12.4 C 78 % 8.68 C
2794 27-04-2019 16:45:00 12.3 C 79 % 8.77 C
2795 27-04-2019 16:50:00 12.3 C 79 % 8.77 C
2796 27-04-2019 16:55:00 12.4 C 78 % 8.68 C
2797 27-04-2019 17:00:00 12.4 C 79 % 8.86 C
2798 27-04-2019 17:05:00 12.3 C 78 % 8.58 C
2799 27-04-2019 17:10:00 12.2 C 80 % 8.86 C
2800 27-04-2019 17:15:00 12.1 C 80 % 8.76 C
Sensor: Nr:Datum:Temp:Feuchte:Taupunkt:
Aussen-T/F 2801 27-04-2019 17:20:00 11.9 C 79 % 8.38 C
2802 27-04-2019 17:25:00 12.1 C 82 % 9.12 C
2803 27-04-2019 17:30:00 12.6 C 77 % 8.68 C
2804 27-04-2019 17:35:00 12.7 C 77 % 8.78 C
2805 27-04-2019 17:40:00 12.6 C 75 % 8.29 C
2806 27-04-2019 17:45:00 12.3 C 77 % 8.39 C
2807 27-04-2019 17:50:00 12.3 C 80 % 8.95 C
2808 27-04-2019 17:55:00 12.7 C 79 % 9.16 C
2809 27-04-2019 18:00:00 13.1 C 76 % 8.97 C
2810 27-04-2019 18:05:00 12.9 C 73 % 8.18 C
2811 27-04-2019 18:10:00 12.8 C 75 % 8.48 C
2812 27-04-2019 18:15:00 12.4 C 75 % 8.1 C
2813 27-04-2019 18:20:00 12.1 C 75 % 7.81 C
2814 27-04-2019 18:25:00 11.6 C 77 % 7.71 C
2815 27-04-2019 18:30:00 11 C 81 % 7.87 C
2816 27-04-2019 18:35:00 10.6 C 83 % 7.84 C
2817 27-04-2019 18:40:00 10.2 C 85 % 7.79 C
2818 27-04-2019 18:45:00 9.9 C 87 % 7.84 C
2819 27-04-2019 18:50:00 9.8 C 88 % 7.91 C
2820 27-04-2019 18:55:00 9.7 C 89 % 7.98 C
2821 27-04-2019 19:00:00 9.8 C 90 % 8.24 C
2822 27-04-2019 19:05:00 10 C 92 % 8.76 C
2823 27-04-2019 19:10:00 10.2 C 92 % 8.96 C
2824 27-04-2019 19:15:00 10.3 C 91 % 8.9 C
2825 27-04-2019 19:20:00 10.2 C 91 % 8.8 C
Sensor: Nr:Datum:Temp:Feuchte:Taupunkt:
Aussen-T/F 2826 27-04-2019 19:25:00 10 C 90 % 8.44 C
2827 27-04-2019 19:30:00 9.8 C 90 % 8.24 C
2828 27-04-2019 19:35:00 9.6 C 89 % 7.88 C
2829 27-04-2019 19:40:00 9.2 C 88 % 7.32 C
2830 27-04-2019 19:45:00 8.8 C 89 % 7.09 C
2831 27-04-2019 19:50:00 8.5 C 89 % 6.79 C
2832 27-04-2019 19:55:00 8.3 C 90 % 6.76 C
2833 27-04-2019 20:00:00 8.1 C 91 % 6.72 C
2834 27-04-2019 20:05:00 8 C 91 % 6.62 C
2835 27-04-2019 20:10:00 7.9 C 91 % 6.52 C
2836 27-04-2019 20:15:00 7.8 C 92 % 6.58 C
2837 27-04-2019 20:20:00 7.7 C 92 % 6.48 C
2838 27-04-2019 20:25:00 7.7 C 92 % 6.48 C
2839 27-04-2019 20:30:00 7.7 C 92 % 6.48 C
2840 27-04-2019 20:35:00 7.6 C 93 % 6.54 C
2841 27-04-2019 20:40:00 7.6 C 93 % 6.54 C
2842 27-04-2019 20:45:00 7.6 C 93 % 6.54 C
2843 27-04-2019 20:50:00 7.5 C 93 % 6.44 C
2844 27-04-2019 20:55:00 7.5 C 93 % 6.44 C
2845 27-04-2019 21:00:00 7.4 C 93 % 6.34 C
2846 27-04-2019 21:05:00 7.4 C 93 % 6.34 C
2847 27-04-2019 21:10:00 7.4 C 94 % 6.5 C
2848 27-04-2019 21:15:00 7.4 C 94 % 6.5 C
2849 27-04-2019 21:20:00 7.4 C 94 % 6.5 C
2850 27-04-2019 21:25:00 7.4 C 94 % 6.5 C
Sensor: Nr:Datum:Temp:Feuchte:Taupunkt:
Aussen-T/F 2851 27-04-2019 21:30:00 7.4 C 94 % 6.5 C
2852 27-04-2019 21:35:00 7.3 C 94 % 6.4 C
2853 27-04-2019 21:40:00 7.3 C 94 % 6.4 C
2854 27-04-2019 21:45:00 7.2 C 94 % 6.3 C
2855 27-04-2019 21:50:00 7.1 C 94 % 6.2 C
2856 27-04-2019 21:55:00 6.9 C 94 % 6 C
2857 27-04-2019 22:00:00 6.9 C 94 % 6 C
2858 27-04-2019 22:05:00 6.8 C 94 % 5.9 C
2859 27-04-2019 22:10:00 6.7 C 94 % 5.8 C
2860 27-04-2019 22:15:00 6.7 C 94 % 5.8 C
2861 27-04-2019 22:20:00 6.8 C 94 % 5.9 C
2862 27-04-2019 22:25:00 6.8 C 95 % 6.06 C
2863 27-04-2019 22:30:00 6.8 C 95 % 6.06 C
2864 27-04-2019 22:35:00 6.8 C 95 % 6.06 C
2865 27-04-2019 22:40:00 6.8 C 95 % 6.06 C
2866 27-04-2019 22:45:00 6.7 C 95 % 5.96 C
2867 27-04-2019 22:50:00 6.7 C 95 % 5.96 C
2868 27-04-2019 22:55:00 6.7 C 95 % 5.96 C
2869 27-04-2019 23:00:00 6.8 C 95 % 6.06 C
2870 27-04-2019 23:05:00 6.8 C 95 % 6.06 C
2871 27-04-2019 23:10:00 6.9 C 95 % 6.16 C
2872 27-04-2019 23:15:00 6.9 C 95 % 6.16 C
2873 27-04-2019 23:20:00 6.9 C 95 % 6.16 C
2874 27-04-2019 23:25:00 6.9 C 95 % 6.16 C
2875 27-04-2019 23:30:00 6.9 C 95 % 6.16 C
Sensor: Nr:Datum:Temp:Feuchte:Taupunkt:
Aussen-T/F 2876 27-04-2019 23:35:00 6.8 C 95 % 6.06 C
2877 27-04-2019 23:40:00 6.8 C 95 % 6.06 C
2878 27-04-2019 23:45:00 6.8 C 95 % 6.06 C
2879 27-04-2019 23:50:00 6.8 C 95 % 6.06 C
2880 27-04-2019 23:55:00 6.8 C 94 % 5.9 C
2881 28-04-2019 00:00:00 6.8 C 94 % 5.9 C
2882 28-04-2019 00:05:00 6.8 C 94 % 5.9 C
2883 28-04-2019 00:10:00 6.8 C 94 % 5.9 C
2884 28-04-2019 00:15:00 6.9 C 94 % 6 C
2885 28-04-2019 00:20:00 6.8 C 94 % 5.9 C
2886 28-04-2019 00:25:00 6.9 C 94 % 6 C
2887 28-04-2019 00:30:00 6.9 C 94 % 6 C
2888 28-04-2019 00:35:00 6.9 C 94 % 6 C
2889 28-04-2019 00:40:00 6.9 C 94 % 6 C
2890 28-04-2019 00:45:00 6.9 C 93 % 5.85 C
2891 28-04-2019 00:50:00 6.9 C 93 % 5.85 C
2892 28-04-2019 00:55:00 6.9 C 93 % 5.85 C
2893 28-04-2019 01:00:00 6.9 C 93 % 5.85 C
2894 28-04-2019 01:05:00 6.9 C 93 % 5.85 C
2895 28-04-2019 01:10:00 6.9 C 93 % 5.85 C
2896 28-04-2019 01:15:00 6.9 C 92 % 5.69 C
2897 28-04-2019 01:20:00 6.9 C 93 % 5.85 C
2898 28-04-2019 01:25:00 6.9 C 92 % 5.69 C
2899 28-04-2019 01:30:00 6.9 C 92 % 5.69 C
2900 28-04-2019 01:35:00 6.9 C 92 % 5.69 C
Sensor: Nr:Datum:Temp:Feuchte:Taupunkt:
Aussen-T/F 2901 28-04-2019 01:40:00 6.9 C 92 % 5.69 C
2902 28-04-2019 01:45:00 6.8 C 92 % 5.59 C
2903 28-04-2019 01:50:00 6.8 C 92 % 5.59 C
2904 28-04-2019 01:55:00 6.8 C 91 % 5.44 C
2905 28-04-2019 02:00:00 6.8 C 91 % 5.44 C
2906 28-04-2019 02:05:00 6.7 C 91 % 5.34 C
2907 28-04-2019 02:10:00 6.7 C 91 % 5.34 C
2908 28-04-2019 02:15:00 6.6 C 91 % 5.24 C
2909 28-04-2019 02:20:00 6.6 C 91 % 5.24 C
2910 28-04-2019 02:25:00 6.5 C 91 % 5.14 C
2911 28-04-2019 02:30:00 6.4 C 91 % 5.04 C
2912 28-04-2019 02:35:00 6.3 C 91 % 4.94 C
2913 28-04-2019 02:40:00 6.3 C 91 % 4.94 C
2914 28-04-2019 02:45:00 6.2 C 91 % 4.84 C
2915 28-04-2019 02:50:00 6.1 C 91 % 4.74 C
2916 28-04-2019 02:55:00 6 C 91 % 4.65 C
2917 28-04-2019 03:00:00 6 C 91 % 4.65 C
2918 28-04-2019 03:05:00 6 C 91 % 4.65 C
2919 28-04-2019 03:10:00 6.1 C 91 % 4.74 C
2920 28-04-2019 03:15:00 6.1 C 91 % 4.74 C
2921 28-04-2019 03:20:00 6.2 C 91 % 4.84 C
2922 28-04-2019 03:25:00 6.2 C 90 % 4.69 C
2923 28-04-2019 03:30:00 6.2 C 90 % 4.69 C
2924 28-04-2019 03:35:00 6.3 C 90 % 4.78 C
2925 28-04-2019 03:40:00 6.3 C 90 % 4.78 C
Sensor: Nr:Datum:Temp:Feuchte:Taupunkt:
Aussen-T/F 2926 28-04-2019 03:45:00 6.3 C 90 % 4.78 C
2927 28-04-2019 03:50:00 6.3 C 89 % 4.62 C
2928 28-04-2019 03:55:00 6.3 C 89 % 4.62 C
2929 28-04-2019 04:00:00 6.4 C 89 % 4.72 C
2930 28-04-2019 04:05:00 6.4 C 89 % 4.72 C
2931 28-04-2019 04:10:00 6.4 C 88 % 4.56 C
2932 28-04-2019 04:15:00 6.4 C 88 % 4.56 C
2933 28-04-2019 04:20:00 6.4 C 88 % 4.56 C
2934 28-04-2019 04:25:00 6.5 C 88 % 4.66 C
2935 28-04-2019 04:30:00 6.5 C 88 % 4.66 C
2936 28-04-2019 04:35:00 6.4 C 88 % 4.56 C
2937 28-04-2019 04:40:00 6.4 C 88 % 4.56 C
2938 28-04-2019 04:45:00 6.4 C 88 % 4.56 C
2939 28-04-2019 04:50:00 6.4 C 88 % 4.56 C
2940 28-04-2019 04:55:00 6.4 C 88 % 4.56 C
2941 28-04-2019 05:00:00 6.4 C 88 % 4.56 C
2942 28-04-2019 05:05:00 6.4 C 88 % 4.56 C
2943 28-04-2019 05:10:00 6.3 C 88 % 4.46 C
2944 28-04-2019 05:15:00 6.3 C 88 % 4.46 C
2945 28-04-2019 05:20:00 6.3 C 89 % 4.62 C
2946 28-04-2019 05:25:00 6.3 C 89 % 4.62 C
2947 28-04-2019 05:30:00 6.2 C 89 % 4.53 C
2948 28-04-2019 05:35:00 6.2 C 89 % 4.53 C
2949 28-04-2019 05:40:00 6.2 C 89 % 4.53 C
2950 28-04-2019 05:45:00 6.2 C 89 % 4.53 C
Sensor: Nr:Datum:Temp:Feuchte:Taupunkt:
Aussen-T/F 2951 28-04-2019 05:50:00 6.2 C 89 % 4.53 C
2952 28-04-2019 05:55:00 6.2 C 89 % 4.53 C
2953 28-04-2019 06:00:00 6.2 C 88 % 4.36 C
2954 28-04-2019 06:05:00 6.2 C 88 % 4.36 C
2955 28-04-2019 06:10:00 6.2 C 89 % 4.53 C
2956 28-04-2019 06:15:00 6.2 C 89 % 4.53 C
2957 28-04-2019 06:20:00 6.2 C 89 % 4.53 C
2958 28-04-2019 06:25:00 6.2 C 89 % 4.53 C
2959 28-04-2019 06:30:00 6.2 C 89 % 4.53 C
2960 28-04-2019 06:35:00 6.2 C 89 % 4.53 C
2961 28-04-2019 06:40:00 6.2 C 89 % 4.53 C
2962 28-04-2019 06:45:00 6.2 C 89 % 4.53 C
2963 28-04-2019 06:50:00 6.2 C 89 % 4.53 C
2964 28-04-2019 06:55:00 6.2 C 89 % 4.53 C
2965 28-04-2019 07:00:00 6.3 C 89 % 4.62 C
2966 28-04-2019 07:05:00 6.3 C 90 % 4.78 C
2967 28-04-2019 07:10:00 6.4 C 89 % 4.72 C
2968 28-04-2019 07:15:00 6.5 C 89 % 4.82 C
2969 28-04-2019 07:20:00 6.6 C 89 % 4.92 C
2970 28-04-2019 07:25:00 6.7 C 88 % 4.86 C
2971 28-04-2019 07:30:00 6.8 C 88 % 4.96 C
2972 28-04-2019 07:35:00 7 C 88 % 5.15 C
2973 28-04-2019 07:40:00 7.1 C 88 % 5.25 C
2974 28-04-2019 07:45:00 7.3 C 87 % 5.28 C
2975 28-04-2019 07:50:00 7.3 C 87 % 5.28 C
Sensor: Nr:Datum:Temp:Feuchte:Taupunkt:
Aussen-T/F 2976 28-04-2019 07:55:00 7.4 C 87 % 5.38 C
2977 28-04-2019 08:00:00 7.5 C 87 % 5.48 C
2978 28-04-2019 08:05:00 7.5 C 86 % 5.31 C
2979 28-04-2019 08:10:00 7.5 C 86 % 5.31 C
2980 28-04-2019 08:15:00 7.6 C 86 % 5.41 C
2981 28-04-2019 08:20:00 7.6 C 86 % 5.41 C
2982 28-04-2019 08:25:00 7.6 C 86 % 5.41 C
2983 28-04-2019 08:30:00 7.6 C 86 % 5.41 C
2984 28-04-2019 08:35:00 7.6 C 86 % 5.41 C
2985 28-04-2019 08:40:00 7.6 C 86 % 5.41 C
2986 28-04-2019 08:45:00 7.6 C 86 % 5.41 C
2987 28-04-2019 08:50:00 7.6 C 86 % 5.41 C
2988 28-04-2019 08:55:00 7.6 C 86 % 5.41 C
2989 28-04-2019 09:00:00 7.7 C 86 % 5.51 C
2990 28-04-2019 09:05:00 7.7 C 86 % 5.51 C
2991 28-04-2019 09:10:00 7.7 C 86 % 5.51 C
2992 28-04-2019 09:15:00 7.8 C 86 % 5.61 C
2993 28-04-2019 09:20:00 7.8 C 86 % 5.61 C
2994 28-04-2019 09:25:00 7.9 C 87 % 5.87 C
2995 28-04-2019 09:30:00 8 C 87 % 5.97 C
2996 28-04-2019 09:35:00 8 C 87 % 5.97 C
2997 28-04-2019 09:40:00 8 C 87 % 5.97 C
2998 28-04-2019 09:45:00 8.1 C 87 % 6.07 C
2999 28-04-2019 09:50:00 8.2 C 87 % 6.17 C
3000 28-04-2019 09:55:00 8.3 C 87 % 6.27 C
Sensor: Nr:Datum:Temp:Feuchte:Taupunkt:
Aussen-T/F 3001 28-04-2019 10:00:00 8.3 C 87 % 6.27 C
3002 28-04-2019 10:05:00 8.4 C 85 % 6.03 C
3003 28-04-2019 10:10:00 8.6 C 85 % 6.23 C
3004 28-04-2019 10:15:00 8.7 C 85 % 6.32 C
3005 28-04-2019 10:20:00 8.8 C 84 % 6.25 C
3006 28-04-2019 10:25:00 8.9 C 83 % 6.17 C
3007 28-04-2019 10:30:00 9 C 83 % 6.27 C
3008 28-04-2019 10:35:00 9.1 C 82 % 6.19 C
3009 28-04-2019 10:40:00 9.2 C 82 % 6.29 C
3010 28-04-2019 10:45:00 9.2 C 80 % 5.94 C
3011 28-04-2019 10:50:00 9.3 C 80 % 6.03 C
3012 28-04-2019 10:55:00 9.4 C 80 % 6.13 C
3013 28-04-2019 11:00:00 9.5 C 78 % 5.86 C
3014 28-04-2019 11:05:00 9.7 C 78 % 6.06 C
3015 28-04-2019 11:10:00 9.8 C 78 % 6.15 C
3016 28-04-2019 11:15:00 9.9 C 74 % 5.49 C
3017 28-04-2019 11:20:00 10 C 75 % 5.78 C
3018 28-04-2019 11:25:00 10.1 C 75 % 5.88 C
3019 28-04-2019 11:30:00 10.2 C 74 % 5.78 C
3020 28-04-2019 11:35:00 10.3 C 73 % 5.68 C
3021 28-04-2019 11:40:00 10.2 C 72 % 5.39 C
3022 28-04-2019 11:45:00 10.1 C 72 % 5.29 C
3023 28-04-2019 11:50:00 10.1 C 71 % 5.09 C
3024 28-04-2019 11:55:00 10.1 C 72 % 5.29 C
3025 28-04-2019 12:00:00 10.2 C 72 % 5.39 C
Sensor: Nr:Datum:Temp:Feuchte:Taupunkt:
Aussen-T/F 3026 28-04-2019 12:05:00 10.3 C 72 % 5.48 C
3027 28-04-2019 12:10:00 10.3 C 71 % 5.28 C
3028 28-04-2019 12:15:00 10.3 C 70 % 5.08 C
3029 28-04-2019 12:20:00 10.3 C 71 % 5.28 C
3030 28-04-2019 12:25:00 10.3 C 70 % 5.08 C
3031 28-04-2019 12:30:00 10.2 C 70 % 4.98 C
3032 28-04-2019 12:35:00 10.2 C 71 % 5.18 C
3033 28-04-2019 12:40:00 10.2 C 70 % 4.98 C
3034 28-04-2019 12:45:00 10.3 C 70 % 5.08 C
3035 28-04-2019 12:50:00 10.6 C 69 % 5.16 C
3036 28-04-2019 12:55:00 10.7 C 71 % 5.66 C
3037 28-04-2019 13:00:00 10.9 C 69 % 5.44 C
3038 28-04-2019 13:05:00 11 C 68 % 5.33 C
3039 28-04-2019 13:10:00 11.1 C 68 % 5.43 C
3040 28-04-2019 13:15:00 11.1 C 68 % 5.43 C
3041 28-04-2019 13:20:00 11.2 C 69 % 5.73 C
3042 28-04-2019 13:25:00 11.2 C 67 % 5.31 C
3043 28-04-2019 13:30:00 11.2 C 65 % 4.87 C
3044 28-04-2019 13:35:00 11.3 C 67 % 5.4 C
3045 28-04-2019 13:40:00 11.4 C 66 % 5.28 C
3046 28-04-2019 13:45:00 11.6 C 68 % 5.9 C
3047 28-04-2019 13:50:00 11.7 C 63 % 4.9 C
3048 28-04-2019 13:55:00 11.9 C 66 % 5.76 C
3049 28-04-2019 14:00:00 12 C 66 % 5.85 C
3050 28-04-2019 14:05:00 12.1 C 67 % 6.17 C
Sensor: Nr:Datum:Temp:Feuchte:Taupunkt:
Aussen-T/F 3051 28-04-2019 14:10:00 12.1 C 68 % 6.38 C
3052 28-04-2019 14:15:00 12.1 C 67 % 6.17 C
3053 28-04-2019 14:20:00 12.1 C 68 % 6.38 C
3054 28-04-2019 14:25:00 12.1 C 66 % 5.95 C
3055 28-04-2019 14:30:00 12.3 C 67 % 6.36 C
3056 28-04-2019 14:35:00 12.4 C 68 % 6.67 C
3057 28-04-2019 14:40:00 12.6 C 66 % 6.42 C
3058 28-04-2019 14:45:00 12.7 C 67 % 6.74 C
3059 28-04-2019 14:50:00 12.8 C 65 % 6.39 C
3060 28-04-2019 14:55:00 12.9 C 63 % 6.04 C
3061 28-04-2019 15:00:00 12.8 C 65 % 6.39 C
3062 28-04-2019 15:05:00 12.8 C 67 % 6.83 C
3063 28-04-2019 15:10:00 12.6 C 65 % 6.2 C
3064 28-04-2019 15:15:00 12.2 C 68 % 6.48 C
3065 28-04-2019 15:20:00 11.8 C 72 % 6.92 C
3066 28-04-2019 15:25:00 11.6 C 72 % 6.73 C
3067 28-04-2019 15:30:00 11.3 C 75 % 7.04 C
3068 28-04-2019 15:35:00 11 C 76 % 6.94 C
3069 28-04-2019 15:40:00 10.7 C 78 % 7.03 C
3070 28-04-2019 15:45:00 10.6 C 79 % 7.11 C
3071 28-04-2019 15:50:00 10.4 C 81 % 7.28 C
3072 28-04-2019 15:55:00 10.3 C 82 % 7.37 C
3073 28-04-2019 16:00:00 10.2 C 84 % 7.62 C
3074 28-04-2019 16:05:00 10.1 C 85 % 7.7 C
3075 28-04-2019 16:10:00 10 C 85 % 7.6 C
Sensor: Nr:Datum:Temp:Feuchte:Taupunkt:
Aussen-T/F 3076 28-04-2019 16:15:00 9.8 C 84 % 7.23 C
3077 28-04-2019 16:20:00 9.9 C 85 % 7.5 C
3078 28-04-2019 16:25:00 9.9 C 85 % 7.5 C
3079 28-04-2019 16:30:00 10 C 85 % 7.6 C
3080 28-04-2019 16:35:00 10.1 C 84 % 7.52 C
3081 28-04-2019 16:40:00 10.3 C 85 % 7.89 C
3082 28-04-2019 16:45:00 10.8 C 84 % 8.21 C
3083 28-04-2019 16:50:00 11.6 C 82 % 8.64 C
3084 28-04-2019 16:55:00 11.8 C 78 % 8.09 C
3085 28-04-2019 17:00:00 11.5 C 77 % 7.61 C
3086 28-04-2019 17:05:00 11.4 C 78 % 7.71 C
3087 28-04-2019 17:10:00 11.4 C 78 % 7.71 C
3088 28-04-2019 17:15:00 11.5 C 80 % 8.17 C
3089 28-04-2019 17:20:00 11.5 C 79 % 7.99 C
3090 28-04-2019 17:25:00 11.5 C 79 % 7.99 C
3091 28-04-2019 17:30:00 11.5 C 79 % 7.99 C
3092 28-04-2019 17:35:00 11.4 C 79 % 7.89 C
3093 28-04-2019 17:40:00 11.4 C 79 % 7.89 C
3094 28-04-2019 17:45:00 11.4 C 80 % 8.08 C
3095 28-04-2019 17:50:00 11.4 C 80 % 8.08 C
3096 28-04-2019 17:55:00 11.4 C 81 % 8.26 C
3097 28-04-2019 18:00:00 11.5 C 82 % 8.54 C
3098 28-04-2019 18:05:00 11.5 C 81 % 8.36 C
3099 28-04-2019 18:10:00 11.4 C 76 % 7.33 C
3100 28-04-2019 18:15:00 11.4 C 73 % 6.74 C
Sensor: Nr:Datum:Temp:Feuchte:Taupunkt:
Aussen-T/F 3101 28-04-2019 18:20:00 11.6 C 76 % 7.52 C
3102 28-04-2019 18:25:00 11.7 C 73 % 7.03 C
3103 28-04-2019 18:30:00 11.7 C 73 % 7.03 C
3104 28-04-2019 18:35:00 11.6 C 73 % 6.93 C
3105 28-04-2019 18:40:00 11.5 C 72 % 6.63 C
3106 28-04-2019 18:45:00 11.4 C 71 % 6.34 C
3107 28-04-2019 18:50:00 11.3 C 73 % 6.64 C
3108 28-04-2019 18:55:00 11.2 C 72 % 6.35 C
3109 28-04-2019 19:00:00 11.1 C 74 % 6.65 C
3110 28-04-2019 19:05:00 11.1 C 74 % 6.65 C
3111 28-04-2019 19:10:00 10.9 C 74 % 6.45 C
3112 28-04-2019 19:15:00 10.8 C 76 % 6.75 C
3113 28-04-2019 19:20:00 10.7 C 76 % 6.65 C
3114 28-04-2019 19:25:00 10.6 C 78 % 6.93 C
3115 28-04-2019 19:30:00 10.6 C 77 % 6.74 C
3116 28-04-2019 19:35:00 10.7 C 77 % 6.84 C
3117 28-04-2019 19:40:00 10.8 C 78 % 7.12 C
3118 28-04-2019 19:45:00 10.9 C 76 % 6.84 C
3119 28-04-2019 19:50:00 11.1 C 76 % 7.04 C
3120 28-04-2019 19:55:00 11.1 C 76 % 7.04 C
3121 28-04-2019 20:00:00 10.8 C 76 % 6.75 C
3122 28-04-2019 20:05:00 10.7 C 77 % 6.84 C
3123 28-04-2019 20:10:00 10.4 C 78 % 6.74 C
3124 28-04-2019 20:15:00 10.3 C 79 % 6.82 C
3125 28-04-2019 20:20:00 10.1 C 80 % 6.81 C
Sensor: Nr:Datum:Temp:Feuchte:Taupunkt:
Aussen-T/F 3126 28-04-2019 20:25:00 9.9 C 80 % 6.62 C
3127 28-04-2019 20:30:00 9.6 C 81 % 6.5 C
3128 28-04-2019 20:35:00 9.3 C 81 % 6.21 C
3129 28-04-2019 20:40:00 9.1 C 82 % 6.19 C
3130 28-04-2019 20:45:00 8.8 C 82 % 5.9 C
3131 28-04-2019 20:50:00 8.5 C 83 % 5.78 C
3132 28-04-2019 20:55:00 8.3 C 84 % 5.76 C
3133 28-04-2019 21:00:00 8.1 C 84 % 5.56 C
3134 28-04-2019 21:05:00 7.9 C 85 % 5.54 C
3135 28-04-2019 21:10:00 7.7 C 86 % 5.51 C
3136 28-04-2019 21:15:00 7.6 C 86 % 5.41 C
3137 28-04-2019 21:20:00 7.4 C 87 % 5.38 C
3138 28-04-2019 21:25:00 7.3 C 87 % 5.28 C
3139 28-04-2019 21:30:00 7.2 C 87 % 5.19 C
3140 28-04-2019 21:35:00 7.1 C 88 % 5.25 C
3141 28-04-2019 21:40:00 7 C 88 % 5.15 C
3142 28-04-2019 21:45:00 6.9 C 88 % 5.05 C
3143 28-04-2019 21:50:00 6.8 C 88 % 4.96 C
3144 28-04-2019 21:55:00 6.7 C 89 % 5.02 C
3145 28-04-2019 22:00:00 6.6 C 89 % 4.92 C
3146 28-04-2019 22:05:00 6.4 C 89 % 4.72 C
3147 28-04-2019 22:10:00 6.3 C 89 % 4.62 C
3148 28-04-2019 22:15:00 6.2 C 90 % 4.69 C
3149 28-04-2019 22:20:00 6.1 C 90 % 4.59 C
3150 28-04-2019 22:25:00 6 C 90 % 4.49 C
Sensor: Nr:Datum:Temp:Feuchte:Taupunkt:
Aussen-T/F 3151 28-04-2019 22:30:00 5.9 C 91 % 4.55 C
3152 28-04-2019 22:35:00 5.8 C 91 % 4.45 C
3153 28-04-2019 22:40:00 5.7 C 91 % 4.35 C
3154 28-04-2019 22:45:00 5.6 C 91 % 4.25 C
3155 28-04-2019 22:50:00 5.6 C 92 % 4.41 C
3156 28-04-2019 22:55:00 5.4 C 92 % 4.21 C
3157 28-04-2019 23:00:00 5.3 C 91 % 3.95 C
3158 28-04-2019 23:05:00 5.2 C 91 % 3.85 C
3159 28-04-2019 23:10:00 5.2 C 92 % 4.01 C
3160 28-04-2019 23:15:00 5.1 C 92 % 3.91 C
3161 28-04-2019 23:20:00 5.1 C 92 % 3.91 C
3162 28-04-2019 23:25:00 5 C 93 % 3.96 C
3163 28-04-2019 23:30:00 4.9 C 92 % 3.71 C
3164 28-04-2019 23:35:00 4.9 C 93 % 3.87 C
3165 28-04-2019 23:40:00 4.9 C 93 % 3.87 C
3166 28-04-2019 23:45:00 4.8 C 93 % 3.77 C
3167 28-04-2019 23:50:00 4.8 C 93 % 3.77 C
3168 28-04-2019 23:55:00 4.8 C 93 % 3.77 C
3169 29-04-2019 00:00:00 4.7 C 93 % 3.67 C
3170 29-04-2019 00:05:00 4.7 C 93 % 3.67 C
3171 29-04-2019 00:10:00 4.7 C 94 % 3.82 C
3172 29-04-2019 00:15:00 4.6 C 93 % 3.57 C
3173 29-04-2019 00:20:00 4.5 C 93 % 3.47 C
3174 29-04-2019 00:25:00 4.4 C 93 % 3.37 C
3175 29-04-2019 00:30:00 4.3 C 94 % 3.42 C
Sensor: Nr:Datum:Temp:Feuchte:Taupunkt:
Aussen-T/F 3176 29-04-2019 00:35:00 4.3 C 94 % 3.42 C
3177 29-04-2019 00:40:00 4.2 C 94 % 3.32 C
3178 29-04-2019 00:45:00 4.2 C 94 % 3.32 C
3179 29-04-2019 00:50:00 4.2 C 94 % 3.32 C
3180 29-04-2019 00:55:00 4.2 C 94 % 3.32 C
3181 29-04-2019 01:00:00 4.3 C 94 % 3.42 C
3182 29-04-2019 01:05:00 4.4 C 94 % 3.52 C
3183 29-04-2019 01:10:00 4.3 C 94 % 3.42 C
3184 29-04-2019 01:15:00 4.3 C 94 % 3.42 C
3185 29-04-2019 01:20:00 4.3 C 94 % 3.42 C
3186 29-04-2019 01:25:00 4.2 C 94 % 3.32 C
3187 29-04-2019 01:30:00 4 C 94 % 3.12 C
3188 29-04-2019 01:35:00 3.9 C 94 % 3.02 C
3189 29-04-2019 01:40:00 3.8 C 94 % 2.93 C
3190 29-04-2019 01:45:00 3.7 C 94 % 2.83 C
3191 29-04-2019 01:50:00 3.6 C 94 % 2.73 C
3192 29-04-2019 01:55:00 3.6 C 94 % 2.73 C
3193 29-04-2019 02:00:00 3.7 C 95 % 2.98 C
3194 29-04-2019 02:05:00 3.6 C 95 % 2.88 C
3195 29-04-2019 02:10:00 3.6 C 95 % 2.88 C
3196 29-04-2019 02:15:00 3.4 C 94 % 2.53 C
3197 29-04-2019 02:20:00 3.3 C 94 % 2.43 C
3198 29-04-2019 02:25:00 3.3 C 94 % 2.43 C
3199 29-04-2019 02:30:00 3.3 C 95 % 2.58 C
3200 29-04-2019 02:35:00 3.3 C 95 % 2.58 C
Sensor: Nr:Datum:Temp:Feuchte:Taupunkt:
Aussen-T/F 3201 29-04-2019 02:40:00 3.3 C 95 % 2.58 C
3202 29-04-2019 02:45:00 3.4 C 95 % 2.68 C
3203 29-04-2019 02:50:00 3.4 C 95 % 2.68 C
3204 29-04-2019 02:55:00 3.5 C 95 % 2.78 C
3205 29-04-2019 03:00:00 3.5 C 95 % 2.78 C
3206 29-04-2019 03:05:00 3.5 C 95 % 2.78 C
3207 29-04-2019 03:10:00 3.6 C 95 % 2.88 C
3208 29-04-2019 03:15:00 3.6 C 95 % 2.88 C
3209 29-04-2019 03:20:00 3.7 C 95 % 2.98 C
3210 29-04-2019 03:25:00 3.7 C 95 % 2.98 C
3211 29-04-2019 03:30:00 3.7 C 95 % 2.98 C
3212 29-04-2019 03:35:00 3.8 C 95 % 3.07 C
3213 29-04-2019 03:40:00 3.8 C 95 % 3.07 C
3214 29-04-2019 03:45:00 3.8 C 95 % 3.07 C
3215 29-04-2019 03:50:00 3.7 C 95 % 2.98 C
3216 29-04-2019 03:55:00 3.7 C 95 % 2.98 C
3217 29-04-2019 04:00:00 3.7 C 95 % 2.98 C
3218 29-04-2019 04:05:00 3.6 C 95 % 2.88 C
3219 29-04-2019 04:10:00 3.6 C 95 % 2.88 C
3220 29-04-2019 04:15:00 3.6 C 95 % 2.88 C
3221 29-04-2019 04:20:00 3.6 C 95 % 2.88 C
3222 29-04-2019 04:25:00 3.6 C 96 % 3.02 C
3223 29-04-2019 04:30:00 3.6 C 96 % 3.02 C
3224 29-04-2019 04:35:00 3.5 C 96 % 2.92 C
3225 29-04-2019 04:40:00 3.4 C 96 % 2.82 C
Sensor: Nr:Datum:Temp:Feuchte:Taupunkt:
Aussen-T/F 3226 29-04-2019 04:45:00 3.4 C 96 % 2.82 C
3227 29-04-2019 04:50:00 3.4 C 96 % 2.82 C
3228 29-04-2019 04:55:00 3.5 C 96 % 2.92 C
3229 29-04-2019 05:00:00 3.5 C 96 % 2.92 C
3230 29-04-2019 05:05:00 3.5 C 96 % 2.92 C
3231 29-04-2019 05:10:00 3.4 C 96 % 2.82 C
3232 29-04-2019 05:15:00 3.4 C 96 % 2.82 C
3233 29-04-2019 05:20:00 3.4 C 96 % 2.82 C
3234 29-04-2019 05:25:00 3.4 C 96 % 2.82 C
3235 29-04-2019 05:30:00 3.3 C 96 % 2.72 C
3236 29-04-2019 05:35:00 3.3 C 96 % 2.72 C
3237 29-04-2019 05:40:00 3.3 C 96 % 2.72 C
3238 29-04-2019 05:45:00 3.3 C 96 % 2.72 C
3239 29-04-2019 05:50:00 3.3 C 96 % 2.72 C
3240 29-04-2019 05:55:00 3.2 C 96 % 2.63 C
3241 29-04-2019 06:00:00 3.2 C 96 % 2.63 C
3242 29-04-2019 06:05:00 3.2 C 96 % 2.63 C
3243 29-04-2019 06:10:00 3.2 C 96 % 2.63 C
3244 29-04-2019 06:15:00 3.2 C 96 % 2.63 C
3245 29-04-2019 06:20:00 3.2 C 96 % 2.63 C
3246 29-04-2019 06:25:00 3.2 C 96 % 2.63 C
3247 29-04-2019 06:30:00 3.1 C 96 % 2.53 C
3248 29-04-2019 06:35:00 3.1 C 96 % 2.53 C
3249 29-04-2019 06:40:00 3.1 C 96 % 2.53 C
3250 29-04-2019 06:45:00 3.1 C 96 % 2.53 C
Sensor: Nr:Datum:Temp:Feuchte:Taupunkt:
Aussen-T/F 3251 29-04-2019 06:50:00 3.1 C 96 % 2.53 C
3252 29-04-2019 06:55:00 3.1 C 96 % 2.53 C
3253 29-04-2019 07:00:00 3.1 C 96 % 2.53 C
3254 29-04-2019 07:05:00 3.1 C 96 % 2.53 C
3255 29-04-2019 07:10:00 3.1 C 96 % 2.53 C
3256 29-04-2019 07:15:00 3.1 C 96 % 2.53 C
3257 29-04-2019 07:20:00 3.2 C 96 % 2.63 C
3258 29-04-2019 07:25:00 3.2 C 96 % 2.63 C
3259 29-04-2019 07:30:00 3.2 C 96 % 2.63 C
3260 29-04-2019 07:35:00 3.3 C 96 % 2.72 C
3261 29-04-2019 07:40:00 3.3 C 96 % 2.72 C
3262 29-04-2019 07:45:00 3.3 C 96 % 2.72 C
3263 29-04-2019 07:50:00 3.4 C 96 % 2.82 C
3264 29-04-2019 07:55:00 3.4 C 96 % 2.82 C
3265 29-04-2019 08:00:00 3.5 C 96 % 2.92 C
3266 29-04-2019 08:05:00 3.6 C 96 % 3.02 C
3267 29-04-2019 08:10:00 3.6 C 96 % 3.02 C
3268 29-04-2019 08:15:00 3.7 C 96 % 3.12 C
3269 29-04-2019 08:20:00 3.7 C 96 % 3.12 C
3270 29-04-2019 08:25:00 3.8 C 97 % 3.37 C
3271 29-04-2019 08:30:00 3.9 C 97 % 3.47 C
3272 29-04-2019 08:35:00 3.9 C 96 % 3.32 C
3273 29-04-2019 08:40:00 4 C 96 % 3.42 C
3274 29-04-2019 08:45:00 4.1 C 97 % 3.67 C
3275 29-04-2019 08:50:00 4.2 C 97 % 3.77 C
Sensor: Nr:Datum:Temp:Feuchte:Taupunkt:
Aussen-T/F 3276 29-04-2019 08:55:00 4.3 C 97 % 3.87 C
3277 29-04-2019 09:00:00 4.4 C 97 % 3.97 C
3278 29-04-2019 09:05:00 4.5 C 97 % 4.07 C
3279 29-04-2019 09:10:00 4.6 C 97 % 4.17 C
3280 29-04-2019 09:15:00 4.7 C 97 % 4.27 C
3281 29-04-2019 09:20:00 4.8 C 97 % 4.37 C
3282 29-04-2019 09:25:00 5 C 97 % 4.56 C
3283 29-04-2019 09:30:00 5.1 C 97 % 4.66 C
3284 29-04-2019 09:35:00 5.2 C 97 % 4.76 C
3285 29-04-2019 09:40:00 5.3 C 97 % 4.86 C
3286 29-04-2019 09:45:00 5.4 C 97 % 4.96 C
3287 29-04-2019 09:50:00 5.5 C 97 % 5.06 C
3288 29-04-2019 09:55:00 5.4 C 97 % 4.96 C
3289 29-04-2019 10:00:00 5.7 C 96 % 5.11 C
3290 29-04-2019 10:05:00 5.8 C 96 % 5.21 C
3291 29-04-2019 10:10:00 5.9 C 96 % 5.31 C
3292 29-04-2019 10:15:00 6.2 C 96 % 5.61 C
3293 29-04-2019 10:20:00 6.3 C 96 % 5.71 C
3294 29-04-2019 10:25:00 6.5 C 96 % 5.91 C
3295 29-04-2019 10:30:00 6.6 C 95 % 5.86 C
3296 29-04-2019 10:35:00 6.8 C 95 % 6.06 C
3297 29-04-2019 10:40:00 6.9 C 95 % 6.16 C
3298 29-04-2019 10:45:00 7.1 C 94 % 6.2 C
3299 29-04-2019 10:50:00 7.2 C 94 % 6.3 C
3300 29-04-2019 10:55:00 7.2 C 93 % 6.15 C
Sensor: Nr:Datum:Temp:Feuchte:Taupunkt:
Aussen-T/F 3301 29-04-2019 11:00:00 7.4 C 93 % 6.34 C
3302 29-04-2019 11:05:00 7.6 C 93 % 6.54 C
3303 29-04-2019 11:10:00 7.8 C 93 % 6.74 C
3304 29-04-2019 11:15:00 8 C 92 % 6.78 C
3305 29-04-2019 11:20:00 8.2 C 92 % 6.98 C
3306 29-04-2019 11:25:00 8.4 C 92 % 7.18 C
3307 29-04-2019 11:30:00 8.8 C 92 % 7.57 C
3308 29-04-2019 11:35:00 9.1 C 91 % 7.71 C
3309 29-04-2019 11:40:00 9.4 C 90 % 7.85 C
3310 29-04-2019 11:45:00 9.7 C 88 % 7.81 C
3311 29-04-2019 11:50:00 9.9 C 87 % 7.84 C
3312 29-04-2019 11:55:00 10.1 C 86 % 7.87 C
3313 29-04-2019 12:00:00 10.4 C 85 % 7.99 C
3314 29-04-2019 12:05:00 10.7 C 84 % 8.11 C
3315 29-04-2019 12:10:00 11.1 C 83 % 8.33 C
3316 29-04-2019 12:15:00 11.3 C 80 % 7.98 C
3317 29-04-2019 12:20:00 11.5 C 78 % 7.8 C
3318 29-04-2019 12:25:00 11.8 C 79 % 8.28 C
3319 29-04-2019 12:30:00 12.1 C 75 % 7.81 C
3320 29-04-2019 12:35:00 12.3 C 76 % 8.2 C
3321 29-04-2019 12:40:00 12.6 C 72 % 7.69 C
3322 29-04-2019 12:45:00 12.8 C 73 % 8.09 C
3323 29-04-2019 12:50:00 13.2 C 71 % 8.06 C
3324 29-04-2019 12:55:00 13.3 C 69 % 7.74 C
3325 29-04-2019 13:00:00 13.5 C 67 % 7.5 C
Sensor: Nr:Datum:Temp:Feuchte:Taupunkt:
Aussen-T/F 3326 29-04-2019 13:05:00 13.7 C 65 % 7.25 C
3327 29-04-2019 13:10:00 13.8 C 63 % 6.89 C
3328 29-04-2019 13:15:00 13.9 C 63 % 6.98 C
3329 29-04-2019 13:20:00 14 C 64 % 7.31 C
3330 29-04-2019 13:25:00 14 C 64 % 7.31 C
3331 29-04-2019 13:30:00 14 C 64 % 7.31 C
3332 29-04-2019 13:35:00 14 C 64 % 7.31 C
3333 29-04-2019 13:40:00 14 C 62 % 6.84 C
3334 29-04-2019 13:45:00 14.2 C 63 % 7.27 C
3335 29-04-2019 13:50:00 14.3 C 61 % 6.89 C
3336 29-04-2019 13:55:00 14.3 C 60 % 6.65 C
3337 29-04-2019 14:00:00 14.3 C 59 % 6.41 C
3338 29-04-2019 14:05:00 14.4 C 60 % 6.74 C
3339 29-04-2019 14:10:00 14.4 C 60 % 6.74 C
3340 29-04-2019 14:15:00 14.7 C 57 % 6.28 C
3341 29-04-2019 14:20:00 14.7 C 56 % 6.02 C
3342 29-04-2019 14:25:00 14.8 C 59 % 6.87 C
3343 29-04-2019 14:30:00 14.8 C 57 % 6.37 C
3344 29-04-2019 14:35:00 14.9 C 56 % 6.21 C
3345 29-04-2019 14:40:00 15.2 C 56 % 6.49 C
3346 29-04-2019 14:45:00 15.3 C 55 % 6.32 C
3347 29-04-2019 14:50:00 15.3 C 55 % 6.32 C
3348 29-04-2019 14:55:00 15.2 C 55 % 6.23 C
3349 29-04-2019 15:00:00 15.2 C 56 % 6.49 C
3350 29-04-2019 15:05:00 15.3 C 57 % 6.84 C
Sensor: Nr:Datum:Temp:Feuchte:Taupunkt:
Aussen-T/F 3351 29-04-2019 15:10:00 15.3 C 55 % 6.32 C
3352 29-04-2019 15:15:00 15.3 C 57 % 6.84 C
3353 29-04-2019 15:20:00 15.2 C 57 % 6.75 C
3354 29-04-2019 15:25:00 15.3 C 57 % 6.84 C
3355 29-04-2019 15:30:00 15.3 C 55 % 6.32 C
3356 29-04-2019 15:35:00 15.3 C 56 % 6.58 C
3357 29-04-2019 15:40:00 15.2 C 56 % 6.49 C
3358 29-04-2019 15:45:00 15.3 C 58 % 7.09 C
3359 29-04-2019 15:50:00 15.4 C 56 % 6.68 C
3360 29-04-2019 15:55:00 15.4 C 56 % 6.68 C
3361 29-04-2019 16:00:00 15.3 C 54 % 6.06 C
3362 29-04-2019 16:05:00 15.3 C 54 % 6.06 C
3363 29-04-2019 16:10:00 15.3 C 55 % 6.32 C
3364 29-04-2019 16:15:00 15.3 C 55 % 6.32 C
3365 29-04-2019 16:20:00 15.3 C 56 % 6.58 C
3366 29-04-2019 16:25:00 15.3 C 55 % 6.32 C
3367 29-04-2019 16:30:00 15.3 C 55 % 6.32 C
3368 29-04-2019 16:35:00 15.3 C 54 % 6.06 C
3369 29-04-2019 16:40:00 15.3 C 55 % 6.32 C
3370 29-04-2019 16:45:00 15.3 C 58 % 7.09 C
3371 29-04-2019 16:50:00 15.4 C 56 % 6.68 C
3372 29-04-2019 16:55:00 15.4 C 57 % 6.93 C
3373 29-04-2019 17:00:00 15.4 C 56 % 6.68 C
3374 29-04-2019 17:05:00 15.4 C 57 % 6.93 C
3375 29-04-2019 17:10:00 15.4 C 56 % 6.68 C
Sensor: Nr:Datum:Temp:Feuchte:Taupunkt:
Aussen-T/F 3376 29-04-2019 17:15:00 15.4 C 55 % 6.42 C
3377 29-04-2019 17:20:00 15.4 C 54 % 6.15 C
3378 29-04-2019 17:25:00 15.4 C 55 % 6.42 C
3379 29-04-2019 17:30:00 15.3 C 57 % 6.84 C
3380 29-04-2019 17:35:00 15.3 C 56 % 6.58 C
3381 29-04-2019 17:40:00 15.3 C 56 % 6.58 C
3382 29-04-2019 17:45:00 15.2 C 56 % 6.49 C
3383 29-04-2019 17:50:00 15.2 C 55 % 6.23 C
3384 29-04-2019 17:55:00 15.1 C 56 % 6.4 C
3385 29-04-2019 18:00:00 14.9 C 57 % 6.47 C
3386 29-04-2019 18:05:00 14.7 C 58 % 6.53 C
3387 29-04-2019 18:10:00 14.4 C 60 % 6.74 C
3388 29-04-2019 18:15:00 14.2 C 63 % 7.27 C
3389 29-04-2019 18:20:00 13.9 C 63 % 6.98 C
3390 29-04-2019 18:25:00 13.7 C 65 % 7.25 C
3391 29-04-2019 18:30:00 13.6 C 69 % 8.03 C
3392 29-04-2019 18:35:00 13.4 C 72 % 8.46 C
3393 29-04-2019 18:40:00 13.3 C 77 % 9.36 C
3394 29-04-2019 18:45:00 13.1 C 77 % 9.16 C
3395 29-04-2019 18:50:00 12.7 C 80 % 9.34 C
3396 29-04-2019 18:55:00 12.4 C 83 % 9.6 C
3397 29-04-2019 19:00:00 12.2 C 84 % 9.58 C
3398 29-04-2019 19:05:00 11.9 C 86 % 9.64 C
3399 29-04-2019 19:10:00 11.7 C 86 % 9.44 C
3400 29-04-2019 19:15:00 11.4 C 87 % 9.32 C
Sensor: Nr:Datum:Temp:Feuchte:Taupunkt:
Aussen-T/F 3401 29-04-2019 19:20:00 11.2 C 88 % 9.29 C
3402 29-04-2019 19:25:00 11 C 88 % 9.09 C
3403 29-04-2019 19:30:00 10.9 C 89 % 9.16 C
3404 29-04-2019 19:35:00 10.7 C 89 % 8.96 C
3405 29-04-2019 19:40:00 10.6 C 90 % 9.03 C
3406 29-04-2019 19:45:00 10.5 C 90 % 8.93 C
3407 29-04-2019 19:50:00 10.4 C 90 % 8.83 C
3408 29-04-2019 19:55:00 10.4 C 90 % 8.83 C
3409 29-04-2019 20:00:00 10.3 C 91 % 8.9 C
3410 29-04-2019 20:05:00 10.3 C 91 % 8.9 C
3411 29-04-2019 20:10:00 10.3 C 91 % 8.9 C
3412 29-04-2019 20:15:00 10.3 C 91 % 8.9 C
3413 29-04-2019 20:20:00 10.2 C 91 % 8.8 C
3414 29-04-2019 20:25:00 10.3 C 92 % 9.06 C
3415 29-04-2019 20:30:00 10.3 C 92 % 9.06 C
3416 29-04-2019 20:35:00 10.2 C 92 % 8.96 C
3417 29-04-2019 20:40:00 10.2 C 92 % 8.96 C
3418 29-04-2019 20:45:00 10.2 C 92 % 8.96 C
3419 29-04-2019 20:50:00 10.2 C 92 % 8.96 C
3420 29-04-2019 20:55:00 10.2 C 92 % 8.96 C
3421 29-04-2019 21:00:00 10.2 C 92 % 8.96 C
3422 29-04-2019 21:05:00 10.1 C 93 % 9.02 C
3423 29-04-2019 21:10:00 10.1 C 93 % 9.02 C
3424 29-04-2019 21:15:00 10.1 C 93 % 9.02 C
3425 29-04-2019 21:20:00 10.1 C 93 % 9.02 C
Sensor: Nr:Datum:Temp:Feuchte:Taupunkt:
Aussen-T/F 3426 29-04-2019 21:25:00 10.1 C 92 % 8.86 C
3427 29-04-2019 21:30:00 10.1 C 92 % 8.86 C
3428 29-04-2019 21:35:00 10.1 C 92 % 8.86 C
3429 29-04-2019 21:40:00 10.1 C 92 % 8.86 C
3430 29-04-2019 21:45:00 10.2 C 92 % 8.96 C
3431 29-04-2019 21:50:00 10.2 C 92 % 8.96 C
3432 29-04-2019 21:55:00 10.2 C 92 % 8.96 C
3433 29-04-2019 22:00:00 10.2 C 92 % 8.96 C
3434 29-04-2019 22:05:00 10.2 C 92 % 8.96 C
3435 29-04-2019 22:10:00 10.2 C 92 % 8.96 C
3436 29-04-2019 22:15:00 10.3 C 92 % 9.06 C
3437 29-04-2019 22:20:00 10.3 C 92 % 9.06 C
3438 29-04-2019 22:25:00 10.2 C 92 % 8.96 C
3439 29-04-2019 22:30:00 10.2 C 92 % 8.96 C
3440 29-04-2019 22:35:00 10.3 C 92 % 9.06 C
3441 29-04-2019 22:40:00 10.3 C 92 % 9.06 C
3442 29-04-2019 22:45:00 10.3 C 91 % 8.9 C
3443 29-04-2019 22:50:00 10.3 C 91 % 8.9 C
3444 29-04-2019 22:55:00 10.3 C 91 % 8.9 C
3445 29-04-2019 23:00:00 10.4 C 90 % 8.83 C
3446 29-04-2019 23:05:00 10.5 C 90 % 8.93 C
3447 29-04-2019 23:10:00 10.6 C 90 % 9.03 C
3448 29-04-2019 23:15:00 10.6 C 89 % 8.86 C
3449 29-04-2019 23:20:00 10.7 C 90 % 9.13 C
3450 29-04-2019 23:25:00 10.7 C 89 % 8.96 C
Sensor: Nr:Datum:Temp:Feuchte:Taupunkt:
Aussen-T/F 3451 29-04-2019 23:30:00 10.7 C 89 % 8.96 C
3452 29-04-2019 23:35:00 10.7 C 89 % 8.96 C
3453 29-04-2019 23:40:00 10.8 C 90 % 9.23 C
3454 29-04-2019 23:45:00 10.8 C 90 % 9.23 C
3455 29-04-2019 23:50:00 10.7 C 90 % 9.13 C
3456 29-04-2019 23:55:00 10.7 C 89 % 8.96 C
3457 30-04-2019 00:00:00 10.8 C 89 % 9.06 C
3458 30-04-2019 00:05:00 10.8 C 89 % 9.06 C
3459 30-04-2019 00:10:00 10.8 C 89 % 9.06 C
3460 30-04-2019 00:15:00 10.8 C 88 % 8.89 C
3461 30-04-2019 00:20:00 10.9 C 87 % 8.82 C
3462 30-04-2019 00:25:00 11 C 87 % 8.92 C
3463 30-04-2019 00:30:00 11.1 C 87 % 9.02 C
3464 30-04-2019 00:35:00 11.1 C 87 % 9.02 C
3465 30-04-2019 00:40:00 11.1 C 87 % 9.02 C
3466 30-04-2019 00:45:00 11.1 C 86 % 8.85 C
3467 30-04-2019 00:50:00 11.1 C 86 % 8.85 C
3468 30-04-2019 00:55:00 11.2 C 86 % 8.95 C
3469 30-04-2019 01:00:00 11.2 C 86 % 8.95 C
3470 30-04-2019 01:05:00 11.2 C 86 % 8.95 C
3471 30-04-2019 01:10:00 11.2 C 86 % 8.95 C
3472 30-04-2019 01:15:00 11.2 C 86 % 8.95 C
3473 30-04-2019 01:20:00 11.2 C 86 % 8.95 C
3474 30-04-2019 01:25:00 11.2 C 86 % 8.95 C
3475 30-04-2019 01:30:00 11.2 C 86 % 8.95 C
Sensor: Nr:Datum:Temp:Feuchte:Taupunkt:
Aussen-T/F 3476 30-04-2019 01:35:00 11.2 C 86 % 8.95 C
3477 30-04-2019 01:40:00 11.1 C 86 % 8.85 C
3478 30-04-2019 01:45:00 11.1 C 87 % 9.02 C
3479 30-04-2019 01:50:00 11.1 C 87 % 9.02 C
3480 30-04-2019 01:55:00 11.1 C 87 % 9.02 C
3481 30-04-2019 02:00:00 11 C 87 % 8.92 C
3482 30-04-2019 02:05:00 11 C 87 % 8.92 C
3483 30-04-2019 02:10:00 10.9 C 88 % 8.99 C
3484 30-04-2019 02:15:00 10.9 C 88 % 8.99 C
3485 30-04-2019 02:20:00 10.9 C 88 % 8.99 C
3486 30-04-2019 02:25:00 10.9 C 88 % 8.99 C
3487 30-04-2019 02:30:00 10.8 C 88 % 8.89 C
3488 30-04-2019 02:35:00 10.8 C 88 % 8.89 C
3489 30-04-2019 02:40:00 10.8 C 88 % 8.89 C
3490 30-04-2019 02:45:00 10.8 C 89 % 9.06 C
3491 30-04-2019 02:50:00 10.7 C 89 % 8.96 C
3492 30-04-2019 02:55:00 10.7 C 89 % 8.96 C
3493 30-04-2019 03:00:00 10.7 C 89 % 8.96 C
3494 30-04-2019 03:05:00 10.7 C 89 % 8.96 C
3495 30-04-2019 03:10:00 10.7 C 89 % 8.96 C
3496 30-04-2019 03:15:00 10.6 C 89 % 8.86 C
3497 30-04-2019 03:20:00 10.6 C 89 % 8.86 C
3498 30-04-2019 03:25:00 10.6 C 89 % 8.86 C
3499 30-04-2019 03:30:00 10.6 C 89 % 8.86 C
3500 30-04-2019 03:35:00 10.6 C 89 % 8.86 C
Sensor: Nr:Datum:Temp:Feuchte:Taupunkt:
Aussen-T/F 3501 30-04-2019 03:40:00 10.6 C 89 % 8.86 C
3502 30-04-2019 03:45:00 10.5 C 89 % 8.77 C
3503 30-04-2019 03:50:00 10.5 C 89 % 8.77 C
3504 30-04-2019 03:55:00 10.4 C 89 % 8.67 C
3505 30-04-2019 04:00:00 10.4 C 89 % 8.67 C
3506 30-04-2019 04:05:00 10.4 C 89 % 8.67 C
3507 30-04-2019 04:10:00 10.4 C 89 % 8.67 C
3508 30-04-2019 04:15:00 10.3 C 89 % 8.57 C
3509 30-04-2019 04:20:00 10.3 C 89 % 8.57 C
3510 30-04-2019 04:25:00 10.3 C 89 % 8.57 C
3511 30-04-2019 04:30:00 10.3 C 88 % 8.4 C
3512 30-04-2019 04:35:00 10.3 C 89 % 8.57 C
3513 30-04-2019 04:40:00 10.3 C 89 % 8.57 C
3514 30-04-2019 04:45:00 10.3 C 89 % 8.57 C
3515 30-04-2019 04:50:00 10.2 C 89 % 8.47 C
3516 30-04-2019 04:55:00 10.2 C 89 % 8.47 C
3517 30-04-2019 05:00:00 10.2 C 89 % 8.47 C
3518 30-04-2019 05:05:00 10.2 C 88 % 8.3 C
3519 30-04-2019 05:10:00 10.2 C 88 % 8.3 C
3520 30-04-2019 05:15:00 10.2 C 88 % 8.3 C
3521 30-04-2019 05:20:00 10.2 C 88 % 8.3 C
3522 30-04-2019 05:25:00 10.2 C 88 % 8.3 C
3523 30-04-2019 05:30:00 10.2 C 88 % 8.3 C
3524 30-04-2019 05:35:00 10.2 C 88 % 8.3 C
3525 30-04-2019 05:40:00 10.2 C 88 % 8.3 C
Sensor: Nr:Datum:Temp:Feuchte:Taupunkt:
Aussen-T/F 3526 30-04-2019 05:45:00 10.2 C 88 % 8.3 C
3527 30-04-2019 05:50:00 10.1 C 88 % 8.21 C
3528 30-04-2019 05:55:00 10.1 C 88 % 8.21 C
3529 30-04-2019 06:00:00 10.1 C 88 % 8.21 C
3530 30-04-2019 06:05:00 10.1 C 88 % 8.21 C
3531 30-04-2019 06:10:00 10.1 C 88 % 8.21 C
3532 30-04-2019 06:15:00 10.1 C 88 % 8.21 C
3533 30-04-2019 06:20:00 10.1 C 89 % 8.37 C
3534 30-04-2019 06:25:00 10.1 C 89 % 8.37 C
3535 30-04-2019 06:30:00 10.1 C 89 % 8.37 C
3536 30-04-2019 06:35:00 10 C 89 % 8.27 C
3537 30-04-2019 06:40:00 10 C 89 % 8.27 C
3538 30-04-2019 06:45:00 10 C 89 % 8.27 C
3539 30-04-2019 06:50:00 10 C 90 % 8.44 C
3540 30-04-2019 06:55:00 10 C 90 % 8.44 C
3541 30-04-2019 07:00:00 10 C 90 % 8.44 C
3542 30-04-2019 07:05:00 9.9 C 90 % 8.34 C
3543 30-04-2019 07:10:00 9.9 C 90 % 8.34 C
3544 30-04-2019 07:15:00 9.9 C 89 % 8.17 C
3545 30-04-2019 07:20:00 10 C 89 % 8.27 C
3546 30-04-2019 07:25:00 10 C 89 % 8.27 C
3547 30-04-2019 07:30:00 10.1 C 89 % 8.37 C
3548 30-04-2019 07:35:00 10.1 C 89 % 8.37 C
3549 30-04-2019 07:40:00 10.2 C 88 % 8.3 C
3550 30-04-2019 07:45:00 10.2 C 88 % 8.3 C
Sensor: Nr:Datum:Temp:Feuchte:Taupunkt:
Aussen-T/F 3551 30-04-2019 07:50:00 10.3 C 87 % 8.23 C
3552 30-04-2019 07:55:00 10.3 C 87 % 8.23 C
3553 30-04-2019 08:00:00 10.4 C 87 % 8.33 C
3554 30-04-2019 08:05:00 10.4 C 87 % 8.33 C
3555 30-04-2019 08:10:00 10.5 C 86 % 8.26 C
3556 30-04-2019 08:15:00 10.6 C 86 % 8.36 C
3557 30-04-2019 08:20:00 10.6 C 86 % 8.36 C
3558 30-04-2019 08:25:00 10.7 C 86 % 8.46 C
3559 30-04-2019 08:30:00 10.7 C 85 % 8.28 C
3560 30-04-2019 08:35:00 10.8 C 83 % 8.03 C
3561 30-04-2019 08:40:00 10.9 C 82 % 7.95 C
3562 30-04-2019 08:45:00 11 C 80 % 7.69 C
3563 30-04-2019 08:50:00 11 C 80 % 7.69 C
3564 30-04-2019 08:55:00 11.1 C 79 % 7.6 C
3565 30-04-2019 09:00:00 11 C 78 % 7.32 C
3566 30-04-2019 09:05:00 11.1 C 76 % 7.04 C
3567 30-04-2019 09:10:00 11.2 C 78 % 7.51 C
3568 30-04-2019 09:15:00 11.3 C 77 % 7.42 C
3569 30-04-2019 09:20:00 11.4 C 77 % 7.52 C
3570 30-04-2019 09:25:00 11.5 C 77 % 7.61 C
3571 30-04-2019 09:30:00 11.6 C 77 % 7.71 C
3572 30-04-2019 09:35:00 11.7 C 77 % 7.81 C
3573 30-04-2019 09:40:00 11.7 C 76 % 7.62 C
3574 30-04-2019 09:45:00 11.8 C 77 % 7.9 C
3575 30-04-2019 09:50:00 11.9 C 76 % 7.81 C
Sensor: Nr:Datum:Temp:Feuchte:Taupunkt:
Aussen-T/F 3576 30-04-2019 09:55:00 12 C 76 % 7.91 C
3577 30-04-2019 10:00:00 12.1 C 76 % 8 C
3578 30-04-2019 10:05:00 12.2 C 73 % 7.51 C
3579 30-04-2019 10:10:00 12.3 C 73 % 7.61 C
3580 30-04-2019 10:15:00 12.4 C 71 % 7.3 C
3581 30-04-2019 10:20:00 12.5 C 70 % 7.18 C
3582 30-04-2019 10:25:00 12.6 C 69 % 7.07 C
3583 30-04-2019 10:30:00 12.6 C 69 % 7.07 C
3584 30-04-2019 10:35:00 12.7 C 69 % 7.17 C
3585 30-04-2019 10:40:00 12.8 C 67 % 6.83 C
3586 30-04-2019 10:45:00 12.9 C 69 % 7.36 C
3587 30-04-2019 10:50:00 13.1 C 68 % 7.34 C
3588 30-04-2019 10:55:00 13.2 C 67 % 7.21 C
3589 30-04-2019 11:00:00 13.3 C 64 % 6.64 C
3590 30-04-2019 11:05:00 13.3 C 64 % 6.64 C
3591 30-04-2019 11:10:00 13.5 C 64 % 6.83 C
3592 30-04-2019 11:15:00 13.6 C 63 % 6.7 C
3593 30-04-2019 11:20:00 13.6 C 63 % 6.7 C
3594 30-04-2019 11:25:00 13.6 C 62 % 6.47 C
3595 30-04-2019 11:30:00 13.6 C 63 % 6.7 C
3596 30-04-2019 11:35:00 13.7 C 62 % 6.56 C
3597 30-04-2019 11:40:00 13.7 C 63 % 6.79 C
3598 30-04-2019 11:45:00 13.8 C 62 % 6.65 C
3599 30-04-2019 11:50:00 13.8 C 62 % 6.65 C
3600 30-04-2019 11:55:00 13.8 C 61 % 6.42 C
Sensor: Nr:Datum:Temp:Feuchte:Taupunkt:
Aussen-T/F 3601 30-04-2019 12:00:00 13.9 C 62 % 6.75 C
3602 30-04-2019 12:05:00 14.2 C 60 % 6.56 C
3603 30-04-2019 12:10:00 14.3 C 59 % 6.41 C
3604 30-04-2019 12:15:00 14.3 C 61 % 6.89 C
3605 30-04-2019 12:20:00 14.3 C 61 % 6.89 C
3606 30-04-2019 12:25:00 14.4 C 58 % 6.25 C
3607 30-04-2019 12:30:00 14.4 C 58 % 6.25 C
3608 30-04-2019 12:35:00 14.6 C 57 % 6.19 C
3609 30-04-2019 12:40:00 14.8 C 56 % 6.12 C
3610 30-04-2019 12:45:00 14.8 C 57 % 6.37 C
3611 30-04-2019 12:50:00 14.9 C 55 % 5.95 C
3612 30-04-2019 12:55:00 15.1 C 56 % 6.4 C
3613 30-04-2019 13:00:00 15.2 C 52 % 5.42 C
3614 30-04-2019 13:05:00 15.3 C 53 % 5.79 C
3615 30-04-2019 13:10:00 15.4 C 55 % 6.42 C
3616 30-04-2019 13:15:00 15.6 C 57 % 7.12 C
3617 30-04-2019 13:20:00 15.6 C 54 % 6.34 C
3618 30-04-2019 13:25:00 15.6 C 54 % 6.34 C
3619 30-04-2019 13:30:00 15.6 C 54 % 6.34 C
3620 30-04-2019 13:35:00 15.7 C 53 % 6.16 C
3621 30-04-2019 13:40:00 15.8 C 51 % 5.69 C
3622 30-04-2019 13:45:00 15.9 C 53 % 6.34 C
3623 30-04-2019 13:50:00 16 C 53 % 6.44 C
3624 30-04-2019 13:55:00 16.2 C 50 % 5.78 C
3625 30-04-2019 14:00:00 16.3 C 52 % 6.44 C
Sensor: Nr:Datum:Temp:Feuchte:Taupunkt:
Aussen-T/F 3626 30-04-2019 14:05:00 16.3 C 49 % 5.58 C
3627 30-04-2019 14:10:00 16.4 C 48 % 5.37 C
3628 30-04-2019 14:15:00 16.5 C 50 % 6.05 C
3629 30-04-2019 14:20:00 16.7 C 49 % 5.95 C
3630 30-04-2019 14:25:00 16.8 C 49 % 6.04 C
3631 30-04-2019 14:30:00 16.9 C 49 % 6.13 C
3632 30-04-2019 14:35:00 17.2 C 47 % 5.8 C
3633 30-04-2019 14:40:00 17.2 C 47 % 5.8 C
3634 30-04-2019 14:45:00 17.2 C 48 % 6.11 C
3635 30-04-2019 14:50:00 17.3 C 47 % 5.89 C
3636 30-04-2019 14:55:00 17.6 C 47 % 6.17 C
3637 30-04-2019 15:00:00 17.7 C 49 % 6.86 C
3638 30-04-2019 15:05:00 17.8 C 46 % 6.04 C
3639 30-04-2019 15:10:00 18.1 C 48 % 6.93 C
3640 30-04-2019 15:15:00 18.3 C 45 % 6.17 C
3641 30-04-2019 15:20:00 18.4 C 47 % 6.9 C
3642 30-04-2019 15:25:00 18.5 C 44 % 6.03 C
3643 30-04-2019 15:30:00 18.6 C 45 % 6.45 C
3644 30-04-2019 15:35:00 18.8 C 45 % 6.63 C
3645 30-04-2019 15:40:00 19.1 C 44 % 6.57 C
3646 30-04-2019 15:45:00 19.2 C 45 % 6.99 C
3647 30-04-2019 15:50:00 19.3 C 43 % 6.42 C
3648 30-04-2019 15:55:00 19.3 C 43 % 6.42 C
3649 30-04-2019 16:00:00 19.4 C 42 % 6.17 C
3650 30-04-2019 16:05:00 19.6 C 42 % 6.35 C
Sensor: Nr:Datum:Temp:Feuchte:Taupunkt:
Aussen-T/F 3651 30-04-2019 16:10:00 19.7 C 42 % 6.44 C
3652 30-04-2019 16:15:00 19.8 C 41 % 6.18 C
3653 30-04-2019 16:20:00 19.9 C 42 % 6.62 C
3654 30-04-2019 16:25:00 20.2 C 41 % 6.54 C
3655 30-04-2019 16:30:00 20.3 C 40 % 6.27 C
3656 30-04-2019 16:35:00 20.2 C 39 % 5.82 C
3657 30-04-2019 16:40:00 20.2 C 39 % 5.82 C
3658 30-04-2019 16:45:00 20.2 C 41 % 6.54 C
3659 30-04-2019 16:50:00 20.4 C 41 % 6.72 C
3660 30-04-2019 16:55:00 20.4 C 40 % 6.36 C
3661 30-04-2019 17:00:00 20.4 C 42 % 7.07 C
3662 30-04-2019 17:05:00 20.5 C 40 % 6.45 C
3663 30-04-2019 17:10:00 20.4 C 42 % 7.07 C
3664 30-04-2019 17:15:00 20.4 C 42 % 7.07 C
3665 30-04-2019 17:20:00 20.6 C 42 % 7.25 C
3666 30-04-2019 17:25:00 20.7 C 42 % 7.34 C
3667 30-04-2019 17:30:00 20.5 C 42 % 7.16 C
3668 30-04-2019 17:35:00 20.5 C 40 % 6.45 C
3669 30-04-2019 17:40:00 20.4 C 41 % 6.72 C
3670 30-04-2019 17:45:00 20.4 C 41 % 6.72 C
3671 30-04-2019 17:50:00 20.4 C 41 % 6.72 C
3672 30-04-2019 17:55:00 20.4 C 43 % 7.41 C
3673 30-04-2019 18:00:00 20.5 C 41 % 6.81 C
3674 30-04-2019 18:05:00 20.3 C 44 % 7.66 C
3675 30-04-2019 18:10:00 20.3 C 43 % 7.32 C
Sensor: Nr:Datum:Temp:Feuchte:Taupunkt:
Aussen-T/F 3676 30-04-2019 18:15:00 20.3 C 42 % 6.98 C
3677 30-04-2019 18:20:00 20.3 C 43 % 7.32 C
3678 30-04-2019 18:25:00 20.4 C 41 % 6.72 C
3679 30-04-2019 18:30:00 20.2 C 43 % 7.23 C
3680 30-04-2019 18:35:00 20.2 C 43 % 7.23 C
3681 30-04-2019 18:40:00 20.2 C 42 % 6.89 C
3682 30-04-2019 18:45:00 20.1 C 44 % 7.48 C
3683 30-04-2019 18:50:00 20.2 C 43 % 7.23 C
3684 30-04-2019 18:55:00 19.9 C 45 % 7.63 C
3685 30-04-2019 19:00:00 19.7 C 46 % 7.77 C
3686 30-04-2019 19:05:00 19.5 C 46 % 7.58 C
3687 30-04-2019 19:10:00 19.5 C 46 % 7.58 C
3688 30-04-2019 19:15:00 19.4 C 47 % 7.81 C
3689 30-04-2019 19:20:00 19.3 C 48 % 8.03 C
3690 30-04-2019 19:25:00 19.2 C 49 % 8.24 C
3691 30-04-2019 19:30:00 19.1 C 49 % 8.15 C
3692 30-04-2019 19:35:00 18.8 C 49 % 7.87 C
3693 30-04-2019 19:40:00 18.5 C 50 % 7.89 C
3694 30-04-2019 19:45:00 18.2 C 51 % 7.91 C
3695 30-04-2019 19:50:00 17.9 C 52 % 7.91 C
3696 30-04-2019 19:55:00 17.8 C 53 % 8.1 C
3697 30-04-2019 20:00:00 17.7 C 53 % 8.01 C
3698 30-04-2019 20:05:00 17.4 C 54 % 8.01 C
3699 30-04-2019 20:10:00 17.3 C 55 % 8.18 C
3700 30-04-2019 20:15:00 17.2 C 56 % 8.35 C
Sensor: Nr:Datum:Temp:Feuchte:Taupunkt:
Aussen-T/F 3701 30-04-2019 20:20:00 17.2 C 56 % 8.35 C
3702 30-04-2019 20:25:00 17.1 C 58 % 8.78 C
3703 30-04-2019 20:30:00 16.9 C 57 % 8.34 C
3704 30-04-2019 20:35:00 16.8 C 58 % 8.5 C
3705 30-04-2019 20:40:00 16.6 C 58 % 8.31 C
3706 30-04-2019 20:45:00 16.6 C 59 % 8.56 C
3707 30-04-2019 20:50:00 16.4 C 59 % 8.38 C
3708 30-04-2019 20:55:00 16.3 C 60 % 8.53 C
3709 30-04-2019 21:00:00 16.2 C 61 % 8.68 C
3710 30-04-2019 21:05:00 16.2 C 63 % 9.16 C
3711 30-04-2019 21:10:00 16 C 62 % 8.73 C
3712 30-04-2019 21:15:00 15.8 C 64 % 9.01 C
3713 30-04-2019 21:20:00 15.7 C 63 % 8.68 C
3714 30-04-2019 21:25:00 15.5 C 65 % 8.96 C
3715 30-04-2019 21:30:00 15.3 C 64 % 8.54 C
3716 30-04-2019 21:35:00 15.3 C 66 % 8.99 C
3717 30-04-2019 21:40:00 15.2 C 66 % 8.9 C
3718 30-04-2019 21:45:00 15 C 67 % 8.93 C
3719 30-04-2019 21:50:00 14.9 C 68 % 9.05 C
3720 30-04-2019 21:55:00 14.7 C 69 % 9.08 C
3721 30-04-2019 22:00:00 14.5 C 70 % 9.1 C
3722 30-04-2019 22:05:00 14.4 C 70 % 9 C
3723 30-04-2019 22:10:00 14.4 C 69 % 8.79 C
3724 30-04-2019 22:15:00 14.5 C 69 % 8.89 C
3725 30-04-2019 22:20:00 14.5 C 69 % 8.89 C
Sensor: Nr:Datum:Temp:Feuchte:Taupunkt:
Aussen-T/F 3726 30-04-2019 22:25:00 14.4 C 71 % 9.21 C
3727 30-04-2019 22:30:00 14.3 C 71 % 9.12 C
3728 30-04-2019 22:35:00 14.2 C 71 % 9.02 C
3729 30-04-2019 22:40:00 14.1 C 72 % 9.13 C
3730 30-04-2019 22:45:00 13.9 C 72 % 8.94 C
3731 30-04-2019 22:50:00 13.8 C 73 % 9.05 C
3732 30-04-2019 22:55:00 13.7 C 73 % 8.95 C
3733 30-04-2019 23:00:00 13.6 C 74 % 9.06 C
3734 30-04-2019 23:05:00 13.5 C 74 % 8.96 C
3735 30-04-2019 23:10:00 13.3 C 75 % 8.97 C
3736 30-04-2019 23:15:00 13.1 C 76 % 8.97 C
3737 30-04-2019 23:20:00 12.8 C 78 % 9.06 C
3738 30-04-2019 23:25:00 12.7 C 78 % 8.97 C
3739 30-04-2019 23:30:00 12.6 C 79 % 9.06 C
3740 30-04-2019 23:35:00 12.4 C 79 % 8.86 C
3741 30-04-2019 23:40:00 12.2 C 80 % 8.86 C
3742 30-04-2019 23:45:00 12.1 C 80 % 8.76 C
3743 30-04-2019 23:50:00 11.9 C 81 % 8.75 C
3744 30-04-2019 23:55:00 11.7 C 81 % 8.55 C
3745 01-05-2019 00:00:00 11.6 C 82 % 8.64 C
3746 01-05-2019 00:05:00 11.4 C 82 % 8.44 C
3747 01-05-2019 00:10:00 11.3 C 83 % 8.52 C
3748 01-05-2019 00:15:00 11.3 C 83 % 8.52 C
3749 01-05-2019 00:20:00 11.3 C 84 % 8.7 C
3750 01-05-2019 00:25:00 11.2 C 83 % 8.42 C
Sensor: Nr:Datum:Temp:Feuchte:Taupunkt:
Aussen-T/F 3751 01-05-2019 00:30:00 11.2 C 84 % 8.6 C
3752 01-05-2019 00:35:00 11.3 C 83 % 8.52 C
3753 01-05-2019 00:40:00 11.3 C 83 % 8.52 C
3754 01-05-2019 00:45:00 11.2 C 83 % 8.42 C
3755 01-05-2019 00:50:00 11.1 C 83 % 8.33 C
3756 01-05-2019 00:55:00 10.9 C 84 % 8.31 C
3757 01-05-2019 01:00:00 10.7 C 84 % 8.11 C
3758 01-05-2019 01:05:00 10.6 C 85 % 8.19 C
3759 01-05-2019 01:10:00 10.6 C 85 % 8.19 C
3760 01-05-2019 01:15:00 10.6 C 85 % 8.19 C
3761 01-05-2019 01:20:00 10.6 C 85 % 8.19 C
3762 01-05-2019 01:25:00 10.6 C 85 % 8.19 C
3763 01-05-2019 01:30:00 10.3 C 85 % 7.89 C
3764 01-05-2019 01:35:00 10.2 C 86 % 7.97 C
3765 01-05-2019 01:40:00 10.2 C 86 % 7.97 C
3766 01-05-2019 01:45:00 10.1 C 86 % 7.87 C
3767 01-05-2019 01:50:00 10 C 87 % 7.94 C
3768 01-05-2019 01:55:00 9.9 C 87 % 7.84 C
3769 01-05-2019 02:00:00 9.8 C 87 % 7.74 C
3770 01-05-2019 02:05:00 9.7 C 87 % 7.64 C
3771 01-05-2019 02:10:00 9.6 C 87 % 7.55 C
3772 01-05-2019 02:15:00 9.5 C 87 % 7.45 C
3773 01-05-2019 02:20:00 9.4 C 88 % 7.52 C
3774 01-05-2019 02:25:00 9.3 C 88 % 7.42 C
3775 01-05-2019 02:30:00 9.2 C 88 % 7.32 C
Sensor: Nr:Datum:Temp:Feuchte:Taupunkt:
Aussen-T/F 3776 01-05-2019 02:35:00 9.1 C 89 % 7.39 C
3777 01-05-2019 02:40:00 9 C 89 % 7.29 C
3778 01-05-2019 02:45:00 8.9 C 89 % 7.19 C
3779 01-05-2019 02:50:00 8.9 C 90 % 7.35 C
3780 01-05-2019 02:55:00 8.8 C 90 % 7.25 C
3781 01-05-2019 03:00:00 8.8 C 90 % 7.25 C
3782 01-05-2019 03:05:00 8.7 C 90 % 7.15 C
3783 01-05-2019 03:10:00 8.6 C 90 % 7.06 C
3784 01-05-2019 03:15:00 8.5 C 90 % 6.96 C
3785 01-05-2019 03:20:00 8.5 C 91 % 7.12 C
3786 01-05-2019 03:25:00 8.4 C 91 % 7.02 C
3787 01-05-2019 03:30:00 8.4 C 91 % 7.02 C
3788 01-05-2019 03:35:00 8.4 C 91 % 7.02 C
3789 01-05-2019 03:40:00 8.3 C 91 % 6.92 C
3790 01-05-2019 03:45:00 8.3 C 91 % 6.92 C
3791 01-05-2019 03:50:00 8.3 C 92 % 7.08 C
3792 01-05-2019 03:55:00 8.3 C 92 % 7.08 C
3793 01-05-2019 04:00:00 8.3 C 92 % 7.08 C
3794 01-05-2019 04:05:00 8.3 C 92 % 7.08 C
3795 01-05-2019 04:10:00 8.3 C 92 % 7.08 C
3796 01-05-2019 04:15:00 8.3 C 92 % 7.08 C
3797 01-05-2019 04:20:00 8.3 C 92 % 7.08 C
3798 01-05-2019 04:25:00 8.2 C 92 % 6.98 C
3799 01-05-2019 04:30:00 8.1 C 92 % 6.88 C
3800 01-05-2019 04:35:00 8 C 92 % 6.78 C
Sensor: Nr:Datum:Temp:Feuchte:Taupunkt:
Aussen-T/F 3801 01-05-2019 04:40:00 7.9 C 92 % 6.68 C
3802 01-05-2019 04:45:00 7.8 C 91 % 6.43 C
3803 01-05-2019 04:50:00 7.7 C 91 % 6.33 C
3804 01-05-2019 04:55:00 7.7 C 91 % 6.33 C
3805 01-05-2019 05:00:00 7.6 C 92 % 6.39 C
3806 01-05-2019 05:05:00 7.4 C 92 % 6.19 C
3807 01-05-2019 05:10:00 7.3 C 92 % 6.09 C
3808 01-05-2019 05:15:00 7.2 C 92 % 5.99 C
3809 01-05-2019 05:20:00 7.1 C 92 % 5.89 C
3810 01-05-2019 05:25:00 6.9 C 92 % 5.69 C
3811 01-05-2019 05:30:00 6.8 C 92 % 5.59 C
3812 01-05-2019 05:35:00 6.7 C 92 % 5.49 C
3813 01-05-2019 05:40:00 6.7 C 92 % 5.49 C
3814 01-05-2019 05:45:00 6.6 C 93 % 5.55 C
3815 01-05-2019 05:50:00 6.6 C 93 % 5.55 C
3816 01-05-2019 05:55:00 6.6 C 93 % 5.55 C
3817 01-05-2019 06:00:00 6.4 C 93 % 5.35 C
3818 01-05-2019 06:05:00 6.3 C 93 % 5.25 C
3819 01-05-2019 06:10:00 6.3 C 93 % 5.25 C
3820 01-05-2019 06:15:00 6.3 C 93 % 5.25 C
3821 01-05-2019 06:20:00 6.3 C 94 % 5.41 C
3822 01-05-2019 06:25:00 6.2 C 93 % 5.15 C
3823 01-05-2019 06:30:00 6.2 C 94 % 5.31 C
3824 01-05-2019 06:35:00 6.3 C 94 % 5.41 C
3825 01-05-2019 06:40:00 6.3 C 94 % 5.41 C
Sensor: Nr:Datum:Temp:Feuchte:Taupunkt:
Aussen-T/F 3826 01-05-2019 06:45:00 6.3 C 94 % 5.41 C
3827 01-05-2019 06:50:00 6.2 C 94 % 5.31 C
3828 01-05-2019 06:55:00 6.2 C 94 % 5.31 C
3829 01-05-2019 07:00:00 6.3 C 94 % 5.41 C
3830 01-05-2019 07:05:00 6.3 C 95 % 5.56 C
3831 01-05-2019 07:10:00 6.4 C 95 % 5.66 C
3832 01-05-2019 07:15:00 6.6 C 95 % 5.86 C
3833 01-05-2019 07:20:00 6.7 C 95 % 5.96 C
3834 01-05-2019 07:25:00 6.8 C 95 % 6.06 C
3835 01-05-2019 07:30:00 6.8 C 95 % 6.06 C
3836 01-05-2019 07:35:00 6.9 C 95 % 6.16 C
3837 01-05-2019 07:40:00 7.1 C 95 % 6.35 C
3838 01-05-2019 07:45:00 7.1 C 95 % 6.35 C
3839 01-05-2019 07:50:00 7.2 C 95 % 6.45 C
3840 01-05-2019 07:55:00 7.3 C 95 % 6.55 C
3841 01-05-2019 08:00:00 7.3 C 95 % 6.55 C
3842 01-05-2019 08:05:00 7.5 C 95 % 6.75 C
3843 01-05-2019 08:10:00 7.5 C 95 % 6.75 C
3844 01-05-2019 08:15:00 7.6 C 95 % 6.85 C
3845 01-05-2019 08:20:00 7.7 C 95 % 6.95 C
3846 01-05-2019 08:25:00 7.9 C 95 % 7.15 C
3847 01-05-2019 08:30:00 8.1 C 95 % 7.35 C
3848 01-05-2019 08:35:00 8.1 C 95 % 7.35 C
3849 01-05-2019 08:40:00 8.2 C 95 % 7.45 C
3850 01-05-2019 08:45:00 8.2 C 95 % 7.45 C
Sensor: Nr:Datum:Temp:Feuchte:Taupunkt:
Aussen-T/F 3851 01-05-2019 08:50:00 8.3 C 94 % 7.39 C
3852 01-05-2019 08:55:00 8.4 C 94 % 7.49 C
3853 01-05-2019 09:00:00 8.4 C 94 % 7.49 C
3854 01-05-2019 09:05:00 8.6 C 94 % 7.69 C
3855 01-05-2019 09:10:00 8.6 C 94 % 7.69 C
3856 01-05-2019 09:15:00 8.7 C 93 % 7.63 C
3857 01-05-2019 09:20:00 8.7 C 93 % 7.63 C
3858 01-05-2019 09:25:00 8.8 C 93 % 7.73 C
3859 01-05-2019 09:30:00 8.9 C 93 % 7.83 C
3860 01-05-2019 09:35:00 9.1 C 93 % 8.03 C
3861 01-05-2019 09:40:00 9.1 C 92 % 7.87 C
3862 01-05-2019 09:45:00 9.2 C 92 % 7.97 C
3863 01-05-2019 09:50:00 9.2 C 92 % 7.97 C
3864 01-05-2019 09:55:00 9.4 C 92 % 8.17 C
3865 01-05-2019 10:00:00 9.6 C 92 % 8.37 C
3866 01-05-2019 10:05:00 9.7 C 92 % 8.46 C
3867 01-05-2019 10:10:00 9.9 C 92 % 8.66 C
3868 01-05-2019 10:15:00 10.1 C 90 % 8.54 C
3869 01-05-2019 10:20:00 10 C 89 % 8.27 C
3870 01-05-2019 10:25:00 10 C 90 % 8.44 C
3871 01-05-2019 10:30:00 10.1 C 90 % 8.54 C
3872 01-05-2019 10:35:00 10.3 C 89 % 8.57 C
3873 01-05-2019 10:40:00 10.4 C 89 % 8.67 C
3874 01-05-2019 10:45:00 10.4 C 88 % 8.5 C
3875 01-05-2019 10:50:00 10.4 C 88 % 8.5 C
Sensor: Nr:Datum:Temp:Feuchte:Taupunkt:
Aussen-T/F 3876 01-05-2019 10:55:00 10.5 C 88 % 8.6 C
3877 01-05-2019 11:00:00 10.5 C 88 % 8.6 C
3878 01-05-2019 11:05:00 10.6 C 88 % 8.7 C
3879 01-05-2019 11:10:00 10.7 C 88 % 8.8 C
3880 01-05-2019 11:15:00 10.8 C 87 % 8.73 C
3881 01-05-2019 11:20:00 10.9 C 87 % 8.82 C
3882 01-05-2019 11:25:00 11.2 C 87 % 9.12 C
3883 01-05-2019 11:30:00 11.4 C 87 % 9.32 C
3884 01-05-2019 11:35:00 11.7 C 86 % 9.44 C
3885 01-05-2019 11:40:00 11.9 C 86 % 9.64 C
3886 01-05-2019 11:45:00 12.2 C 85 % 9.76 C
3887 01-05-2019 11:50:00 12.4 C 84 % 9.78 C
3888 01-05-2019 11:55:00 12.6 C 82 % 9.61 C
3889 01-05-2019 12:00:00 12.7 C 83 % 9.89 C
3890 01-05-2019 12:05:00 12.9 C 82 % 9.9 C
3891 01-05-2019 12:10:00 13.2 C 82 % 10.2 C
3892 01-05-2019 12:15:00 13.3 C 81 % 10.11 C
3893 01-05-2019 12:20:00 13.6 C 80 % 10.22 C
3894 01-05-2019 12:25:00 13.7 C 79 % 10.13 C
3895 01-05-2019 12:30:00 13.9 C 79 % 10.32 C
3896